<?xml version="1.0" encoding="UTF-8" standalone="no" ?><gpx xmlns="http://www.topografix.com/GPX/1/1" xmlns:gpxx="http://www.garmin.com/xmlschemas/GpxExtensions/v3" xmlns:gpxtrkx="http://www.garmin.com/xmlschemas/TrackStatsExtension/v1" xmlns:wptx1="http://www.garmin.com/xmlschemas/WaypointExtension/v1" xmlns:gpxtpx="http://www.garmin.com/xmlschemas/TrackPointExtension/v1" creator="GPSMAP 64" version="1.1" xmlns:xsi="http://www.w3.org/2001/XMLSchema-instance" xsi:schemaLocation="http://www.topografix.com/GPX/1/1 http://www.topografix.com/GPX/1/1/gpx.xsd http://www.garmin.com/xmlschemas/GpxExtensions/v3 http://www8.garmin.com/xmlschemas/GpxExtensionsv3.xsd http://www.garmin.com/xmlschemas/TrackStatsExtension/v1 http://www8.garmin.com/xmlschemas/TrackStatsExtension.xsd http://www.garmin.com/xmlschemas/WaypointExtension/v1 http://www8.garmin.com/xmlschemas/WaypointExtensionv1.xsd http://www.garmin.com/xmlschemas/TrackPointExtension/v1 http://www.garmin.com/xmlschemas/TrackPointExtensionv1.xsd"><metadata><link href="http://www.garmin.com"><text>Garmin International</text></link><time>2026-08-15T08:18:28Z</time></metadata><trk><name>20260815LISA13</name><extensions><gpxx:TrackExtension><gpxx:DisplayColor>Magenta</gpxx:DisplayColor></gpxx:TrackExtension><gpxtrkx:TrackStatsExtension><gpxtrkx:Distance>16137.000</gpxtrkx:Distance><gpxtrkx:TotalElapsedTime>77148</gpxtrkx:TotalElapsedTime><gpxtrkx:MovingTime>29719</gpxtrkx:MovingTime><gpxtrkx:StoppedTime>5591</gpxtrkx:StoppedTime><gpxtrkx:MovingSpeed>0.543</gpxtrkx:MovingSpeed><gpxtrkx:MaxSpeed>122.335</gpxtrkx:MaxSpeed><gpxtrkx:MaxElevation>4760.325</gpxtrkx:MaxElevation><gpxtrkx:MinElevation>-1034.476</gpxtrkx:MinElevation><gpxtrkx:Ascent>71418.000</gpxtrkx:Ascent><gpxtrkx:Descent>77506.703</gpxtrkx:Descent><gpxtrkx:AvgAscentRate>0.046</gpxtrkx:AvgAscentRate><gpxtrkx:MaxAscentRate>7.208</gpxtrkx:MaxAscentRate><gpxtrkx:AvgDescentRate>0.050</gpxtrkx:AvgDescentRate><gpxtrkx:MaxDescentRate>-12.058</gpxtrkx:MaxDescentRate></gpxtrkx:TrackStatsExtension></extensions><trkseg><trkpt lat="59.3505532388" lon="34.6994912624"><ele>146.38</ele><time>2026-08-14T22:26:34Z</time></trkpt><trkpt lat="59.3505301047" lon="34.6994264703"><ele>147.13</ele><time>2026-08-14T22:26:57Z</time></trkpt><trkpt lat="59.3505119998" lon="34.6994470060"><ele>148.65</ele><time>2026-08-14T22:27:19Z</time></trkpt><trkpt lat="59.3505073898" lon="34.6994652785"><ele>149.28</ele><time>2026-08-14T22:27:46Z</time></trkpt><trkpt lat="59.3505416717" lon="34.6994373668"><ele>150.34</ele><time>2026-08-14T22:28:11Z</time></trkpt><trkpt lat="59.3505404983" lon="34.6994346846"><ele>150.67</ele><time>2026-08-14T22:28:39Z</time></trkpt><trkpt lat="59.3505482096" lon="34.6994252969"><ele>151.77</ele><time>2026-08-14T22:29:03Z</time></trkpt><trkpt lat="59.3505529035" lon="34.6994274762"><ele>151.13</ele><time>2026-08-14T22:29:19Z</time></trkpt><trkpt lat="59.3505387381" lon="34.6994529571"><ele>150.93</ele><time>2026-08-14T22:29:43Z</time></trkpt><trkpt lat="59.3505365588" lon="34.6994546335"><ele>151.13</ele><time>2026-08-14T22:30:04Z</time></trkpt><trkpt lat="59.3505361397" lon="34.6994442400"><ele>151.75</ele><time>2026-08-14T22:30:26Z</time></trkpt><trkpt lat="59.3505342957" lon="34.6994299069"><ele>152.38</ele><time>2026-08-14T22:30:51Z</time></trkpt><trkpt lat="59.3505302723" lon="34.6994305775"><ele>152.76</ele><time>2026-08-14T22:31:15Z</time></trkpt><trkpt lat="59.3505401630" lon="34.6994322538"><ele>153.33</ele><time>2026-08-14T22:31:41Z</time></trkpt><trkpt lat="59.3505517300" lon="34.6994135622"><ele>154.19</ele><time>2026-08-14T22:32:09Z</time></trkpt><trkpt lat="59.3505626265" lon="34.6994232852"><ele>154.27</ele><time>2026-08-14T22:32:27Z</time></trkpt><trkpt lat="59.3505402468" lon="34.6994201839"><ele>154.28</ele><time>2026-08-14T22:32:54Z</time></trkpt><trkpt lat="59.3505420070" lon="34.6994272247"><ele>154.55</ele><time>2026-08-14T22:33:18Z</time></trkpt><trkpt lat="59.3505363911" lon="34.6994649433"><ele>154.70</ele><time>2026-08-14T22:33:43Z</time></trkpt><trkpt lat="59.3505373131" lon="34.6994962078"><ele>155.74</ele><time>2026-08-14T22:34:08Z</time></trkpt><trkpt lat="59.3505368102" lon="34.6994899213"><ele>156.80</ele><time>2026-08-14T22:34:33Z</time></trkpt><trkpt lat="59.3505561724" lon="34.6994647756"><ele>158.17</ele><time>2026-08-14T22:34:50Z</time></trkpt><trkpt lat="59.3505527359" lon="34.6994416416"><ele>158.07</ele><time>2026-08-14T22:35:13Z</time></trkpt><trkpt lat="59.3505658116" lon="34.6994091198"><ele>158.46</ele><time>2026-08-14T22:35:35Z</time></trkpt><trkpt lat="59.3505766243" lon="34.6993974689"><ele>159.65</ele><time>2026-08-14T22:35:55Z</time></trkpt><trkpt lat="59.3505687453" lon="34.6993857343"><ele>159.68</ele><time>2026-08-14T22:36:15Z</time></trkpt><trkpt lat="59.3505771272" lon="34.6994302422"><ele>159.39</ele><time>2026-08-14T22:36:41Z</time></trkpt><trkpt lat="59.3505668174" lon="34.6994061023"><ele>159.68</ele><time>2026-08-14T22:37:05Z</time></trkpt><trkpt lat="59.3505757023" lon="34.6994641051"><ele>161.02</ele><time>2026-08-14T22:37:35Z</time></trkpt><trkpt lat="59.3505781330" lon="34.6994807851"><ele>162.66</ele><time>2026-08-14T22:38:07Z</time></trkpt><trkpt lat="59.3505638000" lon="34.6994777676"><ele>162.91</ele><time>2026-08-14T22:38:39Z</time></trkpt><trkpt lat="59.3505933881" lon="34.6994047612"><ele>162.08</ele><time>2026-08-14T22:39:00Z</time></trkpt><trkpt lat="59.3505640514" lon="34.6992808767"><ele>161.83</ele><time>2026-08-14T22:39:17Z</time></trkpt><trkpt lat="59.3505782168" lon="34.6993013285"><ele>162.11</ele><time>2026-08-14T22:39:36Z</time></trkpt><trkpt lat="59.3505710084" lon="34.6994486824"><ele>161.90</ele><time>2026-08-14T22:39:55Z</time></trkpt><trkpt lat="59.3505741935" lon="34.6994884964"><ele>161.52</ele><time>2026-08-14T22:40:21Z</time></trkpt><trkpt lat="59.3505812343" lon="34.6994540468"><ele>161.01</ele><time>2026-08-14T22:40:44Z</time></trkpt><trkpt lat="59.3505638838" lon="34.6994062699"><ele>159.28</ele><time>2026-08-14T22:41:21Z</time></trkpt><trkpt lat="59.3505835813" lon="34.6994102094"><ele>159.21</ele><time>2026-08-14T22:41:43Z</time></trkpt><trkpt lat="59.3505767919" lon="34.6993952058"><ele>158.92</ele><time>2026-08-14T22:42:00Z</time></trkpt><trkpt lat="59.3505715113" lon="34.6993107162"><ele>158.42</ele><time>2026-08-14T22:42:17Z</time></trkpt><trkpt lat="59.3505741935" lon="34.6992896777"><ele>157.95</ele><time>2026-08-14T22:42:25Z</time></trkpt><trkpt lat="59.3505961541" lon="34.6992880013"><ele>158.15</ele><time>2026-08-14T22:42:36Z</time></trkpt><trkpt lat="59.3506018538" lon="34.6992658731"><ele>157.99</ele><time>2026-08-14T22:42:38Z</time></trkpt><trkpt lat="59.3506113254" lon="34.6992317587"><ele>157.83</ele><time>2026-08-14T22:42:40Z</time></trkpt><trkpt lat="59.3506210484" lon="34.6992307529"><ele>157.09</ele><time>2026-08-14T22:42:49Z</time></trkpt><trkpt lat="59.3506296817" lon="34.6995574795"><ele>154.75</ele><time>2026-08-14T22:43:04Z</time></trkpt><trkpt lat="59.3506383989" lon="34.6996487584"><ele>154.72</ele><time>2026-08-14T22:43:08Z</time></trkpt><trkpt lat="59.3506839126" lon="34.6998124570"><ele>154.93</ele><time>2026-08-14T22:43:16Z</time></trkpt><trkpt lat="59.3507596850" lon="34.7001302149"><ele>157.30</ele><time>2026-08-14T22:43:33Z</time></trkpt><trkpt lat="59.3508362118" lon="34.7005155310"><ele>160.00</ele><time>2026-08-14T22:43:57Z</time></trkpt><trkpt lat="59.3508914486" lon="34.7009273339"><ele>160.79</ele><time>2026-08-14T22:44:15Z</time></trkpt><trkpt lat="59.3509704061" lon="34.7013546433"><ele>161.37</ele><time>2026-08-14T22:44:34Z</time></trkpt><trkpt lat="59.3509993237" lon="34.7016382869"><ele>161.23</ele><time>2026-08-14T22:44:46Z</time></trkpt><trkpt lat="59.3509993237" lon="34.7018072661"><ele>160.82</ele><time>2026-08-14T22:44:53Z</time></trkpt><trkpt lat="59.3510657083" lon="34.7021792550"><ele>160.23</ele><time>2026-08-14T22:45:09Z</time></trkpt><trkpt lat="59.3513242900" lon="34.7023913171"><ele>158.77</ele><time>2026-08-14T22:45:30Z</time></trkpt><trkpt lat="59.3515236117" lon="34.7024442069"><ele>156.30</ele><time>2026-08-14T22:45:47Z</time></trkpt><trkpt lat="59.3516607396" lon="34.7024818417"><ele>159.15</ele><time>2026-08-14T22:46:02Z</time></trkpt><trkpt lat="59.3517790921" lon="34.7025240026"><ele>159.05</ele><time>2026-08-14T22:46:17Z</time></trkpt><trkpt lat="59.3519707862" lon="34.7028315347"><ele>159.58</ele><time>2026-08-14T22:46:37Z</time></trkpt><trkpt lat="59.3519686908" lon="34.7032740992"><ele>158.88</ele><time>2026-08-14T22:46:54Z</time></trkpt><trkpt lat="59.3519442994" lon="34.7037397977"><ele>157.78</ele><time>2026-08-14T22:47:13Z</time></trkpt><trkpt lat="59.3519321457" lon="34.7041300591"><ele>157.41</ele><time>2026-08-14T22:47:30Z</time></trkpt><trkpt lat="59.3519282062" lon="34.7042246908"><ele>157.33</ele><time>2026-08-14T22:47:34Z</time></trkpt><trkpt lat="59.3519284576" lon="34.7045914829"><ele>156.49</ele><time>2026-08-14T22:47:49Z</time></trkpt><trkpt lat="59.3519317266" lon="34.7050397471"><ele>156.63</ele><time>2026-08-14T22:48:08Z</time></trkpt><trkpt lat="59.3519152142" lon="34.7054554895"><ele>157.06</ele><time>2026-08-14T22:48:26Z</time></trkpt><trkpt lat="59.3519114424" lon="34.7058532108"><ele>157.64</ele><time>2026-08-14T22:48:42Z</time></trkpt><trkpt lat="59.3519853707" lon="34.7062333301"><ele>157.47</ele><time>2026-08-14T22:48:58Z</time></trkpt><trkpt lat="59.3520230055" lon="34.7063071746"><ele>157.34</ele><time>2026-08-14T22:49:02Z</time></trkpt><trkpt lat="59.3522366602" lon="34.7066748887"><ele>157.37</ele><time>2026-08-14T22:49:23Z</time></trkpt><trkpt lat="59.3522545975" lon="34.7067131940"><ele>157.34</ele><time>2026-08-14T22:49:25Z</time></trkpt><trkpt lat="59.3523602933" lon="34.7065265290"><ele>155.97</ele><time>2026-08-14T22:49:37Z</time></trkpt><trkpt lat="59.3524913024" lon="34.7061157320"><ele>153.46</ele><time>2026-08-14T22:49:56Z</time></trkpt><trkpt lat="59.3525700085" lon="34.7058010753"><ele>152.28</ele><time>2026-08-14T22:50:10Z</time></trkpt><trkpt lat="59.3525933102" lon="34.7056994028"><ele>152.00</ele><time>2026-08-14T22:50:15Z</time></trkpt><trkpt lat="59.3526714295" lon="34.7054664697"><ele>151.54</ele><time>2026-08-14T22:50:26Z</time></trkpt><trkpt lat="59.3527363054" lon="34.7053119913"><ele>150.89</ele><time>2026-08-14T22:50:34Z</time></trkpt><trkpt lat="59.3528620340" lon="34.7050257493"><ele>148.64</ele><time>2026-08-14T22:50:50Z</time></trkpt><trkpt lat="59.3529855832" lon="34.7048056405"><ele>147.11</ele><time>2026-08-14T22:51:05Z</time></trkpt><trkpt lat="59.3531317636" lon="34.7045465559"><ele>147.16</ele><time>2026-08-14T22:51:21Z</time></trkpt><trkpt lat="59.3532160018" lon="34.7041849606"><ele>144.49</ele><time>2026-08-14T22:51:38Z</time></trkpt><trkpt lat="59.3532385491" lon="34.7037100419"><ele>141.17</ele><time>2026-08-14T22:51:57Z</time></trkpt><trkpt lat="59.3532762676" lon="34.7033302579"><ele>141.95</ele><time>2026-08-14T22:52:14Z</time></trkpt><trkpt lat="59.3532787822" lon="34.7029671539"><ele>141.84</ele><time>2026-08-14T22:52:29Z</time></trkpt><trkpt lat="59.3532911036" lon="34.7026236635"><ele>144.32</ele><time>2026-08-14T22:52:45Z</time></trkpt><trkpt lat="59.3533200212" lon="34.7022462264"><ele>146.63</ele><time>2026-08-14T22:53:02Z</time></trkpt><trkpt lat="59.3533468433" lon="34.7020122036"><ele>150.50</ele><time>2026-08-14T22:53:15Z</time></trkpt><trkpt lat="59.3533838075" lon="34.7017177474"><ele>154.19</ele><time>2026-08-14T22:53:30Z</time></trkpt><trkpt lat="59.3534128927" lon="34.7013931163"><ele>157.18</ele><time>2026-08-14T22:53:47Z</time></trkpt><trkpt lat="59.3534516171" lon="34.7011460178"><ele>159.24</ele><time>2026-08-14T22:54:02Z</time></trkpt><trkpt lat="59.3534873240" lon="34.7007957380"><ele>158.94</ele><time>2026-08-14T22:54:17Z</time></trkpt><trkpt lat="59.3535135593" lon="34.7004669160"><ele>158.63</ele><time>2026-08-14T22:54:34Z</time></trkpt><trkpt lat="59.3535532057" lon="34.7000676859"><ele>159.25</ele><time>2026-08-14T22:54:51Z</time></trkpt><trkpt lat="59.3536155671" lon="34.6998390276"><ele>159.55</ele><time>2026-08-14T22:55:03Z</time></trkpt><trkpt lat="59.3537924252" lon="34.6996077709"><ele>159.19</ele><time>2026-08-14T22:55:22Z</time></trkpt><trkpt lat="59.3538277969" lon="34.6995849721"><ele>158.43</ele><time>2026-08-14T22:55:30Z</time></trkpt><trkpt lat="59.3539692834" lon="34.6996621694"><ele>158.66</ele><time>2026-08-14T22:55:45Z</time></trkpt><trkpt lat="59.3540282082" lon="34.6996617503"><ele>157.41</ele><time>2026-08-14T22:55:58Z</time></trkpt><trkpt lat="59.3540409487" lon="34.6994974650"><ele>154.50</ele><time>2026-08-14T22:56:13Z</time></trkpt><trkpt lat="59.3540729675" lon="34.6993999835"><ele>153.82</ele><time>2026-08-14T22:56:35Z</time></trkpt><trkpt lat="59.3541696109" lon="34.6993041784"><ele>154.66</ele><time>2026-08-14T22:56:49Z</time></trkpt><trkpt lat="59.3542826828" lon="34.6993250493"><ele>155.36</ele><time>2026-08-14T22:57:07Z</time></trkpt><trkpt lat="59.3543522526" lon="34.6991551481"><ele>155.32</ele><time>2026-08-14T22:57:22Z</time></trkpt><trkpt lat="59.3544276059" lon="34.6989620291"><ele>155.13</ele><time>2026-08-14T22:57:40Z</time></trkpt><trkpt lat="59.3544421066" lon="34.6989289206"><ele>154.97</ele><time>2026-08-14T22:57:42Z</time></trkpt><trkpt lat="59.3544919789" lon="34.6987846680"><ele>155.07</ele><time>2026-08-14T22:57:52Z</time></trkpt><trkpt lat="59.3545732833" lon="34.6987745259"><ele>155.40</ele><time>2026-08-14T22:58:01Z</time></trkpt><trkpt lat="59.3546210602" lon="34.6988156810"><ele>155.58</ele><time>2026-08-14T22:58:15Z</time></trkpt><trkpt lat="59.3546704296" lon="34.6988902800"><ele>155.26</ele><time>2026-08-14T22:58:38Z</time></trkpt><trkpt lat="59.3547123391" lon="34.6988734324"><ele>155.36</ele><time>2026-08-14T22:58:42Z</time></trkpt><trkpt lat="59.3548081443" lon="34.6988322772"><ele>154.98</ele><time>2026-08-14T22:58:55Z</time></trkpt><trkpt lat="59.3549078889" lon="34.6988069639"><ele>154.63</ele><time>2026-08-14T22:59:11Z</time></trkpt><trkpt lat="59.3550176080" lon="34.6987389866"><ele>152.94</ele><time>2026-08-14T22:59:31Z</time></trkpt><trkpt lat="59.3550949730" lon="34.6986845881"><ele>152.28</ele><time>2026-08-14T22:59:47Z</time></trkpt><trkpt lat="59.3551249802" lon="34.6985904593"><ele>151.23</ele><time>2026-08-14T23:00:05Z</time></trkpt><trkpt lat="59.3551266566" lon="34.6985416766"><ele>151.16</ele><time>2026-08-14T23:00:32Z</time></trkpt><trkpt lat="59.3551735114" lon="34.6985648107"><ele>152.35</ele><time>2026-08-14T23:00:49Z</time></trkpt><trkpt lat="59.3552851584" lon="34.6985146869"><ele>152.26</ele><time>2026-08-14T23:01:09Z</time></trkpt><trkpt lat="59.3553389702" lon="34.6984171215"><ele>152.23</ele><time>2026-08-14T23:01:24Z</time></trkpt><trkpt lat="59.3553090468" lon="34.6983316261"><ele>152.00</ele><time>2026-08-14T23:01:51Z</time></trkpt><trkpt lat="59.3552965578" lon="34.6982835978"><ele>149.80</ele><time>2026-08-14T23:02:24Z</time></trkpt><trkpt lat="59.3553493638" lon="34.6983802412"><ele>149.24</ele><time>2026-08-14T23:02:53Z</time></trkpt><trkpt lat="59.3553590029" lon="34.6984209772"><ele>150.51</ele><time>2026-08-14T23:03:13Z</time></trkpt><trkpt lat="59.3552895170" lon="34.6983187180"><ele>152.70</ele><time>2026-08-14T23:03:38Z</time></trkpt><trkpt lat="59.3553456757" lon="34.6983994357"><ele>154.04</ele><time>2026-08-14T23:04:08Z</time></trkpt><trkpt lat="59.3553409819" lon="34.6983969212"><ele>154.70</ele><time>2026-08-14T23:04:32Z</time></trkpt><trkpt lat="59.3553745095" lon="34.6983855218"><ele>157.71</ele><time>2026-08-14T23:05:02Z</time></trkpt><trkpt lat="59.3553845678" lon="34.6983454563"><ele>158.05</ele><time>2026-08-14T23:05:31Z</time></trkpt><trkpt lat="59.3553615175" lon="34.6983350627"><ele>159.04</ele><time>2026-08-14T23:06:03Z</time></trkpt><trkpt lat="59.3553765211" lon="34.6983457077"><ele>160.49</ele><time>2026-08-14T23:06:34Z</time></trkpt><trkpt lat="59.3553635292" lon="34.6983286086"><ele>161.23</ele><time>2026-08-14T23:07:03Z</time></trkpt><trkpt lat="59.3553533033" lon="34.6983462945"><ele>160.74</ele><time>2026-08-14T23:07:26Z</time></trkpt><trkpt lat="59.3553848192" lon="34.6982894652"><ele>160.87</ele><time>2026-08-14T23:07:43Z</time></trkpt><trkpt lat="59.3554029241" lon="34.6981496550"><ele>160.56</ele><time>2026-08-14T23:08:02Z</time></trkpt><trkpt lat="59.3554289080" lon="34.6980549395"><ele>160.22</ele><time>2026-08-14T23:08:23Z</time></trkpt><trkpt lat="59.3554983940" lon="34.6979294624"><ele>159.47</ele><time>2026-08-14T23:08:47Z</time></trkpt><trkpt lat="59.3555082846" lon="34.6978025604"><ele>159.69</ele><time>2026-08-14T23:09:05Z</time></trkpt><trkpt lat="59.3554710690" lon="34.6976899076"><ele>159.37</ele><time>2026-08-14T23:09:34Z</time></trkpt><trkpt lat="59.3554492760" lon="34.6976776700"><ele>159.05</ele><time>2026-08-14T23:09:42Z</time></trkpt><trkpt lat="59.3554180115" lon="34.6976469923"><ele>158.90</ele><time>2026-08-14T23:09:53Z</time></trkpt><trkpt lat="59.3554049358" lon="34.6975137200"><ele>157.92</ele><time>2026-08-14T23:10:13Z</time></trkpt><trkpt lat="59.3554422352" lon="34.6973853931"><ele>158.10</ele><time>2026-08-14T23:10:34Z</time></trkpt><trkpt lat="59.3554510362" lon="34.6973160747"><ele>158.68</ele><time>2026-08-14T23:10:54Z</time></trkpt><trkpt lat="59.3554724101" lon="34.6972681303"><ele>158.75</ele><time>2026-08-14T23:11:22Z</time></trkpt><trkpt lat="59.3554717395" lon="34.6973161586"><ele>159.40</ele><time>2026-08-14T23:11:50Z</time></trkpt><trkpt lat="59.3555194326" lon="34.6972258855"><ele>159.18</ele><time>2026-08-14T23:12:23Z</time></trkpt><trkpt lat="59.3555056024" lon="34.6972726565"><ele>161.21</ele><time>2026-08-14T23:12:53Z</time></trkpt><trkpt lat="59.3554743379" lon="34.6972556412"><ele>162.02</ele><time>2026-08-14T23:13:26Z</time></trkpt><trkpt lat="59.3555102963" lon="34.6972522885"><ele>163.31</ele><time>2026-08-14T23:13:54Z</time></trkpt><trkpt lat="59.3555239588" lon="34.6971457545"><ele>163.85</ele><time>2026-08-14T23:14:17Z</time></trkpt><trkpt lat="59.3555425666" lon="34.6970531344"><ele>163.22</ele><time>2026-08-14T23:14:37Z</time></trkpt><trkpt lat="59.3555153254" lon="34.6970641986"><ele>162.78</ele><time>2026-08-14T23:15:05Z</time></trkpt><trkpt lat="59.3554646149" lon="34.6969762724"><ele>162.41</ele><time>2026-08-14T23:15:22Z</time></trkpt><trkpt lat="59.3554854859" lon="34.6968863346"><ele>161.89</ele><time>2026-08-14T23:15:44Z</time></trkpt><trkpt lat="59.3554895930" lon="34.6968314331"><ele>162.11</ele><time>2026-08-14T23:15:54Z</time></trkpt><trkpt lat="59.3555478472" lon="34.6967575885"><ele>162.78</ele><time>2026-08-14T23:16:17Z</time></trkpt><trkpt lat="59.3556123041" lon="34.6966955625"><ele>162.56</ele><time>2026-08-14T23:16:41Z</time></trkpt><trkpt lat="59.3556770124" lon="34.6966426726"><ele>162.60</ele><time>2026-08-14T23:17:07Z</time></trkpt><trkpt lat="59.3556317501" lon="34.6964664012"><ele>163.17</ele><time>2026-08-14T23:17:28Z</time></trkpt><trkpt lat="59.3555967137" lon="34.6963270940"><ele>164.06</ele><time>2026-08-14T23:17:51Z</time></trkpt><trkpt lat="59.3556079455" lon="34.6963006072"><ele>166.49</ele><time>2026-08-14T23:18:23Z</time></trkpt><trkpt lat="59.3556275591" lon="34.6963250823"><ele>167.34</ele><time>2026-08-14T23:18:49Z</time></trkpt><trkpt lat="59.3556118850" lon="34.6962660737"><ele>168.02</ele><time>2026-08-14T23:19:16Z</time></trkpt><trkpt lat="59.3555990607" lon="34.6961921453"><ele>167.86</ele><time>2026-08-14T23:19:48Z</time></trkpt><trkpt lat="59.3556039222" lon="34.6962742042"><ele>169.31</ele><time>2026-08-14T23:20:16Z</time></trkpt><trkpt lat="59.3556114659" lon="34.6963400021"><ele>168.97</ele><time>2026-08-14T23:20:45Z</time></trkpt><trkpt lat="59.3556557223" lon="34.6963203885"><ele>169.39</ele><time>2026-08-14T23:21:09Z</time></trkpt><trkpt lat="59.3556646071" lon="34.6962142736"><ele>168.86</ele><time>2026-08-14T23:21:34Z</time></trkpt><trkpt lat="59.3557506893" lon="34.6961760521"><ele>169.99</ele><time>2026-08-14T23:22:01Z</time></trkpt><trkpt lat="59.3557713088" lon="34.6961263474"><ele>169.18</ele><time>2026-08-14T23:22:25Z</time></trkpt><trkpt lat="59.3557786010" lon="34.6960421931"><ele>169.35</ele><time>2026-08-14T23:22:47Z</time></trkpt><trkpt lat="59.3558023218" lon="34.6959529258"><ele>169.64</ele><time>2026-08-14T23:23:05Z</time></trkpt><trkpt lat="59.3558240309" lon="34.6959132794"><ele>169.23</ele><time>2026-08-14T23:23:30Z</time></trkpt><trkpt lat="59.3558548763" lon="34.6958574560"><ele>170.16</ele><time>2026-08-14T23:24:01Z</time></trkpt><trkpt lat="59.3558294792" lon="34.6958502475"><ele>168.37</ele><time>2026-08-14T23:24:28Z</time></trkpt><trkpt lat="59.3558205105" lon="34.6958567854"><ele>167.03</ele><time>2026-08-14T23:24:54Z</time></trkpt><trkpt lat="59.3558423035" lon="34.6958074998"><ele>167.67</ele><time>2026-08-14T23:25:20Z</time></trkpt><trkpt lat="59.3558545411" lon="34.6957132034"><ele>168.29</ele><time>2026-08-14T23:25:45Z</time></trkpt><trkpt lat="59.3558014836" lon="34.6956614871"><ele>168.25</ele><time>2026-08-14T23:26:05Z</time></trkpt><trkpt lat="59.3557971250" lon="34.6956027299"><ele>167.79</ele><time>2026-08-14T23:26:25Z</time></trkpt><trkpt lat="59.3557777628" lon="34.6955241077"><ele>167.46</ele><time>2026-08-14T23:26:49Z</time></trkpt><trkpt lat="59.3558496796" lon="34.6954802703"><ele>166.98</ele><time>2026-08-14T23:27:09Z</time></trkpt><trkpt lat="59.3558148947" lon="34.6955557913"><ele>165.77</ele><time>2026-08-14T23:27:29Z</time></trkpt><trkpt lat="59.3556750007" lon="34.6956122853"><ele>162.59</ele><time>2026-08-14T23:27:53Z</time></trkpt><trkpt lat="59.3556268048" lon="34.6956570446"><ele>160.78</ele><time>2026-08-14T23:28:08Z</time></trkpt><trkpt lat="59.3557148986" lon="34.6956099384"><ele>159.42</ele><time>2026-08-14T23:28:33Z</time></trkpt><trkpt lat="59.3557741586" lon="34.6955000516"><ele>159.01</ele><time>2026-08-14T23:28:57Z</time></trkpt><trkpt lat="59.3557837140" lon="34.6954992134"><ele>158.93</ele><time>2026-08-14T23:29:28Z</time></trkpt><trkpt lat="59.3557868991" lon="34.6955070086"><ele>160.90</ele><time>2026-08-14T23:29:52Z</time></trkpt><trkpt lat="59.3557725661" lon="34.6954356786"><ele>161.73</ele><time>2026-08-14T23:30:22Z</time></trkpt><trkpt lat="59.3557883240" lon="34.6954868920"><ele>162.65</ele><time>2026-08-14T23:30:54Z</time></trkpt><trkpt lat="59.3557947781" lon="34.6954758279"><ele>163.84</ele><time>2026-08-14T23:31:25Z</time></trkpt><trkpt lat="59.3557879049" lon="34.6954588965"><ele>164.42</ele><time>2026-08-14T23:31:54Z</time></trkpt><trkpt lat="59.3557842169" lon="34.6954786777"><ele>164.49</ele><time>2026-08-14T23:32:17Z</time></trkpt><trkpt lat="59.3558039144" lon="34.6955200844"><ele>165.07</ele><time>2026-08-14T23:32:49Z</time></trkpt><trkpt lat="59.3557905033" lon="34.6954621654"><ele>165.64</ele><time>2026-08-14T23:33:25Z</time></trkpt><trkpt lat="59.3557760864" lon="34.6954692062"><ele>167.72</ele><time>2026-08-14T23:33:55Z</time></trkpt><trkpt lat="59.3557573110" lon="34.6953791007"><ele>168.00</ele><time>2026-08-14T23:34:17Z</time></trkpt><trkpt lat="59.3557728175" lon="34.6953273006"><ele>168.43</ele><time>2026-08-14T23:34:45Z</time></trkpt><trkpt lat="59.3558060937" lon="34.6953084413"><ele>168.09</ele><time>2026-08-14T23:35:06Z</time></trkpt><trkpt lat="59.3558042496" lon="34.6952174976"><ele>167.33</ele><time>2026-08-14T23:35:28Z</time></trkpt><trkpt lat="59.3558285572" lon="34.6951696370"><ele>167.23</ele><time>2026-08-14T23:35:50Z</time></trkpt><trkpt lat="59.3558485061" lon="34.6951655298"><ele>167.34</ele><time>2026-08-14T23:36:16Z</time></trkpt><trkpt lat="59.3559094425" lon="34.6951796114"><ele>167.24</ele><time>2026-08-14T23:36:42Z</time></trkpt><trkpt lat="59.3559344206" lon="34.6951641887"><ele>167.15</ele><time>2026-08-14T23:36:48Z</time></trkpt><trkpt lat="59.3560009729" lon="34.6952760033"><ele>167.47</ele><time>2026-08-14T23:37:08Z</time></trkpt><trkpt lat="59.3559748214" lon="34.6952441521"><ele>168.12</ele><time>2026-08-14T23:37:33Z</time></trkpt><trkpt lat="59.3559157290" lon="34.6950890031"><ele>167.24</ele><time>2026-08-14T23:37:56Z</time></trkpt><trkpt lat="59.3559309840" lon="34.6949915215"><ele>166.84</ele><time>2026-08-14T23:38:15Z</time></trkpt><trkpt lat="59.3559832033" lon="34.6949332673"><ele>166.87</ele><time>2026-08-14T23:38:33Z</time></trkpt><trkpt lat="59.3559987936" lon="34.6949139889"><ele>167.09</ele><time>2026-08-14T23:38:57Z</time></trkpt><trkpt lat="59.3559921719" lon="34.6949513722"><ele>167.20</ele><time>2026-08-14T23:39:30Z</time></trkpt><trkpt lat="59.3559987098" lon="34.6949300822"><ele>167.16</ele><time>2026-08-14T23:40:03Z</time></trkpt><trkpt lat="59.3559849635" lon="34.6948536392"><ele>167.78</ele><time>2026-08-14T23:40:30Z</time></trkpt><trkpt lat="59.3559750728" lon="34.6948079579"><ele>167.70</ele><time>2026-08-14T23:41:01Z</time></trkpt><trkpt lat="59.3559666071" lon="34.6947763581"><ele>166.46</ele><time>2026-08-14T23:41:31Z</time></trkpt><trkpt lat="59.3559863046" lon="34.6947720833"><ele>167.51</ele><time>2026-08-14T23:41:54Z</time></trkpt><trkpt lat="59.3559995480" lon="34.6948240511"><ele>167.57</ele><time>2026-08-14T23:42:18Z</time></trkpt><trkpt lat="59.3559917528" lon="34.6948057786"><ele>168.00</ele><time>2026-08-14T23:42:43Z</time></trkpt><trkpt lat="59.3560165633" lon="34.6948141605"><ele>168.36</ele><time>2026-08-14T23:43:10Z</time></trkpt><trkpt lat="59.3560251966" lon="34.6948431619"><ele>168.64</ele><time>2026-08-14T23:43:42Z</time></trkpt><trkpt lat="59.3560075946" lon="34.6948548965"><ele>169.63</ele><time>2026-08-14T23:44:14Z</time></trkpt><trkpt lat="59.3559999671" lon="34.6948293317"><ele>169.31</ele><time>2026-08-14T23:44:38Z</time></trkpt><trkpt lat="59.3560158927" lon="34.6948107239"><ele>169.85</ele><time>2026-08-14T23:45:07Z</time></trkpt><trkpt lat="59.3560434692" lon="34.6948248893"><ele>170.49</ele><time>2026-08-14T23:45:50Z</time></trkpt><trkpt lat="59.3560489174" lon="34.6947970614"><ele>170.24</ele><time>2026-08-14T23:46:27Z</time></trkpt><trkpt lat="59.3560163956" lon="34.6947610192"><ele>171.32</ele><time>2026-08-14T23:46:58Z</time></trkpt><trkpt lat="59.3560303934" lon="34.6947566606"><ele>171.24</ele><time>2026-08-14T23:47:28Z</time></trkpt><trkpt lat="59.3560433015" lon="34.6947631147"><ele>171.07</ele><time>2026-08-14T23:48:19Z</time></trkpt><trkpt lat="59.3560251966" lon="34.6947489493"><ele>169.84</ele><time>2026-08-14T23:48:49Z</time></trkpt><trkpt lat="59.3560277112" lon="34.6947132424"><ele>169.91</ele><time>2026-08-14T23:49:17Z</time></trkpt><trkpt lat="59.3560189102" lon="34.6946710814"><ele>169.26</ele><time>2026-08-14T23:49:40Z</time></trkpt><trkpt lat="59.3560293037" lon="34.6946112346"><ele>168.53</ele><time>2026-08-14T23:50:03Z</time></trkpt><trkpt lat="59.3560211733" lon="34.6945099812"><ele>168.12</ele><time>2026-08-14T23:50:26Z</time></trkpt><trkpt lat="59.3560525216" lon="34.6944503859"><ele>167.13</ele><time>2026-08-14T23:50:52Z</time></trkpt><trkpt lat="59.3560596462" lon="34.6944756154"><ele>168.19</ele><time>2026-08-14T23:51:22Z</time></trkpt><trkpt lat="59.3560462352" lon="34.6944597736"><ele>169.50</ele><time>2026-08-14T23:51:44Z</time></trkpt><trkpt lat="59.3561016396" lon="34.6944453567"><ele>171.26</ele><time>2026-08-14T23:52:15Z</time></trkpt><trkpt lat="59.3560931738" lon="34.6944679040"><ele>170.74</ele><time>2026-08-14T23:52:41Z</time></trkpt><trkpt lat="59.3560624123" lon="34.6945123281"><ele>171.81</ele><time>2026-08-14T23:53:08Z</time></trkpt><trkpt lat="59.3560689501" lon="34.6944860928"><ele>171.78</ele><time>2026-08-14T23:53:39Z</time></trkpt><trkpt lat="59.3560951017" lon="34.6944981627"><ele>171.64</ele><time>2026-08-14T23:53:59Z</time></trkpt><trkpt lat="59.3561179005" lon="34.6944396570"><ele>171.40</ele><time>2026-08-14T23:54:22Z</time></trkpt><trkpt lat="59.3560872227" lon="34.6943314467"><ele>170.02</ele><time>2026-08-14T23:54:43Z</time></trkpt><trkpt lat="59.3560765777" lon="34.6942712646"><ele>169.43</ele><time>2026-08-14T23:55:03Z</time></trkpt><trkpt lat="59.3560898211" lon="34.6942134295"><ele>168.88</ele><time>2026-08-14T23:55:25Z</time></trkpt><trkpt lat="59.3561058305" lon="34.6942146868"><ele>168.58</ele><time>2026-08-14T23:55:44Z</time></trkpt><trkpt lat="59.3561061658" lon="34.6942529920"><ele>167.99</ele><time>2026-08-14T23:56:05Z</time></trkpt><trkpt lat="59.3560962752" lon="34.6941441949"><ele>168.70</ele><time>2026-08-14T23:56:23Z</time></trkpt><trkpt lat="59.3561143801" lon="34.6939911414"><ele>168.41</ele><time>2026-08-14T23:56:48Z</time></trkpt><trkpt lat="59.3561888114" lon="34.6939028800"><ele>167.62</ele><time>2026-08-14T23:57:11Z</time></trkpt><trkpt lat="59.3561608158" lon="34.6938468888"><ele>167.16</ele><time>2026-08-14T23:57:39Z</time></trkpt><trkpt lat="59.3561670184" lon="34.6938737109"><ele>166.66</ele><time>2026-08-14T23:58:01Z</time></trkpt><trkpt lat="59.3561949302" lon="34.6939120162"><ele>165.52</ele><time>2026-08-14T23:58:33Z</time></trkpt><trkpt lat="59.3562095985" lon="34.6939309593"><ele>166.78</ele><time>2026-08-14T23:59:03Z</time></trkpt><trkpt lat="59.3562383484" lon="34.6938450448"><ele>167.19</ele><time>2026-08-14T23:59:34Z</time></trkpt><trkpt lat="59.3562430423" lon="34.6937674284"><ele>168.19</ele><time>2026-08-14T23:59:57Z</time></trkpt><trkpt lat="59.3562375102" lon="34.6937086713"><ele>169.09</ele><time>2026-08-15T00:00:13Z</time></trkpt><trkpt lat="59.3561966065" lon="34.6936317254"><ele>168.76</ele><time>2026-08-15T00:00:36Z</time></trkpt><trkpt lat="59.3561935890" lon="34.6935913246"><ele>168.47</ele><time>2026-08-15T00:01:04Z</time></trkpt><trkpt lat="59.3561437167" lon="34.6934963576"><ele>167.79</ele><time>2026-08-15T00:01:26Z</time></trkpt><trkpt lat="59.3561463151" lon="34.6934097726"><ele>167.32</ele><time>2026-08-15T00:01:47Z</time></trkpt><trkpt lat="59.3561397772" lon="34.6933857165"><ele>165.26</ele><time>2026-08-15T00:02:09Z</time></trkpt><trkpt lat="59.3561545294" lon="34.6932961140"><ele>165.64</ele><time>2026-08-15T00:02:30Z</time></trkpt><trkpt lat="59.3562049884" lon="34.6932164859"><ele>167.01</ele><time>2026-08-15T00:02:56Z</time></trkpt><trkpt lat="59.3562477361" lon="34.6932343394"><ele>166.93</ele><time>2026-08-15T00:03:12Z</time></trkpt><trkpt lat="59.3562755641" lon="34.6931042522"><ele>168.23</ele><time>2026-08-15T00:03:41Z</time></trkpt><trkpt lat="59.3562453054" lon="34.6930537932"><ele>168.83</ele><time>2026-08-15T00:04:03Z</time></trkpt><trkpt lat="59.3562975246" lon="34.6930668689"><ele>168.73</ele><time>2026-08-15T00:04:25Z</time></trkpt><trkpt lat="59.3563025538" lon="34.6930291504"><ele>169.52</ele><time>2026-08-15T00:04:58Z</time></trkpt><trkpt lat="59.3562579621" lon="34.6930644382"><ele>171.77</ele><time>2026-08-15T00:05:32Z</time></trkpt><trkpt lat="59.3562670145" lon="34.6930217743"><ele>172.66</ele><time>2026-08-15T00:06:00Z</time></trkpt><trkpt lat="59.3562621530" lon="34.6929808706"><ele>173.21</ele><time>2026-08-15T00:06:23Z</time></trkpt><trkpt lat="59.3562297150" lon="34.6929787751"><ele>170.57</ele><time>2026-08-15T00:06:57Z</time></trkpt><trkpt lat="59.3562954292" lon="34.6930608340"><ele>167.19</ele><time>2026-08-15T00:07:27Z</time></trkpt><trkpt lat="59.3563414458" lon="34.6930163261"><ele>167.67</ele><time>2026-08-15T00:07:56Z</time></trkpt><trkpt lat="59.3563003745" lon="34.6929232869"><ele>168.32</ele><time>2026-08-15T00:08:28Z</time></trkpt><trkpt lat="59.3563142046" lon="34.6928717382"><ele>168.67</ele><time>2026-08-15T00:08:52Z</time></trkpt><trkpt lat="59.3563437928" lon="34.6928122267"><ele>168.17</ele><time>2026-08-15T00:09:14Z</time></trkpt><trkpt lat="59.3563759793" lon="34.6928019170"><ele>168.40</ele><time>2026-08-15T00:09:34Z</time></trkpt><trkpt lat="59.3563872110" lon="34.6927107219"><ele>168.29</ele><time>2026-08-15T00:09:51Z</time></trkpt><trkpt lat="59.3564147037" lon="34.6925686486"><ele>168.93</ele><time>2026-08-15T00:10:11Z</time></trkpt><trkpt lat="59.3563941680" lon="34.6924480330"><ele>169.71</ele><time>2026-08-15T00:10:36Z</time></trkpt><trkpt lat="59.3564007059" lon="34.6922373120"><ele>169.50</ele><time>2026-08-15T00:11:04Z</time></trkpt><trkpt lat="59.3563478161" lon="34.6921234019"><ele>169.39</ele><time>2026-08-15T00:11:30Z</time></trkpt><trkpt lat="59.3563758954" lon="34.6920350567"><ele>170.33</ele><time>2026-08-15T00:11:54Z</time></trkpt><trkpt lat="59.3563971855" lon="34.6920329612"><ele>170.38</ele><time>2026-08-15T00:11:58Z</time></trkpt><trkpt lat="59.3564550206" lon="34.6919483040"><ele>170.73</ele><time>2026-08-15T00:12:24Z</time></trkpt><trkpt lat="59.3565125205" lon="34.6918265149"><ele>171.28</ele><time>2026-08-15T00:12:49Z</time></trkpt><trkpt lat="59.3564961758" lon="34.6917206515"><ele>171.45</ele><time>2026-08-15T00:13:13Z</time></trkpt><trkpt lat="59.3564859498" lon="34.6917216573"><ele>171.38</ele><time>2026-08-15T00:13:16Z</time></trkpt><trkpt lat="59.3564123567" lon="34.6916786581"><ele>171.69</ele><time>2026-08-15T00:13:49Z</time></trkpt><trkpt lat="59.3564543501" lon="34.6916461363"><ele>176.12</ele><time>2026-08-15T00:14:17Z</time></trkpt><trkpt lat="59.3564499915" lon="34.6915619820"><ele>176.98</ele><time>2026-08-15T00:14:51Z</time></trkpt><trkpt lat="59.3564420287" lon="34.6916703600"><ele>177.62</ele><time>2026-08-15T00:15:20Z</time></trkpt><trkpt lat="59.3564784899" lon="34.6916715335"><ele>178.13</ele><time>2026-08-15T00:15:52Z</time></trkpt><trkpt lat="59.3564701080" lon="34.6916530933"><ele>178.04</ele><time>2026-08-15T00:16:19Z</time></trkpt><trkpt lat="59.3564939126" lon="34.6916643251"><ele>177.70</ele><time>2026-08-15T00:16:48Z</time></trkpt><trkpt lat="59.3565535918" lon="34.6916276962"><ele>177.39</ele><time>2026-08-15T00:17:15Z</time></trkpt><trkpt lat="59.3565620575" lon="34.6915905643"><ele>177.16</ele><time>2026-08-15T00:17:47Z</time></trkpt><trkpt lat="59.3565747980" lon="34.6914779115"><ele>176.57</ele><time>2026-08-15T00:18:09Z</time></trkpt><trkpt lat="59.3566189706" lon="34.6913878061"><ele>176.67</ele><time>2026-08-15T00:18:32Z</time></trkpt><trkpt lat="59.3566484749" lon="34.6913584694"><ele>179.14</ele><time>2026-08-15T00:19:00Z</time></trkpt><trkpt lat="59.3566298671" lon="34.6914479882"><ele>180.76</ele><time>2026-08-15T00:19:30Z</time></trkpt><trkpt lat="59.3566977605" lon="34.6912559588"><ele>179.48</ele><time>2026-08-15T00:19:51Z</time></trkpt><trkpt lat="59.3566831760" lon="34.6910148114"><ele>179.27</ele><time>2026-08-15T00:20:11Z</time></trkpt><trkpt lat="59.3566609640" lon="34.6909477562"><ele>179.51</ele><time>2026-08-15T00:20:43Z</time></trkpt><trkpt lat="59.3566410150" lon="34.6909521986"><ele>180.78</ele><time>2026-08-15T00:21:13Z</time></trkpt><trkpt lat="59.3566427752" lon="34.6910019033"><ele>180.88</ele><time>2026-08-15T00:21:42Z</time></trkpt><trkpt lat="59.3567007780" lon="34.6909813676"><ele>182.00</ele><time>2026-08-15T00:22:13Z</time></trkpt><trkpt lat="59.3567486387" lon="34.6910130512"><ele>181.86</ele><time>2026-08-15T00:22:45Z</time></trkpt><trkpt lat="59.3566809967" lon="34.6909546293"><ele>182.11</ele><time>2026-08-15T00:23:13Z</time></trkpt><trkpt lat="59.3566411827" lon="34.6909086127"><ele>181.83</ele><time>2026-08-15T00:23:37Z</time></trkpt><trkpt lat="59.3566110916" lon="34.6907888353"><ele>181.08</ele><time>2026-08-15T00:24:05Z</time></trkpt><trkpt lat="59.3565960880" lon="34.6907872427"><ele>180.68</ele><time>2026-08-15T00:24:36Z</time></trkpt><trkpt lat="59.3565951660" lon="34.6907563135"><ele>181.95</ele><time>2026-08-15T00:25:10Z</time></trkpt><trkpt lat="59.3565888796" lon="34.6907631867"><ele>180.65</ele><time>2026-08-15T00:25:59Z</time></trkpt><trkpt lat="59.3566417694" lon="34.6907431539"><ele>180.20</ele><time>2026-08-15T00:26:21Z</time></trkpt><trkpt lat="59.3567073997" lon="34.6907016635"><ele>179.10</ele><time>2026-08-15T00:26:44Z</time></trkpt><trkpt lat="59.3566773925" lon="34.6906320099"><ele>177.00</ele><time>2026-08-15T00:27:07Z</time></trkpt><trkpt lat="59.3566902168" lon="34.6905579977"><ele>176.64</ele><time>2026-08-15T00:27:21Z</time></trkpt><trkpt lat="59.3567864411" lon="34.6904854942"><ele>176.08</ele><time>2026-08-15T00:27:46Z</time></trkpt><trkpt lat="59.3567474652" lon="34.6904111467"><ele>173.71</ele><time>2026-08-15T00:28:05Z</time></trkpt><trkpt lat="59.3567407597" lon="34.6903234720"><ele>172.06</ele><time>2026-08-15T00:28:27Z</time></trkpt><trkpt lat="59.3566740397" lon="34.6902285889"><ele>171.35</ele><time>2026-08-15T00:28:50Z</time></trkpt><trkpt lat="59.3566757161" lon="34.6902278345"><ele>171.37</ele><time>2026-08-15T00:28:52Z</time></trkpt><trkpt lat="59.3566436972" lon="34.6902317740"><ele>173.67</ele><time>2026-08-15T00:29:15Z</time></trkpt><trkpt lat="59.3564384244" lon="34.6902596019"><ele>173.04</ele><time>2026-08-15T00:29:40Z</time></trkpt><trkpt lat="59.3564075790" lon="34.6902812272"><ele>172.16</ele><time>2026-08-15T00:29:59Z</time></trkpt><trkpt lat="59.3565300386" lon="34.6902995836"><ele>168.59</ele><time>2026-08-15T00:30:18Z</time></trkpt><trkpt lat="59.3564720359" lon="34.6903440915"><ele>168.51</ele><time>2026-08-15T00:30:52Z</time></trkpt><trkpt lat="59.3565120175" lon="34.6903400682"><ele>171.75</ele><time>2026-08-15T00:31:23Z</time></trkpt><trkpt lat="59.3565194774" lon="34.6903381404"><ele>171.57</ele><time>2026-08-15T00:31:47Z</time></trkpt><trkpt lat="59.3567075673" lon="34.6901546605"><ele>170.96</ele><time>2026-08-15T00:32:09Z</time></trkpt><trkpt lat="59.3568042107" lon="34.6901352145"><ele>170.40</ele><time>2026-08-15T00:32:31Z</time></trkpt><trkpt lat="59.3568085693" lon="34.6902326960"><ele>172.11</ele><time>2026-08-15T00:32:57Z</time></trkpt><trkpt lat="59.3568428513" lon="34.6901781298"><ele>173.31</ele><time>2026-08-15T00:33:27Z</time></trkpt><trkpt lat="59.3567790650" lon="34.6900513954"><ele>172.71</ele><time>2026-08-15T00:33:53Z</time></trkpt><trkpt lat="59.3568082340" lon="34.6899590269"><ele>172.84</ele><time>2026-08-15T00:34:07Z</time></trkpt><trkpt lat="59.3569203839" lon="34.6898004413"><ele>172.24</ele><time>2026-08-15T00:34:28Z</time></trkpt><trkpt lat="59.3569265865" lon="34.6898053866"><ele>172.43</ele><time>2026-08-15T00:34:44Z</time></trkpt><trkpt lat="59.3568431865" lon="34.6899539139"><ele>172.25</ele><time>2026-08-15T00:35:04Z</time></trkpt><trkpt lat="59.3567975052" lon="34.6899390779"><ele>172.17</ele><time>2026-08-15T00:35:28Z</time></trkpt><trkpt lat="59.3567853514" lon="34.6898921393"><ele>171.80</ele><time>2026-08-15T00:36:05Z</time></trkpt><trkpt lat="59.3568721041" lon="34.6898396686"><ele>174.17</ele><time>2026-08-15T00:36:35Z</time></trkpt><trkpt lat="59.3568202201" lon="34.6898356453"><ele>173.60</ele><time>2026-08-15T00:36:58Z</time></trkpt><trkpt lat="59.3567391671" lon="34.6897491440"><ele>171.85</ele><time>2026-08-15T00:37:20Z</time></trkpt><trkpt lat="59.3567322101" lon="34.6896940749"><ele>170.10</ele><time>2026-08-15T00:37:36Z</time></trkpt><trkpt lat="59.3567677494" lon="34.6895712800"><ele>167.78</ele><time>2026-08-15T00:37:56Z</time></trkpt><trkpt lat="59.3568328768" lon="34.6894326434"><ele>166.18</ele><time>2026-08-15T00:38:21Z</time></trkpt><trkpt lat="59.3568723556" lon="34.6892789192"><ele>166.72</ele><time>2026-08-15T00:38:43Z</time></trkpt><trkpt lat="59.3569291010" lon="34.6891706251"><ele>166.35</ele><time>2026-08-15T00:39:05Z</time></trkpt><trkpt lat="59.3569114152" lon="34.6891559567"><ele>166.47</ele><time>2026-08-15T00:39:17Z</time></trkpt><trkpt lat="59.3569151871" lon="34.6892297175"><ele>168.13</ele><time>2026-08-15T00:39:38Z</time></trkpt><trkpt lat="59.3569169473" lon="34.6892835293"><ele>167.90</ele><time>2026-08-15T00:40:09Z</time></trkpt><trkpt lat="59.3569403328" lon="34.6892504208"><ele>168.95</ele><time>2026-08-15T00:40:38Z</time></trkpt><trkpt lat="59.3568864372" lon="34.6892311424"><ele>170.29</ele><time>2026-08-15T00:41:07Z</time></trkpt><trkpt lat="59.3569328729" lon="34.6892521810"><ele>172.59</ele><time>2026-08-15T00:41:33Z</time></trkpt><trkpt lat="59.3568988424" lon="34.6892794222"><ele>172.70</ele><time>2026-08-15T00:41:59Z</time></trkpt><trkpt lat="59.3568559270" lon="34.6893549431"><ele>172.07</ele><time>2026-08-15T00:42:22Z</time></trkpt><trkpt lat="59.3568626326" lon="34.6895138640"><ele>170.75</ele><time>2026-08-15T00:42:55Z</time></trkpt><trkpt lat="59.3568365648" lon="34.6895369142"><ele>170.23</ele><time>2026-08-15T00:43:28Z</time></trkpt><trkpt lat="59.3568912987" lon="34.6895659994"><ele>168.85</ele><time>2026-08-15T00:43:57Z</time></trkpt><trkpt lat="59.3568384089" lon="34.6895436198"><ele>168.15</ele><time>2026-08-15T00:44:21Z</time></trkpt><trkpt lat="59.3567924760" lon="34.6896721981"><ele>167.14</ele><time>2026-08-15T00:44:37Z</time></trkpt><trkpt lat="59.3567804899" lon="34.6898131818"><ele>166.56</ele><time>2026-08-15T00:44:50Z</time></trkpt><trkpt lat="59.3567625526" lon="34.6899332106"><ele>166.40</ele><time>2026-08-15T00:45:01Z</time></trkpt><trkpt lat="59.3566274364" lon="34.6901979949"><ele>165.25</ele><time>2026-08-15T00:45:16Z</time></trkpt><trkpt lat="59.3565482274" lon="34.6903168503"><ele>165.30</ele><time>2026-08-15T00:45:37Z</time></trkpt><trkpt lat="59.3565887958" lon="34.6902767848"><ele>164.46</ele><time>2026-08-15T00:46:04Z</time></trkpt><trkpt lat="59.3566034641" lon="34.6902687382"><ele>163.38</ele><time>2026-08-15T00:46:32Z</time></trkpt><trkpt lat="59.3565442879" lon="34.6902818978"><ele>164.31</ele><time>2026-08-15T00:47:02Z</time></trkpt><trkpt lat="59.3565614708" lon="34.6901951451"><ele>164.98</ele><time>2026-08-15T00:47:30Z</time></trkpt><trkpt lat="59.3566925637" lon="34.6899986733"><ele>163.17</ele><time>2026-08-15T00:47:55Z</time></trkpt><trkpt lat="59.3567379937" lon="34.6898720227"><ele>162.50</ele><time>2026-08-15T00:48:06Z</time></trkpt><trkpt lat="59.3567812443" lon="34.6895934921"><ele>160.40</ele><time>2026-08-15T00:48:25Z</time></trkpt><trkpt lat="59.3568140175" lon="34.6893433761"><ele>158.37</ele><time>2026-08-15T00:48:45Z</time></trkpt><trkpt lat="59.3568865210" lon="34.6892145462"><ele>157.28</ele><time>2026-08-15T00:49:05Z</time></trkpt><trkpt lat="59.3569136783" lon="34.6891220100"><ele>157.66</ele><time>2026-08-15T00:49:25Z</time></trkpt><trkpt lat="59.3568567652" lon="34.6889474988"><ele>159.31</ele><time>2026-08-15T00:49:47Z</time></trkpt><trkpt lat="59.3569130916" lon="34.6888795216"><ele>161.67</ele><time>2026-08-15T00:50:08Z</time></trkpt><trkpt lat="59.3568550888" lon="34.6889518574"><ele>165.06</ele><time>2026-08-15T00:50:36Z</time></trkpt><trkpt lat="59.3569373991" lon="34.6889086906"><ele>165.15</ele><time>2026-08-15T00:50:52Z</time></trkpt><trkpt lat="59.3569787219" lon="34.6888660267"><ele>165.42</ele><time>2026-08-15T00:51:11Z</time></trkpt><trkpt lat="59.3570399098" lon="34.6886791941"><ele>164.57</ele><time>2026-08-15T00:51:32Z</time></trkpt><trkpt lat="59.3570706714" lon="34.6886460856"><ele>165.39</ele><time>2026-08-15T00:51:54Z</time></trkpt><trkpt lat="59.3570277561" lon="34.6886424813"><ele>166.19</ele><time>2026-08-15T00:52:18Z</time></trkpt><trkpt lat="59.3570183683" lon="34.6888388693"><ele>167.25</ele><time>2026-08-15T00:52:52Z</time></trkpt><trkpt lat="59.3570269179" lon="34.6887707245"><ele>165.99</ele><time>2026-08-15T00:53:26Z</time></trkpt><trkpt lat="59.3570394069" lon="34.6886019967"><ele>163.45</ele><time>2026-08-15T00:53:55Z</time></trkpt><trkpt lat="59.3570565060" lon="34.6885723248"><ele>166.11</ele><time>2026-08-15T00:54:27Z</time></trkpt><trkpt lat="59.3570221402" lon="34.6886460856"><ele>167.08</ele><time>2026-08-15T00:54:54Z</time></trkpt><trkpt lat="59.3570343778" lon="34.6886915155"><ele>164.03</ele><time>2026-08-15T00:55:26Z</time></trkpt><trkpt lat="59.3570463639" lon="34.6886730753"><ele>162.84</ele><time>2026-08-15T00:55:57Z</time></trkpt><trkpt lat="59.3569860142" lon="34.6885110531"><ele>164.01</ele><time>2026-08-15T00:56:20Z</time></trkpt><trkpt lat="59.3569878582" lon="34.6885281522"><ele>165.22</ele><time>2026-08-15T00:56:38Z</time></trkpt><trkpt lat="59.3569897022" lon="34.6884090453"><ele>165.83</ele><time>2026-08-15T00:56:56Z</time></trkpt><trkpt lat="59.3570911232" lon="34.6883562393"><ele>164.74</ele><time>2026-08-15T00:57:17Z</time></trkpt><trkpt lat="59.3571437616" lon="34.6883198619"><ele>164.79</ele><time>2026-08-15T00:57:40Z</time></trkpt><trkpt lat="59.3571537361" lon="34.6882718336"><ele>164.57</ele><time>2026-08-15T00:57:46Z</time></trkpt><trkpt lat="59.3571543228" lon="34.6881892718"><ele>164.54</ele><time>2026-08-15T00:57:55Z</time></trkpt><trkpt lat="59.3571359664" lon="34.6881755255"><ele>165.14</ele><time>2026-08-15T00:58:15Z</time></trkpt><trkpt lat="59.3571872637" lon="34.6882264037"><ele>165.82</ele><time>2026-08-15T00:58:38Z</time></trkpt><trkpt lat="59.3571705837" lon="34.6882289182"><ele>166.58</ele><time>2026-08-15T00:59:03Z</time></trkpt><trkpt lat="59.3572023511" lon="34.6881052852"><ele>165.49</ele><time>2026-08-15T00:59:22Z</time></trkpt><trkpt lat="59.3572290894" lon="34.6879998408"><ele>165.59</ele><time>2026-08-15T00:59:39Z</time></trkpt><trkpt lat="59.3572310172" lon="34.6879022755"><ele>164.81</ele><time>2026-08-15T00:59:56Z</time></trkpt><trkpt lat="59.3572302628" lon="34.6878101584"><ele>164.32</ele><time>2026-08-15T01:00:17Z</time></trkpt><trkpt lat="59.3572648801" lon="34.6877226513"><ele>164.61</ele><time>2026-08-15T01:00:36Z</time></trkpt><trkpt lat="59.3573031854" lon="34.6877372358"><ele>164.76</ele><time>2026-08-15T01:00:57Z</time></trkpt><trkpt lat="59.3573271576" lon="34.6876232419"><ele>164.94</ele><time>2026-08-15T01:01:20Z</time></trkpt><trkpt lat="59.3573564105" lon="34.6875023749"><ele>165.69</ele><time>2026-08-15T01:01:38Z</time></trkpt><trkpt lat="59.3573698215" lon="34.6873899736"><ele>165.60</ele><time>2026-08-15T01:01:58Z</time></trkpt><trkpt lat="59.3573051970" lon="34.6874714456"><ele>165.00</ele><time>2026-08-15T01:02:23Z</time></trkpt><trkpt lat="59.3573466036" lon="34.6873281989"><ele>164.69</ele><time>2026-08-15T01:02:45Z</time></trkpt><trkpt lat="59.3573695701" lon="34.6872094274"><ele>165.30</ele><time>2026-08-15T01:03:13Z</time></trkpt><trkpt lat="59.3573893514" lon="34.6871784981"><ele>165.86</ele><time>2026-08-15T01:03:36Z</time></trkpt><trkpt lat="59.3573892675" lon="34.6870980319"><ele>164.78</ele><time>2026-08-15T01:04:00Z</time></trkpt><trkpt lat="59.3573833164" lon="34.6870016400"><ele>163.45</ele><time>2026-08-15T01:04:22Z</time></trkpt><trkpt lat="59.3574657105" lon="34.6870050766"><ele>162.41</ele><time>2026-08-15T01:04:51Z</time></trkpt><trkpt lat="59.3574339431" lon="34.6869429667"><ele>164.26</ele><time>2026-08-15T01:05:15Z</time></trkpt><trkpt lat="59.3574636988" lon="34.6869192459"><ele>163.87</ele><time>2026-08-15T01:05:42Z</time></trkpt><trkpt lat="59.3574454263" lon="34.6869138815"><ele>162.94</ele><time>2026-08-15T01:06:13Z</time></trkpt><trkpt lat="59.3574278243" lon="34.6869817749"><ele>160.41</ele><time>2026-08-15T01:06:44Z</time></trkpt><trkpt lat="59.3574066181" lon="34.6869400330"><ele>160.24</ele><time>2026-08-15T01:07:11Z</time></trkpt><trkpt lat="59.3574134074" lon="34.6868691221"><ele>160.85</ele><time>2026-08-15T01:07:35Z</time></trkpt><trkpt lat="59.3574731704" lon="34.6867973730"><ele>161.52</ele><time>2026-08-15T01:07:56Z</time></trkpt><trkpt lat="59.3574983999" lon="34.6866397094"><ele>161.54</ele><time>2026-08-15T01:08:14Z</time></trkpt><trkpt lat="59.3575496972" lon="34.6865773480"><ele>161.21</ele><time>2026-08-15T01:08:36Z</time></trkpt><trkpt lat="59.3576556444" lon="34.6864550561"><ele>161.65</ele><time>2026-08-15T01:08:56Z</time></trkpt><trkpt lat="59.3577068578" lon="34.6863621008"><ele>162.02</ele><time>2026-08-15T01:09:21Z</time></trkpt><trkpt lat="59.3577498570" lon="34.6861839853"><ele>160.71</ele><time>2026-08-15T01:09:34Z</time></trkpt><trkpt lat="59.3577504437" lon="34.6861536428"><ele>160.53</ele><time>2026-08-15T01:09:36Z</time></trkpt><trkpt lat="59.3577325903" lon="34.6861901041"><ele>161.86</ele><time>2026-08-15T01:10:06Z</time></trkpt><trkpt lat="59.3577407207" lon="34.6861014236"><ele>161.83</ele><time>2026-08-15T01:10:31Z</time></trkpt><trkpt lat="59.3577373680" lon="34.6859295107"><ele>161.62</ele><time>2026-08-15T01:10:51Z</time></trkpt><trkpt lat="59.3577393796" lon="34.6858234797"><ele>162.11</ele><time>2026-08-15T01:11:14Z</time></trkpt><trkpt lat="59.3577785231" lon="34.6857242379"><ele>162.65</ele><time>2026-08-15T01:11:33Z</time></trkpt><trkpt lat="59.3577180896" lon="34.6856144350"><ele>163.06</ele><time>2026-08-15T01:11:53Z</time></trkpt><trkpt lat="59.3577303272" lon="34.6855537500"><ele>162.48</ele><time>2026-08-15T01:12:11Z</time></trkpt><trkpt lat="59.3576982245" lon="34.6854737867"><ele>163.25</ele><time>2026-08-15T01:12:38Z</time></trkpt><trkpt lat="59.3576003239" lon="34.6853272710"><ele>163.43</ele><time>2026-08-15T01:13:10Z</time></trkpt><trkpt lat="59.3576590810" lon="34.6854224894"><ele>165.26</ele><time>2026-08-15T01:13:37Z</time></trkpt><trkpt lat="59.3577095401" lon="34.6854367387"><ele>166.03</ele><time>2026-08-15T01:14:08Z</time></trkpt><trkpt lat="59.3577261362" lon="34.6855063085"><ele>166.08</ele><time>2026-08-15T01:14:37Z</time></trkpt><trkpt lat="59.3577475939" lon="34.6855297778"><ele>166.14</ele><time>2026-08-15T01:15:02Z</time></trkpt><trkpt lat="59.3577379547" lon="34.6854162868"><ele>167.72</ele><time>2026-08-15T01:15:30Z</time></trkpt><trkpt lat="59.3578643538" lon="34.6852558572"><ele>167.97</ele><time>2026-08-15T01:15:54Z</time></trkpt><trkpt lat="59.3579249550" lon="34.6851385105"><ele>168.84</ele><time>2026-08-15T01:16:14Z</time></trkpt><trkpt lat="59.3579091970" lon="34.6850925777"><ele>169.52</ele><time>2026-08-15T01:16:41Z</time></trkpt><trkpt lat="59.3579041678" lon="34.6850495785"><ele>169.64</ele><time>2026-08-15T01:16:56Z</time></trkpt><trkpt lat="59.3579235300" lon="34.6848710440"><ele>170.50</ele><time>2026-08-15T01:17:19Z</time></trkpt><trkpt lat="59.3579949439" lon="34.6848111134"><ele>169.67</ele><time>2026-08-15T01:17:50Z</time></trkpt><trkpt lat="59.3580258731" lon="34.6845894121"><ele>168.92</ele><time>2026-08-15T01:18:11Z</time></trkpt><trkpt lat="59.3580428883" lon="34.6844490990"><ele>168.99</ele><time>2026-08-15T01:18:34Z</time></trkpt><trkpt lat="59.3580776732" lon="34.6843480971"><ele>168.74</ele><time>2026-08-15T01:18:49Z</time></trkpt><trkpt lat="59.3580215145" lon="34.6842162497"><ele>169.16</ele><time>2026-08-15T01:19:16Z</time></trkpt><trkpt lat="59.3580727279" lon="34.6841040999"><ele>169.16</ele><time>2026-08-15T01:19:35Z</time></trkpt><trkpt lat="59.3580633402" lon="34.6840460133"><ele>169.25</ele><time>2026-08-15T01:19:52Z</time></trkpt><trkpt lat="59.3581076805" lon="34.6839875914"><ele>168.76</ele><time>2026-08-15T01:20:11Z</time></trkpt><trkpt lat="59.3581256177" lon="34.6838890202"><ele>169.05</ele><time>2026-08-15T01:20:34Z</time></trkpt><trkpt lat="59.3582049944" lon="34.6837614477"><ele>168.67</ele><time>2026-08-15T01:20:52Z</time></trkpt><trkpt lat="59.3582532741" lon="34.6836155187"><ele>167.57</ele><time>2026-08-15T01:21:15Z</time></trkpt><trkpt lat="59.3582429644" lon="34.6835785545"><ele>167.09</ele><time>2026-08-15T01:21:44Z</time></trkpt><trkpt lat="59.3582258653" lon="34.6835944802"><ele>167.02</ele><time>2026-08-15T01:21:53Z</time></trkpt><trkpt lat="59.3581934273" lon="34.6835058834"><ele>167.30</ele><time>2026-08-15T01:22:23Z</time></trkpt><trkpt lat="59.3582030665" lon="34.6836281754"><ele>166.38</ele><time>2026-08-15T01:22:54Z</time></trkpt><trkpt lat="59.3582603149" lon="34.6835599467"><ele>167.11</ele><time>2026-08-15T01:23:26Z</time></trkpt><trkpt lat="59.3581999652" lon="34.6835965756"><ele>166.57</ele><time>2026-08-15T01:23:58Z</time></trkpt><trkpt lat="59.3581925053" lon="34.6836049575"><ele>166.60</ele><time>2026-08-15T01:24:29Z</time></trkpt><trkpt lat="59.3581980374" lon="34.6836320311"><ele>166.92</ele><time>2026-08-15T01:24:58Z</time></trkpt><trkpt lat="59.3581764959" lon="34.6836363059"><ele>167.17</ele><time>2026-08-15T01:25:27Z</time></trkpt><trkpt lat="59.3581858836" lon="34.6836435981"><ele>167.62</ele><time>2026-08-15T01:25:58Z</time></trkpt><trkpt lat="59.3581745680" lon="34.6837109048"><ele>167.55</ele><time>2026-08-15T01:26:18Z</time></trkpt><trkpt lat="59.3581969477" lon="34.6837568376"><ele>169.35</ele><time>2026-08-15T01:26:45Z</time></trkpt><trkpt lat="59.3581939302" lon="34.6837400738"><ele>170.35</ele><time>2026-08-15T01:27:12Z</time></trkpt><trkpt lat="59.3582123704" lon="34.6836815681"><ele>169.71</ele><time>2026-08-15T01:27:40Z</time></trkpt><trkpt lat="59.3582271226" lon="34.6837184485"><ele>169.95</ele><time>2026-08-15T01:28:00Z</time></trkpt><trkpt lat="59.3582071736" lon="34.6837194543"><ele>170.01</ele><time>2026-08-15T01:28:07Z</time></trkpt><trkpt lat="59.3581312336" lon="34.6837045345"><ele>172.67</ele><time>2026-08-15T01:28:34Z</time></trkpt><trkpt lat="59.3581681140" lon="34.6836865973"><ele>170.13</ele><time>2026-08-15T01:29:03Z</time></trkpt><trkpt lat="59.3582076766" lon="34.6836910397"><ele>171.68</ele><time>2026-08-15T01:29:31Z</time></trkpt><trkpt lat="59.3582229316" lon="34.6837041993"><ele>171.34</ele><time>2026-08-15T01:29:55Z</time></trkpt><trkpt lat="59.3581389450" lon="34.6837391518"><ele>169.95</ele><time>2026-08-15T01:30:23Z</time></trkpt><trkpt lat="59.3581986241" lon="34.6837673988"><ele>174.13</ele><time>2026-08-15T01:30:53Z</time></trkpt><trkpt lat="59.3582091853" lon="34.6837807260"><ele>175.34</ele><time>2026-08-15T01:31:19Z</time></trkpt><trkpt lat="59.3581282999" lon="34.6837511379"><ele>175.53</ele><time>2026-08-15T01:31:48Z</time></trkpt><trkpt lat="59.3581548706" lon="34.6837351285"><ele>175.57</ele><time>2026-08-15T01:32:17Z</time></trkpt><trkpt lat="59.3581066746" lon="34.6839972306"><ele>113.45</ele><time>2026-08-15T01:34:44Z</time></trkpt><trkpt lat="59.3581132963" lon="34.6839806344"><ele>170.33</ele><time>2026-08-15T01:35:01Z</time></trkpt><trkpt lat="59.3580890726" lon="34.6840598434"><ele>170.17</ele><time>2026-08-15T01:35:17Z</time></trkpt><trkpt lat="59.3581116199" lon="34.6840703208"><ele>176.42</ele><time>2026-08-15T01:35:32Z</time></trkpt><trkpt lat="59.3580663577" lon="34.6840021759"><ele>178.02</ele><time>2026-08-15T01:35:49Z</time></trkpt><trkpt lat="59.3579842150" lon="34.6839524712"><ele>177.44</ele><time>2026-08-15T01:36:07Z</time></trkpt><trkpt lat="59.3578630127" lon="34.6838540677"><ele>176.70</ele><time>2026-08-15T01:36:28Z</time></trkpt><trkpt lat="59.3578951992" lon="34.6838872600"><ele>175.99</ele><time>2026-08-15T01:36:45Z</time></trkpt><trkpt lat="59.3579635955" lon="34.6838828176"><ele>175.93</ele><time>2026-08-15T01:37:03Z</time></trkpt><trkpt lat="59.3579858076" lon="34.6837871801"><ele>175.89</ele><time>2026-08-15T01:37:19Z</time></trkpt><trkpt lat="59.3579283077" lon="34.6837170236"><ele>174.22</ele><time>2026-08-15T01:37:45Z</time></trkpt><trkpt lat="59.3579891603" lon="34.6836309414"><ele>174.96</ele><time>2026-08-15T01:38:04Z</time></trkpt><trkpt lat="59.3580171559" lon="34.6834977530"><ele>173.53</ele><time>2026-08-15T01:38:20Z</time></trkpt><trkpt lat="59.3580341712" lon="34.6832891274"><ele>171.49</ele><time>2026-08-15T01:38:43Z</time></trkpt><trkpt lat="59.3580733985" lon="34.6831607167"><ele>172.22</ele><time>2026-08-15T01:39:03Z</time></trkpt><trkpt lat="59.3580591492" lon="34.6830820106"><ele>172.71</ele><time>2026-08-15T01:39:27Z</time></trkpt><trkpt lat="59.3580610771" lon="34.6828714572"><ele>172.85</ele><time>2026-08-15T01:39:42Z</time></trkpt><trkpt lat="59.3581064232" lon="34.6826930065"><ele>173.23</ele><time>2026-08-15T01:40:01Z</time></trkpt><trkpt lat="59.3581636716" lon="34.6825772524"><ele>173.45</ele><time>2026-08-15T01:40:22Z</time></trkpt><trkpt lat="59.3581745680" lon="34.6824376099"><ele>172.86</ele><time>2026-08-15T01:40:44Z</time></trkpt><trkpt lat="59.3581892364" lon="34.6822799463"><ele>171.72</ele><time>2026-08-15T01:41:01Z</time></trkpt><trkpt lat="59.3582583033" lon="34.6821923554"><ele>170.92</ele><time>2026-08-15T01:41:23Z</time></trkpt><trkpt lat="59.3582761567" lon="34.6821683832"><ele>172.33</ele><time>2026-08-15T01:41:48Z</time></trkpt><trkpt lat="59.3582562916" lon="34.6820020024"><ele>174.04</ele><time>2026-08-15T01:42:14Z</time></trkpt><trkpt lat="59.3582482450" lon="34.6819948778"><ele>176.41</ele><time>2026-08-15T01:42:39Z</time></trkpt><trkpt lat="59.3582548667" lon="34.6820275672"><ele>175.58</ele><time>2026-08-15T01:43:11Z</time></trkpt><trkpt lat="59.3582677748" lon="34.6819013357"><ele>175.61</ele><time>2026-08-15T01:43:46Z</time></trkpt><trkpt lat="59.3582816888" lon="34.6821192652"><ele>175.55</ele><time>2026-08-15T01:44:11Z</time></trkpt><trkpt lat="59.3582477421" lon="34.6820100490"><ele>176.53</ele><time>2026-08-15T01:44:32Z</time></trkpt><trkpt lat="59.3582245242" lon="34.6818803810"><ele>176.29</ele><time>2026-08-15T01:44:51Z</time></trkpt><trkpt lat="59.3582160585" lon="34.6817026846"><ele>175.09</ele><time>2026-08-15T01:45:15Z</time></trkpt><trkpt lat="59.3582192436" lon="34.6816941351"><ele>175.06</ele><time>2026-08-15T01:45:16Z</time></trkpt><trkpt lat="59.3582204171" lon="34.6814573463"><ele>173.68</ele><time>2026-08-15T01:45:31Z</time></trkpt><trkpt lat="59.3582746480" lon="34.6813053824"><ele>173.73</ele><time>2026-08-15T01:45:52Z</time></trkpt><trkpt lat="59.3583174795" lon="34.6811835933"><ele>173.95</ele><time>2026-08-15T01:46:14Z</time></trkpt><trkpt lat="59.3583713751" lon="34.6810897999"><ele>173.23</ele><time>2026-08-15T01:46:32Z</time></trkpt><trkpt lat="59.3583960179" lon="34.6809616406"><ele>173.38</ele><time>2026-08-15T01:46:51Z</time></trkpt><trkpt lat="59.3582912441" lon="34.6808028873"><ele>171.96</ele><time>2026-08-15T01:47:10Z</time></trkpt><trkpt lat="59.3583316449" lon="34.6805583034"><ele>171.10</ele><time>2026-08-15T01:47:30Z</time></trkpt><trkpt lat="59.3583150487" lon="34.6804604866"><ele>170.76</ele><time>2026-08-15T01:47:48Z</time></trkpt><trkpt lat="59.3583092652" lon="34.6803460736"><ele>170.03</ele><time>2026-08-15T01:48:21Z</time></trkpt><trkpt lat="59.3583816849" lon="34.6802821197"><ele>169.33</ele><time>2026-08-15T01:48:41Z</time></trkpt><trkpt lat="59.3584292103" lon="34.6802082751"><ele>169.70</ele><time>2026-08-15T01:48:58Z</time></trkpt><trkpt lat="59.3583988678" lon="34.6802104544"><ele>169.71</ele><time>2026-08-15T01:49:28Z</time></trkpt><trkpt lat="59.3584510870" lon="34.6801530384"><ele>167.68</ele><time>2026-08-15T01:49:58Z</time></trkpt><trkpt lat="59.3583658431" lon="34.6801915113"><ele>165.71</ele><time>2026-08-15T01:50:31Z</time></trkpt><trkpt lat="59.3583984487" lon="34.6802213509"><ele>163.70</ele><time>2026-08-15T01:51:00Z</time></trkpt><trkpt lat="59.3584566191" lon="34.6802073531"><ele>166.05</ele><time>2026-08-15T01:51:30Z</time></trkpt><trkpt lat="59.3584577926" lon="34.6800617594"><ele>166.42</ele><time>2026-08-15T01:51:49Z</time></trkpt><trkpt lat="59.3585062400" lon="34.6799828019"><ele>166.81</ele><time>2026-08-15T01:52:06Z</time></trkpt><trkpt lat="59.3585703615" lon="34.6799192671"><ele>167.31</ele><time>2026-08-15T01:52:29Z</time></trkpt><trkpt lat="59.3585847784" lon="34.6798354480"><ele>167.76</ele><time>2026-08-15T01:52:40Z</time></trkpt><trkpt lat="59.3586562760" lon="34.6796425804"><ele>167.67</ele><time>2026-08-15T01:53:00Z</time></trkpt><trkpt lat="59.3586647417" lon="34.6794549096"><ele>167.87</ele><time>2026-08-15T01:53:22Z</time></trkpt><trkpt lat="59.3587615527" lon="34.6793428436"><ele>168.25</ele><time>2026-08-15T01:53:42Z</time></trkpt><trkpt lat="59.3587861117" lon="34.6792169474"><ele>168.61</ele><time>2026-08-15T01:53:58Z</time></trkpt><trkpt lat="59.3588085752" lon="34.6789881214"><ele>168.87</ele><time>2026-08-15T01:54:20Z</time></trkpt><trkpt lat="59.3588250875" lon="34.6788613033"><ele>168.78</ele><time>2026-08-15T01:54:40Z</time></trkpt><trkpt lat="59.3588426057" lon="34.6787298750"><ele>168.93</ele><time>2026-08-15T01:55:02Z</time></trkpt><trkpt lat="59.3588592019" lon="34.6785667632"><ele>169.16</ele><time>2026-08-15T01:55:23Z</time></trkpt><trkpt lat="59.3587815855" lon="34.6784308925"><ele>168.79</ele><time>2026-08-15T01:55:44Z</time></trkpt><trkpt lat="59.3587380834" lon="34.6783705428"><ele>168.39</ele><time>2026-08-15T01:55:52Z</time></trkpt><trkpt lat="59.3587021250" lon="34.6782394499"><ele>169.42</ele><time>2026-08-15T01:56:15Z</time></trkpt><trkpt lat="59.3587211519" lon="34.6780754998"><ele>169.80</ele><time>2026-08-15T01:56:35Z</time></trkpt><trkpt lat="59.3587544281" lon="34.6780344285"><ele>170.49</ele><time>2026-08-15T01:56:58Z</time></trkpt><trkpt lat="59.3587521650" lon="34.6779754199"><ele>169.84</ele><time>2026-08-15T01:57:22Z</time></trkpt><trkpt lat="59.3586770631" lon="34.6780165751"><ele>170.98</ele><time>2026-08-15T01:57:57Z</time></trkpt><trkpt lat="59.3587022927" lon="34.6780160721"><ele>170.30</ele><time>2026-08-15T01:58:28Z</time></trkpt><trkpt lat="59.3587556016" lon="34.6780174971"><ele>170.88</ele><time>2026-08-15T01:58:50Z</time></trkpt><trkpt lat="59.3587556016" lon="34.6779028326"><ele>170.36</ele><time>2026-08-15T01:59:16Z</time></trkpt><trkpt lat="59.3587283604" lon="34.6778857335"><ele>169.27</ele><time>2026-08-15T01:59:44Z</time></trkpt><trkpt lat="59.3587634806" lon="34.6778947860"><ele>169.52</ele><time>2026-08-15T01:59:55Z</time></trkpt><trkpt lat="59.3588609621" lon="34.6778898407"><ele>169.56</ele><time>2026-08-15T02:00:13Z</time></trkpt><trkpt lat="59.3588994350" lon="34.6777165867"><ele>169.69</ele><time>2026-08-15T02:00:33Z</time></trkpt><trkpt lat="59.3589346390" lon="34.6775711607"><ele>168.33</ele><time>2026-08-15T02:00:54Z</time></trkpt><trkpt lat="59.3589534145" lon="34.6774835698"><ele>167.37</ele><time>2026-08-15T02:01:11Z</time></trkpt><trkpt lat="59.3589928094" lon="34.6773238946"><ele>168.35</ele><time>2026-08-15T02:01:31Z</time></trkpt><trkpt lat="59.3590077292" lon="34.6771396603"><ele>169.48</ele><time>2026-08-15T02:01:52Z</time></trkpt><trkpt lat="59.3590168655" lon="34.6770346351"><ele>169.49</ele><time>2026-08-15T02:02:02Z</time></trkpt><trkpt lat="59.3590733595" lon="34.6768701822"><ele>169.83</ele><time>2026-08-15T02:02:20Z</time></trkpt><trkpt lat="59.3590390775" lon="34.6767168771"><ele>169.16</ele><time>2026-08-15T02:02:41Z</time></trkpt><trkpt lat="59.3590625469" lon="34.6765722893"><ele>169.02</ele><time>2026-08-15T02:03:02Z</time></trkpt><trkpt lat="59.3591436837" lon="34.6763784159"><ele>170.44</ele><time>2026-08-15T02:03:25Z</time></trkpt><trkpt lat="59.3591703381" lon="34.6764420345"><ele>172.06</ele><time>2026-08-15T02:03:52Z</time></trkpt><trkpt lat="59.3591784686" lon="34.6764674317"><ele>171.51</ele><time>2026-08-15T02:04:23Z</time></trkpt><trkpt lat="59.3591803126" lon="34.6764370054"><ele>173.14</ele><time>2026-08-15T02:04:53Z</time></trkpt><trkpt lat="59.3592052907" lon="34.6764533501"><ele>173.36</ele><time>2026-08-15T02:05:27Z</time></trkpt><trkpt lat="59.3592374772" lon="34.6763793379"><ele>173.92</ele><time>2026-08-15T02:05:57Z</time></trkpt><trkpt lat="59.3592420034" lon="34.6762827784"><ele>173.36</ele><time>2026-08-15T02:06:24Z</time></trkpt><trkpt lat="59.3592184503" lon="34.6763846185"><ele>172.92</ele><time>2026-08-15T02:06:54Z</time></trkpt><trkpt lat="59.3591925502" lon="34.6764151286"><ele>172.86</ele><time>2026-08-15T02:07:22Z</time></trkpt><trkpt lat="59.3591884430" lon="34.6764385980"><ele>173.91</ele><time>2026-08-15T02:07:54Z</time></trkpt><trkpt lat="59.3592492118" lon="34.6765559446"><ele>174.21</ele><time>2026-08-15T02:08:14Z</time></trkpt><trkpt lat="59.3593643792" lon="34.6765658353"><ele>171.10</ele><time>2026-08-15T02:08:33Z</time></trkpt><trkpt lat="59.3594565801" lon="34.6765045635"><ele>170.95</ele><time>2026-08-15T02:08:50Z</time></trkpt><trkpt lat="59.3595341127" lon="34.6766222455"><ele>169.95</ele><time>2026-08-15T02:09:11Z</time></trkpt><trkpt lat="59.3596292473" lon="34.6768324636"><ele>167.43</ele><time>2026-08-15T02:09:30Z</time></trkpt><trkpt lat="59.3596266489" lon="34.6770054661"><ele>167.00</ele><time>2026-08-15T02:09:49Z</time></trkpt><trkpt lat="59.3596149981" lon="34.6772490442"><ele>167.32</ele><time>2026-08-15T02:10:09Z</time></trkpt><trkpt lat="59.3596438318" lon="34.6774358768"><ele>166.68</ele><time>2026-08-15T02:10:27Z</time></trkpt><trkpt lat="59.3596501183" lon="34.6774644591"><ele>169.86</ele><time>2026-08-15T02:10:53Z</time></trkpt><trkpt lat="59.3596528843" lon="34.6774606034"><ele>171.18</ele><time>2026-08-15T02:11:19Z</time></trkpt><trkpt lat="59.3596406467" lon="34.6774870902"><ele>169.76</ele><time>2026-08-15T02:11:49Z</time></trkpt><trkpt lat="59.3596542254" lon="34.6775396448"><ele>170.26</ele><time>2026-08-15T02:12:18Z</time></trkpt><trkpt lat="59.3596772756" lon="34.6775230486"><ele>171.01</ele><time>2026-08-15T02:12:52Z</time></trkpt><trkpt lat="59.3596980628" lon="34.6775170974"><ele>171.79</ele><time>2026-08-15T02:13:20Z</time></trkpt><trkpt lat="59.3596606795" lon="34.6775578335"><ele>173.20</ele><time>2026-08-15T02:13:46Z</time></trkpt><trkpt lat="59.3596761860" lon="34.6776419040"><ele>174.40</ele><time>2026-08-15T02:14:08Z</time></trkpt><trkpt lat="59.3596060295" lon="34.6778368670"><ele>173.31</ele><time>2026-08-15T02:14:27Z</time></trkpt><trkpt lat="59.3595318496" lon="34.6779340133"><ele>172.96</ele><time>2026-08-15T02:14:45Z</time></trkpt><trkpt lat="59.3594317697" lon="34.6780673694"><ele>172.33</ele><time>2026-08-15T02:15:05Z</time></trkpt><trkpt lat="59.3593810592" lon="34.6782477479"><ele>171.94</ele><time>2026-08-15T02:15:23Z</time></trkpt><trkpt lat="59.3594181072" lon="34.6784308925"><ele>172.33</ele><time>2026-08-15T02:15:41Z</time></trkpt><trkpt lat="59.3594157603" lon="34.6786574554"><ele>171.11</ele><time>2026-08-15T02:15:58Z</time></trkpt><trkpt lat="59.3594050314" lon="34.6788403485"><ele>170.31</ele><time>2026-08-15T02:16:14Z</time></trkpt><trkpt lat="59.3593969848" lon="34.6789709385"><ele>170.12</ele><time>2026-08-15T02:16:34Z</time></trkpt><trkpt lat="59.3593228888" lon="34.6791783907"><ele>169.41</ele><time>2026-08-15T02:16:53Z</time></trkpt><trkpt lat="59.3592962343" lon="34.6792383213"><ele>169.52</ele><time>2026-08-15T02:17:09Z</time></trkpt><trkpt lat="59.3592917919" lon="34.6793567576"><ele>168.91</ele><time>2026-08-15T02:17:23Z</time></trkpt><trkpt lat="59.3593759462" lon="34.6794482879"><ele>168.73</ele><time>2026-08-15T02:17:33Z</time></trkpt><trkpt lat="59.3595076259" lon="34.6795765311"><ele>167.98</ele><time>2026-08-15T02:17:50Z</time></trkpt><trkpt lat="59.3596107233" lon="34.6796859987"><ele>166.34</ele><time>2026-08-15T02:18:09Z</time></trkpt><trkpt lat="59.3595699035" lon="34.6797603462"><ele>166.22</ele><time>2026-08-15T02:18:32Z</time></trkpt><trkpt lat="59.3595160916" lon="34.6796284989"><ele>166.11</ele><time>2026-08-15T02:18:48Z</time></trkpt><trkpt lat="59.3593695760" lon="34.6795085538"><ele>164.36</ele><time>2026-08-15T02:19:06Z</time></trkpt><trkpt lat="59.3592884392" lon="34.6795128286"><ele>161.90</ele><time>2026-08-15T02:19:27Z</time></trkpt><trkpt lat="59.3592706695" lon="34.6795985755"><ele>164.35</ele><time>2026-08-15T02:19:40Z</time></trkpt><trkpt lat="59.3592317775" lon="34.6797636990"><ele>165.64</ele><time>2026-08-15T02:20:02Z</time></trkpt><trkpt lat="59.3591779657" lon="34.6798459254"><ele>166.71</ele><time>2026-08-15T02:20:26Z</time></trkpt><trkpt lat="59.3591819890" lon="34.6797818877"><ele>168.83</ele><time>2026-08-15T02:20:51Z</time></trkpt><trkpt lat="59.3591403309" lon="34.6797887608"><ele>171.78</ele><time>2026-08-15T02:21:22Z</time></trkpt><trkpt lat="59.3591720983" lon="34.6798040997"><ele>173.03</ele><time>2026-08-15T02:21:50Z</time></trkpt><trkpt lat="59.3592245691" lon="34.6797025111"><ele>175.51</ele><time>2026-08-15T02:22:21Z</time></trkpt><trkpt lat="59.3592088111" lon="34.6796785388"><ele>178.35</ele><time>2026-08-15T02:22:53Z</time></trkpt><trkpt lat="59.3591960706" lon="34.6796625294"><ele>180.95</ele><time>2026-08-15T02:23:24Z</time></trkpt><trkpt lat="59.3591897003" lon="34.6797216218"><ele>181.36</ele><time>2026-08-15T02:23:53Z</time></trkpt><trkpt lat="59.3591605313" lon="34.6797789540"><ele>180.87</ele><time>2026-08-15T02:24:17Z</time></trkpt><trkpt lat="59.3591063842" lon="34.6800529584"><ele>179.45</ele><time>2026-08-15T02:24:35Z</time></trkpt><trkpt lat="59.3591211364" lon="34.6803429723"><ele>178.30</ele><time>2026-08-15T02:24:55Z</time></trkpt><trkpt lat="59.3590792269" lon="34.6805987880"><ele>176.05</ele><time>2026-08-15T02:25:12Z</time></trkpt><trkpt lat="59.3589931447" lon="34.6807976067"><ele>174.61</ele><time>2026-08-15T02:25:33Z</time></trkpt><trkpt lat="59.3589690048" lon="34.6809981856"><ele>173.47</ele><time>2026-08-15T02:25:53Z</time></trkpt><trkpt lat="59.3589635566" lon="34.6810096689"><ele>173.68</ele><time>2026-08-15T02:25:54Z</time></trkpt><trkpt lat="59.3589374889" lon="34.6809929889"><ele>176.03</ele><time>2026-08-15T02:26:24Z</time></trkpt><trkpt lat="59.3589488044" lon="34.6809773985"><ele>175.77</ele><time>2026-08-15T02:26:47Z</time></trkpt><trkpt lat="59.3589986768" lon="34.6810377482"><ele>174.24</ele><time>2026-08-15T02:27:14Z</time></trkpt><trkpt lat="59.3590707611" lon="34.6809870377"><ele>175.87</ele><time>2026-08-15T02:27:47Z</time></trkpt><trkpt lat="59.3590358086" lon="34.6809955034"><ele>174.13</ele><time>2026-08-15T02:28:10Z</time></trkpt><trkpt lat="59.3589846790" lon="34.6809813380"><ele>173.17</ele><time>2026-08-15T02:28:36Z</time></trkpt><trkpt lat="59.3589611258" lon="34.6810714435"><ele>172.50</ele><time>2026-08-15T02:29:03Z</time></trkpt><trkpt lat="59.3589565996" lon="34.6813560091"><ele>170.90</ele><time>2026-08-15T02:29:22Z</time></trkpt><trkpt lat="59.3589919712" lon="34.6815870143"><ele>168.02</ele><time>2026-08-15T02:29:42Z</time></trkpt><trkpt lat="59.3590924703" lon="34.6818407346"><ele>165.75</ele><time>2026-08-15T02:30:05Z</time></trkpt><trkpt lat="59.3591285124" lon="34.6820381284"><ele>165.90</ele><time>2026-08-15T02:30:23Z</time></trkpt><trkpt lat="59.3590675760" lon="34.6821011603"><ele>165.86</ele><time>2026-08-15T02:30:38Z</time></trkpt><trkpt lat="59.3590627145" lon="34.6821450815"><ele>165.90</ele><time>2026-08-15T02:30:47Z</time></trkpt><trkpt lat="59.3590483814" lon="34.6823972091"><ele>166.71</ele><time>2026-08-15T02:31:07Z</time></trkpt><trkpt lat="59.3589891214" lon="34.6824355982"><ele>167.21</ele><time>2026-08-15T02:31:22Z</time></trkpt><trkpt lat="59.3589881156" lon="34.6824324131"><ele>167.19</ele><time>2026-08-15T02:31:24Z</time></trkpt><trkpt lat="59.3589369860" lon="34.6824523620"><ele>166.91</ele><time>2026-08-15T02:31:49Z</time></trkpt><trkpt lat="59.3589028716" lon="34.6825449821"><ele>166.74</ele><time>2026-08-15T02:32:12Z</time></trkpt><trkpt lat="59.3588635605" lon="34.6826498397"><ele>168.30</ele><time>2026-08-15T02:32:33Z</time></trkpt><trkpt lat="59.3588648178" lon="34.6828111075"><ele>168.92</ele><time>2026-08-15T02:32:53Z</time></trkpt><trkpt lat="59.3588481378" lon="34.6829888038"><ele>168.74</ele><time>2026-08-15T02:33:14Z</time></trkpt><trkpt lat="59.3589326274" lon="34.6829695255"><ele>167.40</ele><time>2026-08-15T02:33:31Z</time></trkpt><trkpt lat="59.3590374012" lon="34.6830210742"><ele>167.70</ele><time>2026-08-15T02:33:55Z</time></trkpt><trkpt lat="59.3590539135" lon="34.6831512451"><ele>169.46</ele><time>2026-08-15T02:34:11Z</time></trkpt><trkpt lat="59.3590924703" lon="34.6831173822"><ele>170.20</ele><time>2026-08-15T02:34:28Z</time></trkpt><trkpt lat="59.3590592779" lon="34.6832310408"><ele>169.73</ele><time>2026-08-15T02:34:46Z</time></trkpt><trkpt lat="59.3590221461" lon="34.6835470386"><ele>169.60</ele><time>2026-08-15T02:35:05Z</time></trkpt><trkpt lat="59.3589082360" lon="34.6836114954"><ele>169.67</ele><time>2026-08-15T02:35:24Z</time></trkpt><trkpt lat="59.3588180467" lon="34.6835359745"><ele>169.98</ele><time>2026-08-15T02:35:41Z</time></trkpt><trkpt lat="59.3587221578" lon="34.6834954899"><ele>169.93</ele><time>2026-08-15T02:36:02Z</time></trkpt><trkpt lat="59.3587038014" lon="34.6834866051"><ele>169.93</ele><time>2026-08-15T02:36:27Z</time></trkpt><trkpt lat="59.3586245924" lon="34.6835705079"><ele>170.63</ele><time>2026-08-15T02:36:48Z</time></trkpt><trkpt lat="59.3587325513" lon="34.6837597713"><ele>169.85</ele><time>2026-08-15T02:37:07Z</time></trkpt><trkpt lat="59.3587852735" lon="34.6839208715"><ele>169.85</ele><time>2026-08-15T02:37:25Z</time></trkpt><trkpt lat="59.3587652408" lon="34.6840086300"><ele>170.85</ele><time>2026-08-15T02:37:44Z</time></trkpt><trkpt lat="59.3587280251" lon="34.6840826422"><ele>171.50</ele><time>2026-08-15T02:38:04Z</time></trkpt><trkpt lat="59.3587280251" lon="34.6841207799"><ele>171.59</ele><time>2026-08-15T02:38:12Z</time></trkpt><trkpt lat="59.3587120157" lon="34.6842261404"><ele>172.72</ele><time>2026-08-15T02:38:40Z</time></trkpt><trkpt lat="59.3586990237" lon="34.6842323430"><ele>173.99</ele><time>2026-08-15T02:39:08Z</time></trkpt><trkpt lat="59.3587098364" lon="34.6842399705"><ele>175.29</ele><time>2026-08-15T02:39:38Z</time></trkpt><trkpt lat="59.3587116804" lon="34.6841937024"><ele>176.51</ele><time>2026-08-15T02:40:08Z</time></trkpt><trkpt lat="59.3587530032" lon="34.6841752622"><ele>176.60</ele><time>2026-08-15T02:40:35Z</time></trkpt><trkpt lat="59.3586753029" lon="34.6841844823"><ele>174.60</ele><time>2026-08-15T02:40:54Z</time></trkpt><trkpt lat="59.3585936632" lon="34.6842561476"><ele>172.74</ele><time>2026-08-15T02:41:08Z</time></trkpt><trkpt lat="59.3585598841" lon="34.6844336763"><ele>171.49</ele><time>2026-08-15T02:41:28Z</time></trkpt><trkpt lat="59.3584857043" lon="34.6846645139"><ele>170.88</ele><time>2026-08-15T02:41:53Z</time></trkpt><trkpt lat="59.3584586307" lon="34.6848318167"><ele>170.96</ele><time>2026-08-15T02:42:13Z</time></trkpt><trkpt lat="59.3584491592" lon="34.6848493349"><ele>171.10</ele><time>2026-08-15T02:42:15Z</time></trkpt><trkpt lat="59.3583491631" lon="34.6849536896"><ele>171.37</ele><time>2026-08-15T02:42:38Z</time></trkpt><trkpt lat="59.3582952674" lon="34.6851140354"><ele>171.07</ele><time>2026-08-15T02:42:58Z</time></trkpt><trkpt lat="59.3582785036" lon="34.6853306238"><ele>171.12</ele><time>2026-08-15T02:43:19Z</time></trkpt><trkpt lat="59.3583379313" lon="34.6854094975"><ele>170.59</ele><time>2026-08-15T02:43:41Z</time></trkpt><trkpt lat="59.3583049905" lon="34.6855756268"><ele>170.13</ele><time>2026-08-15T02:44:00Z</time></trkpt><trkpt lat="59.3582690321" lon="34.6857246570"><ele>170.75</ele><time>2026-08-15T02:44:21Z</time></trkpt><trkpt lat="59.3582746480" lon="34.6857891139"><ele>170.42</ele><time>2026-08-15T02:44:42Z</time></trkpt><trkpt lat="59.3582837842" lon="34.6858158521"><ele>170.35</ele><time>2026-08-15T02:44:45Z</time></trkpt><trkpt lat="59.3582842872" lon="34.6858726814"><ele>171.26</ele><time>2026-08-15T02:45:04Z</time></trkpt><trkpt lat="59.3583006319" lon="34.6858793870"><ele>170.80</ele><time>2026-08-15T02:45:24Z</time></trkpt><trkpt lat="59.3583254423" lon="34.6859490406"><ele>172.09</ele><time>2026-08-15T02:45:57Z</time></trkpt><trkpt lat="59.3583341595" lon="34.6859565005"><ele>171.86</ele><time>2026-08-15T02:46:28Z</time></trkpt><trkpt lat="59.3583230954" lon="34.6859244816"><ele>171.61</ele><time>2026-08-15T02:46:59Z</time></trkpt><trkpt lat="59.3582918309" lon="34.6858930495"><ele>171.66</ele><time>2026-08-15T02:47:32Z</time></trkpt><trkpt lat="59.3583090138" lon="34.6859232243"><ele>171.36</ele><time>2026-08-15T02:48:03Z</time></trkpt><trkpt lat="59.3583150487" lon="34.6859229729"><ele>171.20</ele><time>2026-08-15T02:48:07Z</time></trkpt><trkpt lat="59.3582590576" lon="34.6859485377"><ele>172.43</ele><time>2026-08-15T02:48:33Z</time></trkpt><trkpt lat="59.3582259491" lon="34.6861006692"><ele>172.69</ele><time>2026-08-15T02:48:54Z</time></trkpt><trkpt lat="59.3582331575" lon="34.6862574946"><ele>172.77</ele><time>2026-08-15T02:49:16Z</time></trkpt><trkpt lat="59.3582160585" lon="34.6864560619"><ele>172.76</ele><time>2026-08-15T02:49:38Z</time></trkpt><trkpt lat="59.3582563754" lon="34.6867031604"><ele>172.50</ele><time>2026-08-15T02:49:59Z</time></trkpt><trkpt lat="59.3582947645" lon="34.6868271288"><ele>172.40</ele><time>2026-08-15T02:50:20Z</time></trkpt><trkpt lat="59.3583137915" lon="34.6870727185"><ele>172.63</ele><time>2026-08-15T02:50:44Z</time></trkpt><trkpt lat="59.3582829461" lon="34.6871893946"><ele>173.17</ele><time>2026-08-15T02:51:03Z</time></trkpt><trkpt lat="59.3582298048" lon="34.6870906558"><ele>172.97</ele><time>2026-08-15T02:51:21Z</time></trkpt><trkpt lat="59.3582085148" lon="34.6871266980"><ele>173.05</ele><time>2026-08-15T02:51:42Z</time></trkpt><trkpt lat="59.3581929244" lon="34.6872784942"><ele>172.27</ele><time>2026-08-15T02:52:04Z</time></trkpt><trkpt lat="59.3581033219" lon="34.6874454618"><ele>170.79</ele><time>2026-08-15T02:52:24Z</time></trkpt><trkpt lat="59.3580718059" lon="34.6874758881"><ele>170.81</ele><time>2026-08-15T02:52:44Z</time></trkpt><trkpt lat="59.3580044992" lon="34.6875981800"><ele>170.59</ele><time>2026-08-15T02:53:04Z</time></trkpt><trkpt lat="59.3579866458" lon="34.6876059752"><ele>169.98</ele><time>2026-08-15T02:53:11Z</time></trkpt><trkpt lat="59.3579206802" lon="34.6876284387"><ele>166.87</ele><time>2026-08-15T02:53:42Z</time></trkpt><trkpt lat="59.3579252902" lon="34.6876775566"><ele>166.48</ele><time>2026-08-15T02:54:10Z</time></trkpt><trkpt lat="59.3579347618" lon="34.6876592841"><ele>166.79</ele><time>2026-08-15T02:54:35Z</time></trkpt><trkpt lat="59.3579240330" lon="34.6876934823"><ele>167.31</ele><time>2026-08-15T02:55:00Z</time></trkpt><trkpt lat="59.3579868134" lon="34.6877720207"><ele>167.19</ele><time>2026-08-15T02:55:28Z</time></trkpt><trkpt lat="59.3579363544" lon="34.6879160218"><ele>167.73</ele><time>2026-08-15T02:55:45Z</time></trkpt><trkpt lat="59.3579589855" lon="34.6880107373"><ele>167.62</ele><time>2026-08-15T02:56:03Z</time></trkpt><trkpt lat="59.3579435628" lon="34.6882923692"><ele>167.34</ele><time>2026-08-15T02:56:23Z</time></trkpt><trkpt lat="59.3579244521" lon="34.6884988993"><ele>167.32</ele><time>2026-08-15T02:56:46Z</time></trkpt><trkpt lat="59.3579169922" lon="34.6885199379"><ele>167.52</ele><time>2026-08-15T02:56:48Z</time></trkpt><trkpt lat="59.3578754179" lon="34.6886362787"><ele>168.75</ele><time>2026-08-15T02:57:09Z</time></trkpt><trkpt lat="59.3578750826" lon="34.6887125541"><ele>168.32</ele><time>2026-08-15T02:57:25Z</time></trkpt><trkpt lat="59.3578776810" lon="34.6888131369"><ele>168.48</ele><time>2026-08-15T02:57:47Z</time></trkpt><trkpt lat="59.3578741606" lon="34.6889016498"><ele>167.83</ele><time>2026-08-15T02:58:07Z</time></trkpt><trkpt lat="59.3578264676" lon="34.6890926734"><ele>169.54</ele><time>2026-08-15T02:58:26Z</time></trkpt><trkpt lat="59.3577301595" lon="34.6892541088"><ele>169.20</ele><time>2026-08-15T02:58:48Z</time></trkpt><trkpt lat="59.3576271459" lon="34.6893529315"><ele>170.50</ele><time>2026-08-15T02:59:08Z</time></trkpt><trkpt lat="59.3574546464" lon="34.6895354055"><ele>171.19</ele><time>2026-08-15T02:59:30Z</time></trkpt><trkpt lat="59.3574460968" lon="34.6895363275"><ele>171.88</ele><time>2026-08-15T02:59:49Z</time></trkpt><trkpt lat="59.3575019203" lon="34.6894899756"><ele>169.50</ele><time>2026-08-15T03:00:04Z</time></trkpt><trkpt lat="59.3576382101" lon="34.6892993711"><ele>167.46</ele><time>2026-08-15T03:00:27Z</time></trkpt><trkpt lat="59.3577066064" lon="34.6892210003"><ele>168.16</ele><time>2026-08-15T03:00:48Z</time></trkpt><trkpt lat="59.3577229511" lon="34.6892096009"><ele>169.29</ele><time>2026-08-15T03:01:08Z</time></trkpt><trkpt lat="59.3577776849" lon="34.6892505046"><ele>169.30</ele><time>2026-08-15T03:01:32Z</time></trkpt><trkpt lat="59.3577037565" lon="34.6893026400"><ele>169.82</ele><time>2026-08-15T03:01:51Z</time></trkpt><trkpt lat="59.3576777726" lon="34.6893712878"><ele>170.09</ele><time>2026-08-15T03:02:17Z</time></trkpt><trkpt lat="59.3577621784" lon="34.6892956831"><ele>169.89</ele><time>2026-08-15T03:02:44Z</time></trkpt><trkpt lat="59.3577304110" lon="34.6892771591"><ele>169.83</ele><time>2026-08-15T03:03:09Z</time></trkpt><trkpt lat="59.3577235378" lon="34.6893356647"><ele>171.00</ele><time>2026-08-15T03:03:34Z</time></trkpt><trkpt lat="59.3577153236" lon="34.6895773150"><ele>172.19</ele><time>2026-08-15T03:03:55Z</time></trkpt><trkpt lat="59.3576415628" lon="34.6897508204"><ele>172.77</ele><time>2026-08-15T03:04:18Z</time></trkpt><trkpt lat="59.3576219492" lon="34.6899521537"><ele>172.96</ele><time>2026-08-15T03:04:40Z</time></trkpt><trkpt lat="59.3575874995" lon="34.6900497191"><ele>172.77</ele><time>2026-08-15T03:05:04Z</time></trkpt><trkpt lat="59.3576117232" lon="34.6900933050"><ele>173.97</ele><time>2026-08-15T03:05:38Z</time></trkpt><trkpt lat="59.3575964682" lon="34.6900734399"><ele>174.31</ele><time>2026-08-15T03:06:05Z</time></trkpt><trkpt lat="59.3575724121" lon="34.6901452728"><ele>175.29</ele><time>2026-08-15T03:06:32Z</time></trkpt><trkpt lat="59.3576093763" lon="34.6901661437"><ele>175.62</ele><time>2026-08-15T03:06:53Z</time></trkpt><trkpt lat="59.3576157466" lon="34.6901838295"><ele>175.53</ele><time>2026-08-15T03:06:57Z</time></trkpt><trkpt lat="59.3577217776" lon="34.6902989130"><ele>175.23</ele><time>2026-08-15T03:07:19Z</time></trkpt><trkpt lat="59.3577708118" lon="34.6903228015"><ele>174.96</ele><time>2026-08-15T03:07:26Z</time></trkpt><trkpt lat="59.3577019963" lon="34.6903075464"><ele>173.79</ele><time>2026-08-15T03:07:46Z</time></trkpt><trkpt lat="59.3576113880" lon="34.6903418284"><ele>173.47</ele><time>2026-08-15T03:08:04Z</time></trkpt><trkpt lat="59.3575346097" lon="34.6904492006"><ele>172.63</ele><time>2026-08-15T03:08:23Z</time></trkpt><trkpt lat="59.3575180974" lon="34.6904870868"><ele>172.64</ele><time>2026-08-15T03:08:31Z</time></trkpt><trkpt lat="59.3575203605" lon="34.6907057706"><ele>173.57</ele><time>2026-08-15T03:08:57Z</time></trkpt><trkpt lat="59.3575305864" lon="34.6908516157"><ele>174.08</ele><time>2026-08-15T03:09:20Z</time></trkpt><trkpt lat="59.3575386330" lon="34.6910267137"><ele>173.66</ele><time>2026-08-15T03:09:45Z</time></trkpt><trkpt lat="59.3575812131" lon="34.6911234409"><ele>173.80</ele><time>2026-08-15T03:10:05Z</time></trkpt><trkpt lat="59.3575808778" lon="34.6911963634"><ele>174.23</ele><time>2026-08-15T03:10:11Z</time></trkpt><trkpt lat="59.3575473502" lon="34.6914014686"><ele>173.07</ele><time>2026-08-15T03:10:34Z</time></trkpt><trkpt lat="59.3574536406" lon="34.6914575435"><ele>172.14</ele><time>2026-08-15T03:10:52Z</time></trkpt><trkpt lat="59.3574280757" lon="34.6914544422"><ele>171.52</ele><time>2026-08-15T03:11:13Z</time></trkpt><trkpt lat="59.3574718293" lon="34.6914274525"><ele>172.61</ele><time>2026-08-15T03:11:40Z</time></trkpt><trkpt lat="59.3574308418" lon="34.6915016323"><ele>173.58</ele><time>2026-08-15T03:12:07Z</time></trkpt><trkpt lat="59.3573873397" lon="34.6915712859"><ele>173.99</ele><time>2026-08-15T03:12:26Z</time></trkpt><trkpt lat="59.3574284110" lon="34.6916006226"><ele>174.62</ele><time>2026-08-15T03:12:54Z</time></trkpt><trkpt lat="59.3574174307" lon="34.6915868763"><ele>174.63</ele><time>2026-08-15T03:13:22Z</time></trkpt><trkpt lat="59.3574434146" lon="34.6915886365"><ele>173.98</ele><time>2026-08-15T03:13:48Z</time></trkpt><trkpt lat="59.3573932908" lon="34.6917163767"><ele>173.44</ele><time>2026-08-15T03:14:08Z</time></trkpt><trkpt lat="59.3573603500" lon="34.6917657461"><ele>173.89</ele><time>2026-08-15T03:14:34Z</time></trkpt><trkpt lat="59.3573195301" lon="34.6917980164"><ele>173.45</ele><time>2026-08-15T03:14:41Z</time></trkpt><trkpt lat="59.3573431671" lon="34.6920388285"><ele>172.39</ele><time>2026-08-15T03:15:04Z</time></trkpt><trkpt lat="59.3573903572" lon="34.6921430156"><ele>172.06</ele><time>2026-08-15T03:15:23Z</time></trkpt><trkpt lat="59.3574104737" lon="34.6923226397"><ele>171.50</ele><time>2026-08-15T03:15:45Z</time></trkpt><trkpt lat="59.3573238887" lon="34.6924345382"><ele>171.98</ele><time>2026-08-15T03:16:10Z</time></trkpt><trkpt lat="59.3572352920" lon="34.6925326064"><ele>172.91</ele><time>2026-08-15T03:16:27Z</time></trkpt><trkpt lat="59.3571896106" lon="34.6926621068"><ele>172.73</ele><time>2026-08-15T03:16:44Z</time></trkpt><trkpt lat="59.3571077194" lon="34.6927960496"><ele>172.85</ele><time>2026-08-15T03:17:05Z</time></trkpt><trkpt lat="59.3570952304" lon="34.6928221174"><ele>172.92</ele><time>2026-08-15T03:17:31Z</time></trkpt><trkpt lat="59.3571052048" lon="34.6928504482"><ele>172.47</ele><time>2026-08-15T03:18:01Z</time></trkpt><trkpt lat="59.3570896983" lon="34.6928643622"><ele>173.02</ele><time>2026-08-15T03:18:31Z</time></trkpt><trkpt lat="59.3571197055" lon="34.6928320918"><ele>174.95</ele><time>2026-08-15T03:19:01Z</time></trkpt><trkpt lat="59.3570747785" lon="34.6928400546"><ele>175.62</ele><time>2026-08-15T03:19:20Z</time></trkpt><trkpt lat="59.3571442645" lon="34.6929144021"><ele>175.29</ele><time>2026-08-15T03:19:44Z</time></trkpt><trkpt lat="59.3572191987" lon="34.6930097044"><ele>174.89</ele><time>2026-08-15T03:20:04Z</time></trkpt><trkpt lat="59.3572396506" lon="34.6932015661"><ele>174.69</ele><time>2026-08-15T03:20:25Z</time></trkpt><trkpt lat="59.3571433425" lon="34.6933914162"><ele>173.53</ele><time>2026-08-15T03:20:43Z</time></trkpt><trkpt lat="59.3571193703" lon="34.6935631614"><ele>173.38</ele><time>2026-08-15T03:21:02Z</time></trkpt><trkpt lat="59.3571918737" lon="34.6936606430"><ele>172.63</ele><time>2026-08-15T03:21:22Z</time></trkpt><trkpt lat="59.3572102301" lon="34.6937023848"><ele>172.46</ele><time>2026-08-15T03:21:31Z</time></trkpt><trkpt lat="59.3571751937" lon="34.6938885469"><ele>172.33</ele><time>2026-08-15T03:22:03Z</time></trkpt><trkpt lat="59.3572189473" lon="34.6937912330"><ele>172.85</ele><time>2026-08-15T03:22:27Z</time></trkpt><trkpt lat="59.3571939692" lon="34.6936910693"><ele>171.27</ele><time>2026-08-15T03:22:54Z</time></trkpt><trkpt lat="59.3572044466" lon="34.6936633252"><ele>173.04</ele><time>2026-08-15T03:23:22Z</time></trkpt><trkpt lat="59.3571668956" lon="34.6936552785"><ele>174.82</ele><time>2026-08-15T03:23:51Z</time></trkpt><trkpt lat="59.3571260758" lon="34.6936169732"><ele>175.10</ele><time>2026-08-15T03:24:20Z</time></trkpt><trkpt lat="59.3571141735" lon="34.6935419552"><ele>174.14</ele><time>2026-08-15T03:24:48Z</time></trkpt><trkpt lat="59.3571223877" lon="34.6935064998"><ele>172.45</ele><time>2026-08-15T03:25:19Z</time></trkpt><trkpt lat="59.3571697455" lon="34.6935147140"><ele>171.73</ele><time>2026-08-15T03:25:46Z</time></trkpt><trkpt lat="59.3571522273" lon="34.6935647540"><ele>173.02</ele><time>2026-08-15T03:26:15Z</time></trkpt><trkpt lat="59.3571863417" lon="34.6936584637"><ele>173.49</ele><time>2026-08-15T03:26:46Z</time></trkpt><trkpt lat="59.3572072126" lon="34.6936998703"><ele>172.79</ele><time>2026-08-15T03:27:17Z</time></trkpt><trkpt lat="59.3572113197" lon="34.6936671808"><ele>171.29</ele><time>2026-08-15T03:27:47Z</time></trkpt><trkpt lat="59.3572358787" lon="34.6937474795"><ele>172.81</ele><time>2026-08-15T03:28:15Z</time></trkpt><trkpt lat="59.3572033569" lon="34.6937681828"><ele>172.35</ele><time>2026-08-15T03:28:43Z</time></trkpt><trkpt lat="59.3572205398" lon="34.6938587911"><ele>171.54</ele><time>2026-08-15T03:29:11Z</time></trkpt><trkpt lat="59.3572513852" lon="34.6937839407"><ele>171.31</ele><time>2026-08-15T03:29:39Z</time></trkpt><trkpt lat="59.3572501279" lon="34.6937396843"><ele>170.95</ele><time>2026-08-15T03:29:58Z</time></trkpt><trkpt lat="59.3572262395" lon="34.6937775705"><ele>171.40</ele><time>2026-08-15T03:30:29Z</time></trkpt><trkpt lat="59.3572356272" lon="34.6937586274"><ele>171.19</ele><time>2026-08-15T03:30:55Z</time></trkpt><trkpt lat="59.3572118226" lon="34.6937365830"><ele>169.31</ele><time>2026-08-15T03:31:24Z</time></trkpt><trkpt lat="59.3572358787" lon="34.6937390137"><ele>168.84</ele><time>2026-08-15T03:31:49Z</time></trkpt><trkpt lat="59.3572315201" lon="34.6937525086"><ele>169.40</ele><time>2026-08-15T03:32:16Z</time></trkpt><trkpt lat="59.3572456855" lon="34.6936967690"><ele>170.20</ele><time>2026-08-15T03:32:38Z</time></trkpt><trkpt lat="59.3572552409" lon="34.6937649976"><ele>171.85</ele><time>2026-08-15T03:33:04Z</time></trkpt><trkpt lat="59.3572390638" lon="34.6937438753"><ele>171.44</ele><time>2026-08-15T03:33:32Z</time></trkpt><trkpt lat="59.3572342023" lon="34.6937970165"><ele>169.85</ele><time>2026-08-15T03:33:52Z</time></trkpt><trkpt lat="59.3572087213" lon="34.6938529238"><ele>169.75</ele><time>2026-08-15T03:33:55Z</time></trkpt><trkpt lat="59.3571849167" lon="34.6939458791"><ele>170.19</ele><time>2026-08-15T03:34:23Z</time></trkpt><trkpt lat="59.3571931310" lon="34.6939399280"><ele>167.73</ele><time>2026-08-15T03:34:54Z</time></trkpt><trkpt lat="59.3572125770" lon="34.6939680912"><ele>167.36</ele><time>2026-08-15T03:34:59Z</time></trkpt><trkpt lat="59.3572411593" lon="34.6939837653"><ele>166.06</ele><time>2026-08-15T03:35:18Z</time></trkpt><trkpt lat="59.3572435901" lon="34.6939610504"><ele>165.89</ele><time>2026-08-15T03:35:41Z</time></trkpt><trkpt lat="59.3572861701" lon="34.6939455438"><ele>166.18</ele><time>2026-08-15T03:36:04Z</time></trkpt><trkpt lat="59.3573453464" lon="34.6940100845"><ele>168.84</ele><time>2026-08-15T03:36:37Z</time></trkpt><trkpt lat="59.3572442606" lon="34.6940254234"><ele>166.72</ele><time>2026-08-15T03:37:05Z</time></trkpt><trkpt lat="59.3572442606" lon="34.6940273512"><ele>166.15</ele><time>2026-08-15T03:37:35Z</time></trkpt><trkpt lat="59.3572286703" lon="34.6939549316"><ele>165.38</ele><time>2026-08-15T03:38:01Z</time></trkpt><trkpt lat="59.3572274968" lon="34.6939649899"><ele>164.91</ele><time>2026-08-15T03:38:27Z</time></trkpt><trkpt lat="59.3572466914" lon="34.6940883715"><ele>163.72</ele><time>2026-08-15T03:38:47Z</time></trkpt><trkpt lat="59.3572723400" lon="34.6941943187"><ele>163.56</ele><time>2026-08-15T03:39:05Z</time></trkpt><trkpt lat="59.3573280796" lon="34.6942995116"><ele>163.92</ele><time>2026-08-15T03:39:24Z</time></trkpt><trkpt lat="59.3573134951" lon="34.6942990925"><ele>164.01</ele><time>2026-08-15T03:39:39Z</time></trkpt><trkpt lat="59.3573088851" lon="34.6943705063"><ele>162.83</ele><time>2026-08-15T03:39:57Z</time></trkpt><trkpt lat="59.3572756927" lon="34.6944746934"><ele>162.28</ele><time>2026-08-15T03:40:20Z</time></trkpt><trkpt lat="59.3572824821" lon="34.6944843326"><ele>161.98</ele><time>2026-08-15T03:40:44Z</time></trkpt><trkpt lat="59.3572259042" lon="34.6944463626"><ele>162.88</ele><time>2026-08-15T03:41:06Z</time></trkpt><trkpt lat="59.3572409078" lon="34.6944497991"><ele>162.98</ele><time>2026-08-15T03:41:25Z</time></trkpt><trkpt lat="59.3572041113" lon="34.6944167744"><ele>162.06</ele><time>2026-08-15T03:41:49Z</time></trkpt><trkpt lat="59.3571477849" lon="34.6944720112"><ele>162.34</ele><time>2026-08-15T03:42:13Z</time></trkpt><trkpt lat="59.3571288418" lon="34.6945192851"><ele>161.54</ele><time>2026-08-15T03:42:37Z</time></trkpt><trkpt lat="59.3571078870" lon="34.6945692413"><ele>160.80</ele><time>2026-08-15T03:42:58Z</time></trkpt><trkpt lat="59.3570879381" lon="34.6945596021"><ele>160.23</ele><time>2026-08-15T03:43:24Z</time></trkpt><trkpt lat="59.3570587691" lon="34.6945405751"><ele>160.63</ele><time>2026-08-15T03:43:54Z</time></trkpt><trkpt lat="59.3570669834" lon="34.6945828199"><ele>160.85</ele><time>2026-08-15T03:44:19Z</time></trkpt><trkpt lat="59.3570467830" lon="34.6946017630"><ele>160.12</ele><time>2026-08-15T03:44:41Z</time></trkpt><trkpt lat="59.3570313603" lon="34.6946601011"><ele>161.08</ele><time>2026-08-15T03:45:04Z</time></trkpt><trkpt lat="59.3570299353" lon="34.6946681477"><ele>161.18</ele><time>2026-08-15T03:45:05Z</time></trkpt><trkpt lat="59.3569724355" lon="34.6947317664"><ele>161.74</ele><time>2026-08-15T03:45:24Z</time></trkpt><trkpt lat="59.3569208030" lon="34.6947586723"><ele>161.05</ele><time>2026-08-15T03:45:44Z</time></trkpt><trkpt lat="59.3569093198" lon="34.6946679801"><ele>162.02</ele><time>2026-08-15T03:46:05Z</time></trkpt><trkpt lat="59.3568936456" lon="34.6945979912"><ele>163.40</ele><time>2026-08-15T03:46:31Z</time></trkpt><trkpt lat="59.3568471260" lon="34.6946347877"><ele>165.82</ele><time>2026-08-15T03:46:53Z</time></trkpt><trkpt lat="59.3568167835" lon="34.6946564969"><ele>164.83</ele><time>2026-08-15T03:47:14Z</time></trkpt><trkpt lat="59.3567495607" lon="34.6945989970"><ele>163.99</ele><time>2026-08-15T03:47:34Z</time></trkpt><trkpt lat="59.3567389995" lon="34.6946028527"><ele>163.80</ele><time>2026-08-15T03:47:57Z</time></trkpt><trkpt lat="59.3567425199" lon="34.6946146712"><ele>164.18</ele><time>2026-08-15T03:48:24Z</time></trkpt><trkpt lat="59.3567545060" lon="34.6945368033"><ele>165.49</ele><time>2026-08-15T03:48:54Z</time></trkpt><trkpt lat="59.3567409273" lon="34.6945299301"><ele>164.92</ele><time>2026-08-15T03:49:22Z</time></trkpt><trkpt lat="59.3567372393" lon="34.6945366357"><ele>163.41</ele><time>2026-08-15T03:49:45Z</time></trkpt><trkpt lat="59.3567238282" lon="34.6945288405"><ele>161.31</ele><time>2026-08-15T03:50:15Z</time></trkpt><trkpt lat="59.3567230739" lon="34.6945319418"><ele>161.66</ele><time>2026-08-15T03:50:42Z</time></trkpt><trkpt lat="59.3567232415" lon="34.6945539024"><ele>162.32</ele><time>2026-08-15T03:51:11Z</time></trkpt><trkpt lat="59.3567420170" lon="34.6945709176"><ele>161.54</ele><time>2026-08-15T03:51:39Z</time></trkpt><trkpt lat="59.3566798232" lon="34.6945653856"><ele>159.76</ele><time>2026-08-15T03:52:05Z</time></trkpt><trkpt lat="59.3566560186" lon="34.6945941355"><ele>159.74</ele><time>2026-08-15T03:52:18Z</time></trkpt><trkpt lat="59.3566171266" lon="34.6945553273"><ele>160.06</ele><time>2026-08-15T03:52:40Z</time></trkpt><trkpt lat="59.3566100858" lon="34.6945145912"><ele>161.47</ele><time>2026-08-15T03:53:02Z</time></trkpt><trkpt lat="59.3565729540" lon="34.6945249010"><ele>162.48</ele><time>2026-08-15T03:53:20Z</time></trkpt><trkpt lat="59.3565354031" lon="34.6944643836"><ele>163.65</ele><time>2026-08-15T03:53:45Z</time></trkpt><trkpt lat="59.3564920686" lon="34.6944715921"><ele>165.13</ele><time>2026-08-15T03:54:06Z</time></trkpt><trkpt lat="59.3565093353" lon="34.6943581849"><ele>164.76</ele><time>2026-08-15T03:54:29Z</time></trkpt><trkpt lat="59.3565552682" lon="34.6943584364"><ele>164.21</ele><time>2026-08-15T03:54:45Z</time></trkpt><trkpt lat="59.3565773964" lon="34.6944005135"><ele>164.12</ele><time>2026-08-15T03:55:06Z</time></trkpt><trkpt lat="59.3565624766" lon="34.6944027767"><ele>164.17</ele><time>2026-08-15T03:55:13Z</time></trkpt><trkpt lat="59.3565312121" lon="34.6943736076"><ele>164.92</ele><time>2026-08-15T03:55:38Z</time></trkpt><trkpt lat="59.3565613031" lon="34.6943623759"><ele>164.34</ele><time>2026-08-15T03:56:02Z</time></trkpt><trkpt lat="59.3565513287" lon="34.6943073068"><ele>164.24</ele><time>2026-08-15T03:56:25Z</time></trkpt><trkpt lat="59.3565406837" lon="34.6942642238"><ele>164.05</ele><time>2026-08-15T03:56:44Z</time></trkpt><trkpt lat="59.3565314636" lon="34.6941795666"><ele>163.59</ele><time>2026-08-15T03:57:06Z</time></trkpt><trkpt lat="59.3564960081" lon="34.6940861084"><ele>162.84</ele><time>2026-08-15T03:57:28Z</time></trkpt><trkpt lat="59.3565043900" lon="34.6940231603"><ele>163.19</ele><time>2026-08-15T03:57:47Z</time></trkpt><trkpt lat="59.3565045577" lon="34.6939707734"><ele>163.05</ele><time>2026-08-15T03:58:06Z</time></trkpt><trkpt lat="59.3564796634" lon="34.6940625552"><ele>163.50</ele><time>2026-08-15T03:58:25Z</time></trkpt><trkpt lat="59.3564538471" lon="34.6943114139"><ele>162.75</ele><time>2026-08-15T03:58:46Z</time></trkpt><trkpt lat="59.3563971855" lon="34.6943916287"><ele>162.95</ele><time>2026-08-15T03:59:07Z</time></trkpt><trkpt lat="59.3563455530" lon="34.6943944786"><ele>162.39</ele><time>2026-08-15T03:59:25Z</time></trkpt><trkpt lat="59.3562675174" lon="34.6944220550"><ele>162.56</ele><time>2026-08-15T03:59:44Z</time></trkpt><trkpt lat="59.3561876379" lon="34.6944400761"><ele>162.82</ele><time>2026-08-15T04:00:05Z</time></trkpt><trkpt lat="59.3561679404" lon="34.6944721788"><ele>163.26</ele><time>2026-08-15T04:00:25Z</time></trkpt><trkpt lat="59.3561970256" lon="34.6944529843"><ele>163.01</ele><time>2026-08-15T04:00:45Z</time></trkpt><trkpt lat="59.3561811000" lon="34.6943940595"><ele>161.72</ele><time>2026-08-15T04:01:07Z</time></trkpt><trkpt lat="59.3561427947" lon="34.6943465341"><ele>160.68</ele><time>2026-08-15T04:01:23Z</time></trkpt><trkpt lat="59.3560919166" lon="34.6942207217"><ele>160.29</ele><time>2026-08-15T04:01:41Z</time></trkpt><trkpt lat="59.3560579699" lon="34.6942293551"><ele>161.05</ele><time>2026-08-15T04:01:59Z</time></trkpt><trkpt lat="59.3560398649" lon="34.6942557581"><ele>161.73</ele><time>2026-08-15T04:02:22Z</time></trkpt><trkpt lat="59.3560375180" lon="34.6942182072"><ele>161.47</ele><time>2026-08-15T04:02:47Z</time></trkpt><trkpt lat="59.3560713809" lon="34.6942393295"><ele>161.79</ele><time>2026-08-15T04:03:09Z</time></trkpt><trkpt lat="59.3560525216" lon="34.6943150181"><ele>162.35</ele><time>2026-08-15T04:03:33Z</time></trkpt><trkpt lat="59.3560536113" lon="34.6942780539"><ele>162.92</ele><time>2026-08-15T04:03:44Z</time></trkpt><trkpt lat="59.3561039027" lon="34.6942197159"><ele>164.25</ele><time>2026-08-15T04:04:10Z</time></trkpt><trkpt lat="59.3560679443" lon="34.6942351386"><ele>163.46</ele><time>2026-08-15T04:04:37Z</time></trkpt><trkpt lat="59.3560701236" lon="34.6942394972"><ele>163.21</ele><time>2026-08-15T04:05:00Z</time></trkpt><trkpt lat="59.3560579699" lon="34.6942459513"><ele>163.49</ele><time>2026-08-15T04:05:24Z</time></trkpt><trkpt lat="59.3560531922" lon="34.6942801494"><ele>163.21</ele><time>2026-08-15T04:05:53Z</time></trkpt><trkpt lat="59.3560871389" lon="34.6941664070"><ele>165.28</ele><time>2026-08-15T04:06:25Z</time></trkpt><trkpt lat="59.3561018072" lon="34.6942082327"><ele>166.39</ele><time>2026-08-15T04:06:52Z</time></trkpt><trkpt lat="59.3560859654" lon="34.6942508966"><ele>166.66</ele><time>2026-08-15T04:07:18Z</time></trkpt><trkpt lat="59.3560782541" lon="34.6942151058"><ele>166.83</ele><time>2026-08-15T04:07:42Z</time></trkpt><trkpt lat="59.3560966942" lon="34.6942648944"><ele>167.11</ele><time>2026-08-15T04:08:04Z</time></trkpt><trkpt lat="59.3560716324" lon="34.6942727733"><ele>167.73</ele><time>2026-08-15T04:08:32Z</time></trkpt><trkpt lat="59.3560929224" lon="34.6942297742"><ele>167.45</ele><time>2026-08-15T04:08:56Z</time></trkpt><trkpt lat="59.3560766615" lon="34.6942560934"><ele>167.52</ele><time>2026-08-15T04:09:20Z</time></trkpt><trkpt lat="59.3561465666" lon="34.6942731924"><ele>167.39</ele><time>2026-08-15T04:09:39Z</time></trkpt><trkpt lat="59.3561919127" lon="34.6943319496"><ele>166.89</ele><time>2026-08-15T04:09:57Z</time></trkpt><trkpt lat="59.3562458921" lon="34.6943177842"><ele>167.41</ele><time>2026-08-15T04:10:29Z</time></trkpt><trkpt lat="59.3563451339" lon="34.6943635494"><ele>167.53</ele><time>2026-08-15T04:10:49Z</time></trkpt><trkpt lat="59.3564174697" lon="34.6944438480"><ele>167.42</ele><time>2026-08-15T04:11:03Z</time></trkpt><trkpt lat="59.3564872071" lon="34.6944011003"><ele>167.32</ele><time>2026-08-15T04:11:20Z</time></trkpt><trkpt lat="59.3565507419" lon="34.6944294311"><ele>166.72</ele><time>2026-08-15T04:11:41Z</time></trkpt><trkpt lat="59.3566363212" lon="34.6945628710"><ele>166.27</ele><time>2026-08-15T04:12:01Z</time></trkpt><trkpt lat="59.3567459565" lon="34.6946124081"><ele>165.95</ele><time>2026-08-15T04:12:20Z</time></trkpt><trkpt lat="59.3568501435" lon="34.6946816426"><ele>164.77</ele><time>2026-08-15T04:12:40Z</time></trkpt><trkpt lat="59.3569369800" lon="34.6946579218"><ele>166.86</ele><time>2026-08-15T04:13:01Z</time></trkpt><trkpt lat="59.3570212182" lon="34.6945599373"><ele>167.08</ele><time>2026-08-15T04:13:23Z</time></trkpt><trkpt lat="59.3570363056" lon="34.6943762898"><ele>165.70</ele><time>2026-08-15T04:13:44Z</time></trkpt><trkpt lat="59.3570343778" lon="34.6944054589"><ele>166.11</ele><time>2026-08-15T04:14:05Z</time></trkpt><trkpt lat="59.3568941485" lon="34.6946073789"><ele>165.44</ele><time>2026-08-15T04:14:26Z</time></trkpt><trkpt lat="59.3568514846" lon="34.6948409826"><ele>164.21</ele><time>2026-08-15T04:14:44Z</time></trkpt><trkpt lat="59.3567635585" lon="34.6948871668"><ele>164.16</ele><time>2026-08-15T04:15:05Z</time></trkpt><trkpt lat="59.3566860259" lon="34.6950106323"><ele>164.42</ele><time>2026-08-15T04:15:25Z</time></trkpt><trkpt lat="59.3566414341" lon="34.6951597463"><ele>164.28</ele><time>2026-08-15T04:15:45Z</time></trkpt><trkpt lat="59.3566121813" lon="34.6953883208"><ele>162.61</ele><time>2026-08-15T04:16:05Z</time></trkpt><trkpt lat="59.3565406837" lon="34.6954688709"><ele>161.96</ele><time>2026-08-15T04:16:25Z</time></trkpt><trkpt lat="59.3565667514" lon="34.6956021432"><ele>161.93</ele><time>2026-08-15T04:16:47Z</time></trkpt><trkpt lat="59.3565359060" lon="34.6957479045"><ele>161.89</ele><time>2026-08-15T04:17:07Z</time></trkpt><trkpt lat="59.3565205671" lon="34.6959002875"><ele>162.54</ele><time>2026-08-15T04:17:30Z</time></trkpt><trkpt lat="59.3564755563" lon="34.6959665883"><ele>162.43</ele><time>2026-08-15T04:17:49Z</time></trkpt><trkpt lat="59.3565113470" lon="34.6959342342"><ele>162.89</ele><time>2026-08-15T04:18:04Z</time></trkpt><trkpt lat="59.3564076629" lon="34.6961017884"><ele>165.59</ele><time>2026-08-15T04:18:30Z</time></trkpt><trkpt lat="59.3563989457" lon="34.6961262636"><ele>166.26</ele><time>2026-08-15T04:18:55Z</time></trkpt><trkpt lat="59.3564212415" lon="34.6961593721"><ele>166.40</ele><time>2026-08-15T04:19:21Z</time></trkpt><trkpt lat="59.3563784938" lon="34.6961122658"><ele>165.43</ele><time>2026-08-15T04:19:41Z</time></trkpt><trkpt lat="59.3563603051" lon="34.6960649081"><ele>165.39</ele><time>2026-08-15T04:20:03Z</time></trkpt><trkpt lat="59.3563551921" lon="34.6959716175"><ele>165.24</ele><time>2026-08-15T04:20:33Z</time></trkpt><trkpt lat="59.3563353270" lon="34.6959033888"><ele>165.91</ele><time>2026-08-15T04:21:04Z</time></trkpt><trkpt lat="59.3563345727" lon="34.6959124412"><ele>166.63</ele><time>2026-08-15T04:21:32Z</time></trkpt><trkpt lat="59.3563427031" lon="34.6959019639"><ele>166.25</ele><time>2026-08-15T04:21:57Z</time></trkpt><trkpt lat="59.3563432060" lon="34.6960882936"><ele>165.32</ele><time>2026-08-15T04:22:22Z</time></trkpt><trkpt lat="59.3563805055" lon="34.6962409280"><ele>164.84</ele><time>2026-08-15T04:22:42Z</time></trkpt><trkpt lat="59.3563441280" lon="34.6964193787"><ele>163.99</ele><time>2026-08-15T04:23:00Z</time></trkpt><trkpt lat="59.3563603051" lon="34.6965180337"><ele>163.61</ele><time>2026-08-15T04:23:16Z</time></trkpt><trkpt lat="59.3563303817" lon="34.6966658905"><ele>163.04</ele><time>2026-08-15T04:23:33Z</time></trkpt><trkpt lat="59.3563711178" lon="34.6968686488"><ele>161.55</ele><time>2026-08-15T04:23:55Z</time></trkpt><trkpt lat="59.3563081697" lon="34.6968999971"><ele>162.29</ele><time>2026-08-15T04:24:17Z</time></trkpt><trkpt lat="59.3563918211" lon="34.6968809702"><ele>162.52</ele><time>2026-08-15T04:24:42Z</time></trkpt><trkpt lat="59.3564438727" lon="34.6968895197"><ele>163.21</ele><time>2026-08-15T04:25:02Z</time></trkpt><trkpt lat="59.3565155379" lon="34.6968449280"><ele>162.92</ele><time>2026-08-15T04:25:23Z</time></trkpt><trkpt lat="59.3564588763" lon="34.6968890168"><ele>163.65</ele><time>2026-08-15T04:25:46Z</time></trkpt><trkpt lat="59.3564543501" lon="34.6968920343"><ele>163.70</ele><time>2026-08-15T04:25:47Z</time></trkpt><trkpt lat="59.3563937489" lon="34.6970309224"><ele>163.61</ele><time>2026-08-15T04:26:10Z</time></trkpt><trkpt lat="59.3563094269" lon="34.6972268075"><ele>163.24</ele><time>2026-08-15T04:26:30Z</time></trkpt><trkpt lat="59.3562208302" lon="34.6974261291"><ele>163.24</ele><time>2026-08-15T04:26:54Z</time></trkpt><trkpt lat="59.3562249374" lon="34.6976008080"><ele>163.25</ele><time>2026-08-15T04:27:14Z</time></trkpt><trkpt lat="59.3561424594" lon="34.6978009678"><ele>163.13</ele><time>2026-08-15T04:27:39Z</time></trkpt><trkpt lat="59.3560714647" lon="34.6978235990"><ele>164.09</ele><time>2026-08-15T04:28:02Z</time></trkpt><trkpt lat="59.3560843728" lon="34.6978495829"><ele>165.29</ele><time>2026-08-15T04:28:18Z</time></trkpt><trkpt lat="59.3560780864" lon="34.6978661790"><ele>165.69</ele><time>2026-08-15T04:28:45Z</time></trkpt><trkpt lat="59.3561426271" lon="34.6978827752"><ele>166.13</ele><time>2026-08-15T04:29:16Z</time></trkpt><trkpt lat="59.3561777472" lon="34.6979137044"><ele>170.43</ele><time>2026-08-15T04:29:45Z</time></trkpt><trkpt lat="59.3561438844" lon="34.6979664266"><ele>170.92</ele><time>2026-08-15T04:30:13Z</time></trkpt><trkpt lat="59.3561140448" lon="34.6979341563"><ele>170.97</ele><time>2026-08-15T04:30:31Z</time></trkpt><trkpt lat="59.3561197445" lon="34.6976938471"><ele>169.80</ele><time>2026-08-15T04:30:50Z</time></trkpt><trkpt lat="59.3560681120" lon="34.6975109540"><ele>168.76</ele><time>2026-08-15T04:31:16Z</time></trkpt><trkpt lat="59.3560800981" lon="34.6974226087"><ele>168.00</ele><time>2026-08-15T04:31:45Z</time></trkpt><trkpt lat="59.3561272882" lon="34.6975592338"><ele>167.99</ele><time>2026-08-15T04:32:05Z</time></trkpt><trkpt lat="59.3561400287" lon="34.6976882312"><ele>167.71</ele><time>2026-08-15T04:32:27Z</time></trkpt><trkpt lat="59.3561437167" lon="34.6978379320"><ele>166.59</ele><time>2026-08-15T04:32:44Z</time></trkpt><trkpt lat="59.3560873903" lon="34.6980655007"><ele>165.43</ele><time>2026-08-15T04:33:06Z</time></trkpt><trkpt lat="59.3561228458" lon="34.6981846076"><ele>165.20</ele><time>2026-08-15T04:33:27Z</time></trkpt><trkpt lat="59.3561492488" lon="34.6983132698"><ele>164.69</ele><time>2026-08-15T04:33:47Z</time></trkpt><trkpt lat="59.3561219238" lon="34.6983309556"><ele>163.95</ele><time>2026-08-15T04:34:11Z</time></trkpt><trkpt lat="59.3562114425" lon="34.6984224860"><ele>162.95</ele><time>2026-08-15T04:34:33Z</time></trkpt><trkpt lat="59.3563189823" lon="34.6984423511"><ele>162.67</ele><time>2026-08-15T04:34:49Z</time></trkpt><trkpt lat="59.3563218322" lon="34.6986037027"><ele>162.82</ele><time>2026-08-15T04:35:09Z</time></trkpt><trkpt lat="59.3563222513" lon="34.6986122523"><ele>162.76</ele><time>2026-08-15T04:35:11Z</time></trkpt><trkpt lat="59.3563049007" lon="34.6986739431"><ele>162.71</ele><time>2026-08-15T04:35:28Z</time></trkpt><trkpt lat="59.3561811838" lon="34.6986603644"><ele>161.90</ele><time>2026-08-15T04:35:52Z</time></trkpt><trkpt lat="59.3561606482" lon="34.6988372225"><ele>161.53</ele><time>2026-08-15T04:36:12Z</time></trkpt><trkpt lat="59.3562071677" lon="34.6989630349"><ele>161.77</ele><time>2026-08-15T04:36:28Z</time></trkpt><trkpt lat="59.3562460598" lon="34.6989805531"><ele>161.80</ele><time>2026-08-15T04:36:44Z</time></trkpt><trkpt lat="59.3562700320" lon="34.6989502944"><ele>162.17</ele><time>2026-08-15T04:37:06Z</time></trkpt><trkpt lat="59.3562691938" lon="34.6989353746"><ele>163.35</ele><time>2026-08-15T04:37:33Z</time></trkpt><trkpt lat="59.3563053198" lon="34.6989462711"><ele>162.85</ele><time>2026-08-15T04:38:05Z</time></trkpt><trkpt lat="59.3562831916" lon="34.6989728417"><ele>163.22</ele><time>2026-08-15T04:38:29Z</time></trkpt><trkpt lat="59.3562720437" lon="34.6989373863"><ele>163.49</ele><time>2026-08-15T04:38:34Z</time></trkpt><trkpt lat="59.3562516756" lon="34.6989034396"><ele>164.07</ele><time>2026-08-15T04:38:59Z</time></trkpt><trkpt lat="59.3563314714" lon="34.6990370471"><ele>163.99</ele><time>2026-08-15T04:39:20Z</time></trkpt><trkpt lat="59.3564179726" lon="34.6992014162"><ele>163.34</ele><time>2026-08-15T04:39:37Z</time></trkpt><trkpt lat="59.3565630633" lon="34.6993618459"><ele>162.14</ele><time>2026-08-15T04:39:58Z</time></trkpt><trkpt lat="59.3565770611" lon="34.6993500274"><ele>162.15</ele><time>2026-08-15T04:40:17Z</time></trkpt><trkpt lat="59.3565913104" lon="34.6992834751"><ele>161.55</ele><time>2026-08-15T04:40:26Z</time></trkpt><trkpt lat="59.3565771449" lon="34.6991165914"><ele>159.75</ele><time>2026-08-15T04:40:52Z</time></trkpt><trkpt lat="59.3566243351" lon="34.6990749333"><ele>159.79</ele><time>2026-08-15T04:41:15Z</time></trkpt><trkpt lat="59.3566311244" lon="34.6990699880"><ele>159.72</ele><time>2026-08-15T04:41:16Z</time></trkpt><trkpt lat="59.3566862773" lon="34.6989461035"><ele>159.18</ele><time>2026-08-15T04:41:35Z</time></trkpt><trkpt lat="59.3566194735" lon="34.6987888590"><ele>158.25</ele><time>2026-08-15T04:42:00Z</time></trkpt><trkpt lat="59.3566501513" lon="34.6986716799"><ele>157.48</ele><time>2026-08-15T04:42:19Z</time></trkpt><trkpt lat="59.3567117583" lon="34.6985623799"><ele>156.77</ele><time>2026-08-15T04:42:36Z</time></trkpt><trkpt lat="59.3567557633" lon="34.6985026170"><ele>157.78</ele><time>2026-08-15T04:42:55Z</time></trkpt><trkpt lat="59.3568256684" lon="34.6984581929"><ele>158.82</ele><time>2026-08-15T04:43:19Z</time></trkpt><trkpt lat="59.3568353076" lon="34.6984158643"><ele>158.63</ele><time>2026-08-15T04:43:40Z</time></trkpt><trkpt lat="59.3568363134" lon="34.6983581129"><ele>159.24</ele><time>2026-08-15T04:44:04Z</time></trkpt><trkpt lat="59.3568177894" lon="34.6982322168"><ele>157.78</ele><time>2026-08-15T04:44:34Z</time></trkpt><trkpt lat="59.3568641413" lon="34.6982518304"><ele>157.17</ele><time>2026-08-15T04:45:06Z</time></trkpt><trkpt lat="59.3568688352" lon="34.6982052270"><ele>155.96</ele><time>2026-08-15T04:45:40Z</time></trkpt><trkpt lat="59.3568742834" lon="34.6982939076"><ele>158.43</ele><time>2026-08-15T04:46:04Z</time></trkpt><trkpt lat="59.3568521552" lon="34.6983141080"><ele>158.17</ele><time>2026-08-15T04:46:29Z</time></trkpt><trkpt lat="59.3568729423" lon="34.6983819176"><ele>157.96</ele><time>2026-08-15T04:46:59Z</time></trkpt><trkpt lat="59.3569354713" lon="34.6982628945"><ele>158.64</ele><time>2026-08-15T04:47:26Z</time></trkpt><trkpt lat="59.3569451943" lon="34.6980676800"><ele>159.57</ele><time>2026-08-15T04:47:46Z</time></trkpt><trkpt lat="59.3569334596" lon="34.6979977749"><ele>159.24</ele><time>2026-08-15T04:47:53Z</time></trkpt><trkpt lat="59.3568907119" lon="34.6978559531"><ele>159.58</ele><time>2026-08-15T04:48:16Z</time></trkpt><trkpt lat="59.3569037877" lon="34.6977119520"><ele>160.77</ele><time>2026-08-15T04:48:38Z</time></trkpt><trkpt lat="59.3569374830" lon="34.6975369379"><ele>161.46</ele><time>2026-08-15T04:48:55Z</time></trkpt><trkpt lat="59.3569059670" lon="34.6973673720"><ele>161.13</ele><time>2026-08-15T04:49:20Z</time></trkpt><trkpt lat="59.3568954058" lon="34.6973490994"><ele>161.00</ele><time>2026-08-15T04:49:25Z</time></trkpt><trkpt lat="59.3569295201" lon="34.6972345188"><ele>160.85</ele><time>2026-08-15T04:49:46Z</time></trkpt><trkpt lat="59.3569349684" lon="34.6972278971"><ele>160.84</ele><time>2026-08-15T04:49:47Z</time></trkpt><trkpt lat="59.3569933902" lon="34.6971409768"><ele>161.53</ele><time>2026-08-15T04:50:07Z</time></trkpt><trkpt lat="59.3570128363" lon="34.6970563196"><ele>163.04</ele><time>2026-08-15T04:50:33Z</time></trkpt><trkpt lat="59.3569954019" lon="34.6969285794"><ele>162.98</ele><time>2026-08-15T04:50:55Z</time></trkpt><trkpt lat="59.3569453619" lon="34.6967979893"><ele>163.89</ele><time>2026-08-15T04:51:14Z</time></trkpt><trkpt lat="59.3569982518" lon="34.6967334487"><ele>164.90</ele><time>2026-08-15T04:51:37Z</time></trkpt><trkpt lat="59.3570448551" lon="34.6966887731"><ele>165.62</ele><time>2026-08-15T04:51:56Z</time></trkpt><trkpt lat="59.3570854235" lon="34.6966107376"><ele>165.64</ele><time>2026-08-15T04:52:13Z</time></trkpt><trkpt lat="59.3570199609" lon="34.6964455303"><ele>165.53</ele><time>2026-08-15T04:52:31Z</time></trkpt><trkpt lat="59.3569899537" lon="34.6962411795"><ele>165.02</ele><time>2026-08-15T04:52:48Z</time></trkpt><trkpt lat="59.3570216373" lon="34.6962066460"><ele>164.96</ele><time>2026-08-15T04:53:12Z</time></trkpt><trkpt lat="59.3570492975" lon="34.6961681731"><ele>166.16</ele><time>2026-08-15T04:53:45Z</time></trkpt><trkpt lat="59.3570005987" lon="34.6960051451"><ele>168.66</ele><time>2026-08-15T04:54:11Z</time></trkpt><trkpt lat="59.3569765426" lon="34.6961728670"><ele>170.16</ele><time>2026-08-15T04:54:38Z</time></trkpt><trkpt lat="59.3570095673" lon="34.6961663291"><ele>171.29</ele><time>2026-08-15T04:55:04Z</time></trkpt><trkpt lat="59.3570840824" lon="34.6961306222"><ele>171.73</ele><time>2026-08-15T04:55:24Z</time></trkpt><trkpt lat="59.3571512215" lon="34.6959870402"><ele>169.19</ele><time>2026-08-15T04:55:40Z</time></trkpt><trkpt lat="59.3572048657" lon="34.6958879661"><ele>167.20</ele><time>2026-08-15T04:56:00Z</time></trkpt><trkpt lat="59.3572635390" lon="34.6957989503"><ele>166.26</ele><time>2026-08-15T04:56:17Z</time></trkpt><trkpt lat="59.3572507147" lon="34.6956728026"><ele>165.47</ele><time>2026-08-15T04:56:38Z</time></trkpt><trkpt lat="59.3572231382" lon="34.6954815276"><ele>164.05</ele><time>2026-08-15T04:56:54Z</time></trkpt><trkpt lat="59.3571702484" lon="34.6952910908"><ele>163.74</ele><time>2026-08-15T04:57:15Z</time></trkpt><trkpt lat="59.3571597710" lon="34.6951623447"><ele>163.32</ele><time>2026-08-15T04:57:30Z</time></trkpt><trkpt lat="59.3571920414" lon="34.6950876620"><ele>163.25</ele><time>2026-08-15T04:57:52Z</time></trkpt><trkpt lat="59.3572010100" lon="34.6950800344"><ele>164.44</ele><time>2026-08-15T04:58:20Z</time></trkpt><trkpt lat="59.3571942206" lon="34.6950837225"><ele>165.89</ele><time>2026-08-15T04:58:46Z</time></trkpt><trkpt lat="59.3572449312" lon="34.6950319223"><ele>166.70</ele><time>2026-08-15T04:59:11Z</time></trkpt><trkpt lat="59.3573095556" lon="34.6949558984"><ele>167.17</ele><time>2026-08-15T04:59:33Z</time></trkpt><trkpt lat="59.3573248107" lon="34.6947863325"><ele>167.04</ele><time>2026-08-15T04:59:55Z</time></trkpt><trkpt lat="59.3573117349" lon="34.6946502104"><ele>165.37</ele><time>2026-08-15T05:00:16Z</time></trkpt><trkpt lat="59.3573671393" lon="34.6945333667"><ele>164.64</ele><time>2026-08-15T05:00:33Z</time></trkpt><trkpt lat="59.3574318476" lon="34.6943267528"><ele>162.79</ele><time>2026-08-15T05:00:56Z</time></trkpt><trkpt lat="59.3574131560" lon="34.6941643115"><ele>162.12</ele><time>2026-08-15T05:01:20Z</time></trkpt><trkpt lat="59.3574250583" lon="34.6941964980"><ele>164.94</ele><time>2026-08-15T05:01:49Z</time></trkpt><trkpt lat="59.3573958054" lon="34.6941837575"><ele>161.97</ele><time>2026-08-15T05:02:18Z</time></trkpt><trkpt lat="59.3573775329" lon="34.6942168660"><ele>161.32</ele><time>2026-08-15T05:02:48Z</time></trkpt><trkpt lat="59.3573378026" lon="34.6942310315"><ele>162.08</ele><time>2026-08-15T05:03:15Z</time></trkpt><trkpt lat="59.3573625293" lon="34.6941339690"><ele>161.51</ele><time>2026-08-15T05:03:43Z</time></trkpt><trkpt lat="59.3574100547" lon="34.6942003537"><ele>162.24</ele><time>2026-08-15T05:04:12Z</time></trkpt><trkpt lat="59.3574292492" lon="34.6941579413"><ele>164.12</ele><time>2026-08-15T05:04:39Z</time></trkpt><trkpt lat="59.3575151637" lon="34.6940554306"><ele>163.76</ele><time>2026-08-15T05:04:58Z</time></trkpt><trkpt lat="59.3574878387" lon="34.6939077415"><ele>162.78</ele><time>2026-08-15T05:05:20Z</time></trkpt><trkpt lat="59.3574542273" lon="34.6937013790"><ele>161.87</ele><time>2026-08-15T05:05:42Z</time></trkpt><trkpt lat="59.3574453425" lon="34.6934910771"><ele>160.94</ele><time>2026-08-15T05:06:04Z</time></trkpt><trkpt lat="59.3574526347" lon="34.6933201700"><ele>159.62</ele><time>2026-08-15T05:06:20Z</time></trkpt><trkpt lat="59.3575398903" lon="34.6933344193"><ele>159.89</ele><time>2026-08-15T05:06:35Z</time></trkpt><trkpt lat="59.3575443327" lon="34.6933650970"><ele>159.97</ele><time>2026-08-15T05:06:38Z</time></trkpt><trkpt lat="59.3576527946" lon="34.6934098564"><ele>159.61</ele><time>2026-08-15T05:06:59Z</time></trkpt><trkpt lat="59.3577086180" lon="34.6933522727"><ele>159.53</ele><time>2026-08-15T05:07:18Z</time></trkpt><trkpt lat="59.3577418942" lon="34.6931848861"><ele>160.02</ele><time>2026-08-15T05:07:35Z</time></trkpt><trkpt lat="59.3577800319" lon="34.6930521168"><ele>159.31</ele><time>2026-08-15T05:07:56Z</time></trkpt><trkpt lat="59.3578096200" lon="34.6930105425"><ele>159.01</ele><time>2026-08-15T05:08:04Z</time></trkpt><trkpt lat="59.3578801118" lon="34.6929148212"><ele>158.78</ele><time>2026-08-15T05:08:26Z</time></trkpt><trkpt lat="59.3578760047" lon="34.6927228756"><ele>159.15</ele><time>2026-08-15T05:08:46Z</time></trkpt><trkpt lat="59.3578432314" lon="34.6926001646"><ele>158.28</ele><time>2026-08-15T05:09:03Z</time></trkpt><trkpt lat="59.3577888329" lon="34.6924836561"><ele>158.21</ele><time>2026-08-15T05:09:24Z</time></trkpt><trkpt lat="59.3578043394" lon="34.6923798881"><ele>158.74</ele><time>2026-08-15T05:09:41Z</time></trkpt><trkpt lat="59.3578144815" lon="34.6922868490"><ele>161.83</ele><time>2026-08-15T05:10:04Z</time></trkpt><trkpt lat="59.3578267191" lon="34.6922945604"><ele>165.96</ele><time>2026-08-15T05:10:31Z</time></trkpt><trkpt lat="59.3578656111" lon="34.6923280880"><ele>166.94</ele><time>2026-08-15T05:10:57Z</time></trkpt><trkpt lat="59.3578522000" lon="34.6922908723"><ele>167.82</ele><time>2026-08-15T05:11:26Z</time></trkpt><trkpt lat="59.3578338437" lon="34.6923339553"><ele>169.97</ele><time>2026-08-15T05:11:55Z</time></trkpt><trkpt lat="59.3577918503" lon="34.6923575923"><ele>173.34</ele><time>2026-08-15T05:12:26Z</time></trkpt><trkpt lat="59.3576765992" lon="34.6923552454"><ele>169.89</ele><time>2026-08-15T05:12:55Z</time></trkpt><trkpt lat="59.3576641101" lon="34.6923591848"><ele>168.84</ele><time>2026-08-15T05:13:28Z</time></trkpt><trkpt lat="59.3577302434" lon="34.6922807302"><ele>174.67</ele><time>2026-08-15T05:13:58Z</time></trkpt><trkpt lat="59.3577356916" lon="34.6923385654"><ele>176.80</ele><time>2026-08-15T05:14:28Z</time></trkpt><trkpt lat="59.3577087019" lon="34.6923135035"><ele>179.78</ele><time>2026-08-15T05:14:59Z</time></trkpt><trkpt lat="59.3577305786" lon="34.6922996733"><ele>179.29</ele><time>2026-08-15T05:15:26Z</time></trkpt><trkpt lat="59.3577878270" lon="34.6923355479"><ele>180.61</ele><time>2026-08-15T05:15:54Z</time></trkpt><trkpt lat="59.3577922694" lon="34.6922130883"><ele>178.57</ele><time>2026-08-15T05:16:12Z</time></trkpt><trkpt lat="59.3578148168" lon="34.6921190433"><ele>177.31</ele><time>2026-08-15T05:16:32Z</time></trkpt><trkpt lat="59.3578759208" lon="34.6920085698"><ele>176.21</ele><time>2026-08-15T05:16:51Z</time></trkpt><trkpt lat="59.3579148129" lon="34.6919860225"><ele>174.95</ele><time>2026-08-15T05:17:09Z</time></trkpt><trkpt lat="59.3579342589" lon="34.6919666603"><ele>174.09</ele><time>2026-08-15T05:17:31Z</time></trkpt><trkpt lat="59.3579589855" lon="34.6918542590"><ele>174.06</ele><time>2026-08-15T05:17:51Z</time></trkpt><trkpt lat="59.3579630926" lon="34.6917473897"><ele>173.78</ele><time>2026-08-15T05:18:11Z</time></trkpt><trkpt lat="59.3579582311" lon="34.6916549373"><ele>173.06</ele><time>2026-08-15T05:18:31Z</time></trkpt><trkpt lat="59.3580004759" lon="34.6915146243"><ele>172.93</ele><time>2026-08-15T05:18:54Z</time></trkpt><trkpt lat="59.3579751626" lon="34.6913819388"><ele>172.34</ele><time>2026-08-15T05:19:16Z</time></trkpt><trkpt lat="59.3579558004" lon="34.6912290528"><ele>171.22</ele><time>2026-08-15T05:19:36Z</time></trkpt><trkpt lat="59.3578937743" lon="34.6910863090"><ele>169.68</ele><time>2026-08-15T05:19:57Z</time></trkpt><trkpt lat="59.3579511065" lon="34.6910065133"><ele>169.62</ele><time>2026-08-15T05:20:11Z</time></trkpt><trkpt lat="59.3579916749" lon="34.6909314115"><ele>169.16</ele><time>2026-08-15T05:20:33Z</time></trkpt><trkpt lat="59.3580408767" lon="34.6909260470"><ele>169.63</ele><time>2026-08-15T05:21:00Z</time></trkpt><trkpt lat="59.3580711354" lon="34.6909405477"><ele>170.48</ele><time>2026-08-15T05:21:33Z</time></trkpt><trkpt lat="59.3579879031" lon="34.6909321658"><ele>169.35</ele><time>2026-08-15T05:21:58Z</time></trkpt><trkpt lat="59.3579636794" lon="34.6909158211"><ele>169.34</ele><time>2026-08-15T05:22:23Z</time></trkpt><trkpt lat="59.3579682056" lon="34.6909361891"><ele>170.30</ele><time>2026-08-15T05:22:48Z</time></trkpt><trkpt lat="59.3580200057" lon="34.6908995602"><ele>172.43</ele><time>2026-08-15T05:23:19Z</time></trkpt><trkpt lat="59.3579925131" lon="34.6908743307"><ele>171.87</ele><time>2026-08-15T05:23:35Z</time></trkpt><trkpt lat="59.3579943571" lon="34.6908947825"><ele>171.78</ele><time>2026-08-15T05:24:08Z</time></trkpt><trkpt lat="59.3580462411" lon="34.6907876618"><ele>172.18</ele><time>2026-08-15T05:24:28Z</time></trkpt><trkpt lat="59.3580634240" lon="34.6907602530"><ele>171.74</ele><time>2026-08-15T05:24:49Z</time></trkpt><trkpt lat="59.3581007235" lon="34.6906141564"><ele>171.90</ele><time>2026-08-15T05:25:09Z</time></trkpt><trkpt lat="59.3580138870" lon="34.6905338578"><ele>170.52</ele><time>2026-08-15T05:25:30Z</time></trkpt><trkpt lat="59.3579508550" lon="34.6903962269"><ele>170.15</ele><time>2026-08-15T05:25:52Z</time></trkpt><trkpt lat="59.3579704687" lon="34.6902920399"><ele>168.88</ele><time>2026-08-15T05:26:14Z</time></trkpt><trkpt lat="59.3580591492" lon="34.6902526449"><ele>168.06</ele><time>2026-08-15T05:26:35Z</time></trkpt><trkpt lat="59.3581350893" lon="34.6901654731"><ele>166.43</ele><time>2026-08-15T05:26:52Z</time></trkpt><trkpt lat="59.3581916671" lon="34.6899756230"><ele>164.99</ele><time>2026-08-15T05:27:08Z</time></trkpt><trkpt lat="59.3581805192" lon="34.6896101721"><ele>161.83</ele><time>2026-08-15T05:27:32Z</time></trkpt><trkpt lat="59.3581497576" lon="34.6894976869"><ele>161.74</ele><time>2026-08-15T05:27:53Z</time></trkpt><trkpt lat="59.3581182417" lon="34.6893416159"><ele>162.19</ele><time>2026-08-15T05:28:13Z</time></trkpt><trkpt lat="59.3581360113" lon="34.6892064158"><ele>162.27</ele><time>2026-08-15T05:28:33Z</time></trkpt><trkpt lat="59.3581071775" lon="34.6890540328"><ele>161.61</ele><time>2026-08-15T05:28:53Z</time></trkpt><trkpt lat="59.3581322394" lon="34.6891444735"><ele>159.22</ele><time>2026-08-15T05:29:06Z</time></trkpt><trkpt lat="59.3581614085" lon="34.6890928410"><ele>157.85</ele><time>2026-08-15T05:29:28Z</time></trkpt><trkpt lat="59.3582197465" lon="34.6889811102"><ele>161.35</ele><time>2026-08-15T05:29:52Z</time></trkpt><trkpt lat="59.3583102711" lon="34.6888347622"><ele>162.79</ele><time>2026-08-15T05:30:15Z</time></trkpt><trkpt lat="59.3583571259" lon="34.6887858119"><ele>163.84</ele><time>2026-08-15T05:30:42Z</time></trkpt><trkpt lat="59.3583283760" lon="34.6887688804"><ele>166.41</ele><time>2026-08-15T05:31:12Z</time></trkpt><trkpt lat="59.3583636638" lon="34.6887047589"><ele>166.54</ele><time>2026-08-15T05:31:44Z</time></trkpt><trkpt lat="59.3584563676" lon="34.6887182537"><ele>166.48</ele><time>2026-08-15T05:32:11Z</time></trkpt><trkpt lat="59.3583386019" lon="34.6887891646"><ele>168.50</ele><time>2026-08-15T05:32:42Z</time></trkpt><trkpt lat="59.3583577964" lon="34.6888736542"><ele>168.55</ele><time>2026-08-15T05:33:08Z</time></trkpt><trkpt lat="59.3583545275" lon="34.6887571458"><ele>168.32</ele><time>2026-08-15T05:33:39Z</time></trkpt><trkpt lat="59.3583572097" lon="34.6885758452"><ele>168.85</ele><time>2026-08-15T05:33:59Z</time></trkpt><trkpt lat="59.3583639991" lon="34.6884755976"><ele>169.26</ele><time>2026-08-15T05:34:18Z</time></trkpt><trkpt lat="59.3584248517" lon="34.6884073690"><ele>169.12</ele><time>2026-08-15T05:34:38Z</time></trkpt><trkpt lat="59.3583962694" lon="34.6881836560"><ele>168.55</ele><time>2026-08-15T05:35:01Z</time></trkpt><trkpt lat="59.3583943415" lon="34.6880689077"><ele>168.43</ele><time>2026-08-15T05:35:25Z</time></trkpt><trkpt lat="59.3584189843" lon="34.6879654750"><ele>169.38</ele><time>2026-08-15T05:35:50Z</time></trkpt><trkpt lat="59.3584028073" lon="34.6877757087"><ele>169.45</ele><time>2026-08-15T05:36:09Z</time></trkpt><trkpt lat="59.3584818486" lon="34.6875447035"><ele>168.81</ele><time>2026-08-15T05:36:33Z</time></trkpt><trkpt lat="59.3585737981" lon="34.6873880457"><ele>166.70</ele><time>2026-08-15T05:36:52Z</time></trkpt><trkpt lat="59.3586278614" lon="34.6872429550"><ele>167.39</ele><time>2026-08-15T05:37:12Z</time></trkpt><trkpt lat="59.3587188888" lon="34.6870621573"><ele>166.10</ele><time>2026-08-15T05:37:33Z</time></trkpt><trkpt lat="59.3587729521" lon="34.6870708745"><ele>165.68</ele><time>2026-08-15T05:37:47Z</time></trkpt><trkpt lat="59.3587901350" lon="34.6869465709"><ele>165.41</ele><time>2026-08-15T05:38:08Z</time></trkpt><trkpt lat="59.3587728683" lon="34.6869109478"><ele>165.74</ele><time>2026-08-15T05:38:11Z</time></trkpt><trkpt lat="59.3586937431" lon="34.6868379414"><ele>166.78</ele><time>2026-08-15T05:38:32Z</time></trkpt><trkpt lat="59.3585950043" lon="34.6867806930"><ele>167.22</ele><time>2026-08-15T05:38:54Z</time></trkpt><trkpt lat="59.3585524242" lon="34.6866869833"><ele>168.24</ele><time>2026-08-15T05:39:17Z</time></trkpt><trkpt lat="59.3586022127" lon="34.6867397893"><ele>169.19</ele><time>2026-08-15T05:39:41Z</time></trkpt><trkpt lat="59.3585981894" lon="34.6867744066"><ele>169.44</ele><time>2026-08-15T05:40:07Z</time></trkpt><trkpt lat="59.3585773185" lon="34.6867697965"><ele>170.77</ele><time>2026-08-15T05:40:33Z</time></trkpt><trkpt lat="59.3586027995" lon="34.6866521146"><ele>172.36</ele><time>2026-08-15T05:40:55Z</time></trkpt><trkpt lat="59.3585815094" lon="34.6866190899"><ele>173.41</ele><time>2026-08-15T05:41:16Z</time></trkpt><trkpt lat="59.3586027157" lon="34.6865764260"><ele>174.61</ele><time>2026-08-15T05:41:45Z</time></trkpt><trkpt lat="59.3586480618" lon="34.6865943633"><ele>175.23</ele><time>2026-08-15T05:42:10Z</time></trkpt><trkpt lat="59.3586303759" lon="34.6866417211"><ele>174.84</ele><time>2026-08-15T05:42:41Z</time></trkpt><trkpt lat="59.3586357404" lon="34.6866840497"><ele>175.28</ele><time>2026-08-15T05:43:03Z</time></trkpt><trkpt lat="59.3586458825" lon="34.6866741590"><ele>175.74</ele><time>2026-08-15T05:43:31Z</time></trkpt><trkpt lat="59.3586938269" lon="34.6865055151"><ele>174.60</ele><time>2026-08-15T05:43:54Z</time></trkpt><trkpt lat="59.3587460462" lon="34.6863375418"><ele>174.17</ele><time>2026-08-15T05:44:12Z</time></trkpt><trkpt lat="59.3587897997" lon="34.6862937883"><ele>173.63</ele><time>2026-08-15T05:44:29Z</time></trkpt><trkpt lat="59.3587986846" lon="34.6862018388"><ele>172.56</ele><time>2026-08-15T05:44:42Z</time></trkpt><trkpt lat="59.3588120956" lon="34.6859602723"><ele>171.21</ele><time>2026-08-15T05:45:04Z</time></trkpt><trkpt lat="59.3588660751" lon="34.6858086437"><ele>169.06</ele><time>2026-08-15T05:45:28Z</time></trkpt><trkpt lat="59.3589264248" lon="34.6856624633"><ele>168.66</ele><time>2026-08-15T05:45:47Z</time></trkpt><trkpt lat="59.3589266762" lon="34.6855201386"><ele>168.83</ele><time>2026-08-15T05:46:05Z</time></trkpt><trkpt lat="59.3589803204" lon="34.6853500698"><ele>168.37</ele><time>2026-08-15T05:46:25Z</time></trkpt><trkpt lat="59.3589550909" lon="34.6852347348"><ele>168.93</ele><time>2026-08-15T05:46:40Z</time></trkpt><trkpt lat="59.3589950725" lon="34.6850823518"><ele>168.48</ele><time>2026-08-15T05:47:01Z</time></trkpt><trkpt lat="59.3590830825" lon="34.6848599799"><ele>168.38</ele><time>2026-08-15T05:47:24Z</time></trkpt><trkpt lat="59.3590514828" lon="34.6848420426"><ele>167.89</ele><time>2026-08-15T05:47:38Z</time></trkpt><trkpt lat="59.3591380678" lon="34.6846863907"><ele>167.12</ele><time>2026-08-15T05:48:01Z</time></trkpt><trkpt lat="59.3591107428" lon="34.6844568942"><ele>165.73</ele><time>2026-08-15T05:48:19Z</time></trkpt><trkpt lat="59.3590328749" lon="34.6844195109"><ele>165.52</ele><time>2026-08-15T05:48:38Z</time></trkpt><trkpt lat="59.3590077292" lon="34.6843907610"><ele>165.73</ele><time>2026-08-15T05:49:05Z</time></trkpt><trkpt lat="59.3590429332" lon="34.6843815409"><ele>166.36</ele><time>2026-08-15T05:49:37Z</time></trkpt><trkpt lat="59.3590128422" lon="34.6844093688"><ele>166.94</ele><time>2026-08-15T05:50:04Z</time></trkpt><trkpt lat="59.3589936476" lon="34.6843943652"><ele>166.91</ele><time>2026-08-15T05:50:33Z</time></trkpt><trkpt lat="59.3590716831" lon="34.6842865739"><ele>166.76</ele><time>2026-08-15T05:50:50Z</time></trkpt><trkpt lat="59.3591270037" lon="34.6840759367"><ele>166.83</ele><time>2026-08-15T05:51:11Z</time></trkpt><trkpt lat="59.3590858486" lon="34.6838321071"><ele>165.77</ele><time>2026-08-15T05:51:29Z</time></trkpt><trkpt lat="59.3590861000" lon="34.6838121582"><ele>165.45</ele><time>2026-08-15T05:51:48Z</time></trkpt><trkpt lat="59.3591420073" lon="34.6839414909"><ele>164.32</ele><time>2026-08-15T05:52:01Z</time></trkpt><trkpt lat="59.3592203781" lon="34.6838249825"><ele>164.28</ele><time>2026-08-15T05:52:22Z</time></trkpt><trkpt lat="59.3592092302" lon="34.6836581826"><ele>163.52</ele><time>2026-08-15T05:52:43Z</time></trkpt><trkpt lat="59.3591931369" lon="34.6835436020"><ele>163.49</ele><time>2026-08-15T05:52:55Z</time></trkpt><trkpt lat="59.3591441028" lon="34.6834112518"><ele>164.31</ele><time>2026-08-15T05:53:15Z</time></trkpt><trkpt lat="59.3591664825" lon="34.6832979284"><ele>165.17</ele><time>2026-08-15T05:53:32Z</time></trkpt><trkpt lat="59.3592365552" lon="34.6833063103"><ele>164.78</ele><time>2026-08-15T05:53:52Z</time></trkpt><trkpt lat="59.3592856731" lon="34.6833926439"><ele>164.17</ele><time>2026-08-15T05:54:12Z</time></trkpt><trkpt lat="59.3593352102" lon="34.6832728665"><ele>164.25</ele><time>2026-08-15T05:54:30Z</time></trkpt><trkpt lat="59.3593388144" lon="34.6831060667"><ele>164.84</ele><time>2026-08-15T05:54:51Z</time></trkpt><trkpt lat="59.3593558297" lon="34.6829798352"><ele>166.44</ele><time>2026-08-15T05:55:12Z</time></trkpt><trkpt lat="59.3593781255" lon="34.6828821860"><ele>166.94</ele><time>2026-08-15T05:55:29Z</time></trkpt><trkpt lat="59.3593462743" lon="34.6827344969"><ele>167.41</ele><time>2026-08-15T05:55:49Z</time></trkpt><trkpt lat="59.3593553267" lon="34.6827855427"><ele>168.77</ele><time>2026-08-15T05:56:14Z</time></trkpt><trkpt lat="59.3593913689" lon="34.6827660128"><ele>170.79</ele><time>2026-08-15T05:56:46Z</time></trkpt><trkpt lat="59.3593799695" lon="34.6827585530"><ele>170.47</ele><time>2026-08-15T05:57:18Z</time></trkpt><trkpt lat="59.3593743537" lon="34.6828248538"><ele>168.94</ele><time>2026-08-15T05:57:49Z</time></trkpt><trkpt lat="59.3594077136" lon="34.6828165557"><ele>170.23</ele><time>2026-08-15T05:58:21Z</time></trkpt><trkpt lat="59.3593904469" lon="34.6826685313"><ele>171.26</ele><time>2026-08-15T05:58:43Z</time></trkpt><trkpt lat="59.3593852501" lon="34.6825666912"><ele>171.88</ele><time>2026-08-15T05:59:07Z</time></trkpt><trkpt lat="59.3593381438" lon="34.6823898330"><ele>171.25</ele><time>2026-08-15T05:59:25Z</time></trkpt><trkpt lat="59.3594246451" lon="34.6822080296"><ele>169.62</ele><time>2026-08-15T05:59:44Z</time></trkpt><trkpt lat="59.3594566640" lon="34.6821156610"><ele>169.59</ele><time>2026-08-15T06:00:01Z</time></trkpt><trkpt lat="59.3594291713" lon="34.6819630265"><ele>169.10</ele><time>2026-08-15T06:00:22Z</time></trkpt><trkpt lat="59.3594560772" lon="34.6818041895"><ele>168.67</ele><time>2026-08-15T06:00:46Z</time></trkpt><trkpt lat="59.3595425785" lon="34.6816678997"><ele>167.60</ele><time>2026-08-15T06:01:03Z</time></trkpt><trkpt lat="59.3595802970" lon="34.6815564204"><ele>167.71</ele><time>2026-08-15T06:01:20Z</time></trkpt><trkpt lat="59.3595818896" lon="34.6814464498"><ele>167.19</ele><time>2026-08-15T06:01:42Z</time></trkpt><trkpt lat="59.3595716637" lon="34.6812667418"><ele>167.42</ele><time>2026-08-15T06:02:05Z</time></trkpt><trkpt lat="59.3595802132" lon="34.6810405981"><ele>168.18</ele><time>2026-08-15T06:02:32Z</time></trkpt><trkpt lat="59.3595910259" lon="34.6808199864"><ele>169.39</ele><time>2026-08-15T06:02:51Z</time></trkpt><trkpt lat="59.3596474361" lon="34.6806590538"><ele>169.87</ele><time>2026-08-15T06:03:16Z</time></trkpt><trkpt lat="59.3597139046" lon="34.6805603988"><ele>169.94</ele><time>2026-08-15T06:03:41Z</time></trkpt><trkpt lat="59.3597642798" lon="34.6804712154"><ele>169.37</ele><time>2026-08-15T06:04:09Z</time></trkpt><trkpt lat="59.3597304169" lon="34.6804967802"><ele>171.08</ele><time>2026-08-15T06:04:38Z</time></trkpt><trkpt lat="59.3596827239" lon="34.6805699542"><ele>173.41</ele><time>2026-08-15T06:05:08Z</time></trkpt><trkpt lat="59.3596569076" lon="34.6806548629"><ele>173.77</ele><time>2026-08-15T06:05:34Z</time></trkpt><trkpt lat="59.3597637769" lon="34.6806805953"><ele>182.56</ele><time>2026-08-15T06:06:08Z</time></trkpt><trkpt lat="59.3596904352" lon="34.6806735545"><ele>185.54</ele><time>2026-08-15T06:07:17Z</time></trkpt><trkpt lat="59.3596670497" lon="34.6806714591"><ele>186.31</ele><time>2026-08-15T06:07:48Z</time></trkpt><trkpt lat="59.3597088754" lon="34.6806199942"><ele>186.70</ele><time>2026-08-15T06:08:14Z</time></trkpt><trkpt lat="59.3596551474" lon="34.6806366742"><ele>187.46</ele><time>2026-08-15T06:08:46Z</time></trkpt><trkpt lat="59.3596317619" lon="34.6806082595"><ele>189.99</ele><time>2026-08-15T06:09:16Z</time></trkpt><trkpt lat="59.3596680555" lon="34.6806281246"><ele>191.61</ele><time>2026-08-15T06:09:48Z</time></trkpt><trkpt lat="59.3596982304" lon="34.6806046553"><ele>191.09</ele><time>2026-08-15T06:10:15Z</time></trkpt><trkpt lat="59.3598001543" lon="34.6804635879"><ele>187.40</ele><time>2026-08-15T06:10:35Z</time></trkpt><trkpt lat="59.3597715721" lon="34.6802729834"><ele>184.94</ele><time>2026-08-15T06:10:57Z</time></trkpt><trkpt lat="59.3597350270" lon="34.6800593287"><ele>183.94</ele><time>2026-08-15T06:11:14Z</time></trkpt><trkpt lat="59.3597341049" lon="34.6800231189"><ele>183.81</ele><time>2026-08-15T06:11:17Z</time></trkpt><trkpt lat="59.3597911857" lon="34.6797724161"><ele>180.47</ele><time>2026-08-15T06:11:37Z</time></trkpt><trkpt lat="59.3599184230" lon="34.6796389762"><ele>177.92</ele><time>2026-08-15T06:11:58Z</time></trkpt><trkpt lat="59.3600291479" lon="34.6795005072"><ele>174.09</ele><time>2026-08-15T06:12:18Z</time></trkpt><trkpt lat="59.3600665312" lon="34.6793570928"><ele>172.77</ele><time>2026-08-15T06:12:35Z</time></trkpt><trkpt lat="59.3600185029" lon="34.6791074798"><ele>171.31</ele><time>2026-08-15T06:12:55Z</time></trkpt><trkpt lat="59.3599303253" lon="34.6790270973"><ele>169.17</ele><time>2026-08-15T06:13:16Z</time></trkpt><trkpt lat="59.3598877452" lon="34.6790381614"><ele>169.55</ele><time>2026-08-15T06:13:45Z</time></trkpt><trkpt lat="59.3598845601" lon="34.6790512372"><ele>169.81</ele><time>2026-08-15T06:14:12Z</time></trkpt><trkpt lat="59.3599369470" lon="34.6789739560"><ele>169.78</ele><time>2026-08-15T06:14:42Z</time></trkpt><trkpt lat="59.3599859811" lon="34.6789232455"><ele>170.77</ele><time>2026-08-15T06:15:07Z</time></trkpt><trkpt lat="59.3599663675" lon="34.6787819266"><ele>171.19</ele><time>2026-08-15T06:15:26Z</time></trkpt><trkpt lat="59.3599782698" lon="34.6786022186"><ele>170.50</ele><time>2026-08-15T06:15:40Z</time></trkpt><trkpt lat="59.3600091152" lon="34.6784945950"><ele>169.81</ele><time>2026-08-15T06:16:00Z</time></trkpt><trkpt lat="59.3600989692" lon="34.6784359217"><ele>169.56</ele><time>2026-08-15T06:16:19Z</time></trkpt><trkpt lat="59.3602027372" lon="34.6784468181"><ele>168.45</ele><time>2026-08-15T06:16:37Z</time></trkpt><trkpt lat="59.3602733128" lon="34.6785777435"><ele>167.13</ele><time>2026-08-15T06:16:54Z</time></trkpt><trkpt lat="59.3603280466" lon="34.6787284501"><ele>166.85</ele><time>2026-08-15T06:17:13Z</time></trkpt><trkpt lat="59.3604300544" lon="34.6788210701"><ele>166.41</ele><time>2026-08-15T06:17:31Z</time></trkpt><trkpt lat="59.3604878895" lon="34.6790162008"><ele>165.04</ele><time>2026-08-15T06:17:50Z</time></trkpt><trkpt lat="59.3604839500" lon="34.6791723557"><ele>164.44</ele><time>2026-08-15T06:18:10Z</time></trkpt><trkpt lat="59.3604783341" lon="34.6792173665"><ele>167.16</ele><time>2026-08-15T06:18:33Z</time></trkpt><trkpt lat="59.3604764901" lon="34.6792306099"><ele>168.46</ele><time>2026-08-15T06:19:03Z</time></trkpt><trkpt lat="59.3605006300" lon="34.6792582702"><ele>167.46</ele><time>2026-08-15T06:19:32Z</time></trkpt><trkpt lat="59.3604703713" lon="34.6792716812"><ele>166.64</ele><time>2026-08-15T06:20:00Z</time></trkpt><trkpt lat="59.3604345806" lon="34.6793362219"><ele>165.97</ele><time>2026-08-15T06:20:23Z</time></trkpt><trkpt lat="59.3603732251" lon="34.6794145089"><ele>165.95</ele><time>2026-08-15T06:20:39Z</time></trkpt><trkpt lat="59.3602858856" lon="34.6795487870"><ele>165.66</ele><time>2026-08-15T06:21:01Z</time></trkpt><trkpt lat="59.3602961116" lon="34.6796994098"><ele>165.28</ele><time>2026-08-15T06:21:17Z</time></trkpt><trkpt lat="59.3602850474" lon="34.6797447558"><ele>165.04</ele><time>2026-08-15T06:21:25Z</time></trkpt><trkpt lat="59.3602190819" lon="34.6800272260"><ele>163.49</ele><time>2026-08-15T06:21:49Z</time></trkpt><trkpt lat="59.3602324091" lon="34.6802278887"><ele>162.08</ele><time>2026-08-15T06:22:08Z</time></trkpt><trkpt lat="59.3602533638" lon="34.6804680303"><ele>160.02</ele><time>2026-08-15T06:22:30Z</time></trkpt><trkpt lat="59.3602729775" lon="34.6807099320"><ele>158.64</ele><time>2026-08-15T06:22:48Z</time></trkpt><trkpt lat="59.3602997158" lon="34.6809194796"><ele>159.08</ele><time>2026-08-15T06:23:10Z</time></trkpt><trkpt lat="59.3602785934" lon="34.6810349822"><ele>161.24</ele><time>2026-08-15T06:23:27Z</time></trkpt><trkpt lat="59.3602645118" lon="34.6810587868"><ele>164.14</ele><time>2026-08-15T06:23:47Z</time></trkpt><trkpt lat="59.3602666911" lon="34.6811005287"><ele>168.59</ele><time>2026-08-15T06:24:18Z</time></trkpt><trkpt lat="59.3602435570" lon="34.6810873691"><ele>170.61</ele><time>2026-08-15T06:24:45Z</time></trkpt><trkpt lat="59.3602354266" lon="34.6811495628"><ele>173.24</ele><time>2026-08-15T06:25:15Z</time></trkpt><trkpt lat="59.3601744063" lon="34.6813066397"><ele>173.02</ele><time>2026-08-15T06:25:33Z</time></trkpt><trkpt lat="59.3601713050" lon="34.6814750321"><ele>173.01</ele><time>2026-08-15T06:25:49Z</time></trkpt><trkpt lat="59.3601687066" lon="34.6815581806"><ele>172.20</ele><time>2026-08-15T06:25:58Z</time></trkpt><trkpt lat="59.3600978795" lon="34.6818269882"><ele>170.34</ele><time>2026-08-15T06:26:17Z</time></trkpt><trkpt lat="59.3600518629" lon="34.6819581650"><ele>169.28</ele><time>2026-08-15T06:26:40Z</time></trkpt><trkpt lat="59.3599744979" lon="34.6821756754"><ele>169.06</ele><time>2026-08-15T06:27:01Z</time></trkpt><trkpt lat="59.3599579856" lon="34.6823182516"><ele>169.16</ele><time>2026-08-15T06:27:17Z</time></trkpt><trkpt lat="59.3599635176" lon="34.6825202554"><ele>170.21</ele><time>2026-08-15T06:27:40Z</time></trkpt><trkpt lat="59.3599135615" lon="34.6826355904"><ele>173.82</ele><time>2026-08-15T06:28:01Z</time></trkpt><trkpt lat="59.3599135615" lon="34.6826392785"><ele>173.95</ele><time>2026-08-15T06:28:03Z</time></trkpt><trkpt lat="59.3599354383" lon="34.6828442998"><ele>174.52</ele><time>2026-08-15T06:28:27Z</time></trkpt><trkpt lat="59.3599897530" lon="34.6829919890"><ele>174.83</ele><time>2026-08-15T06:28:49Z</time></trkpt><trkpt lat="59.3599991407" lon="34.6830657497"><ele>174.87</ele><time>2026-08-15T06:29:12Z</time></trkpt><trkpt lat="59.3599221110" lon="34.6830338147"><ele>176.84</ele><time>2026-08-15T06:29:46Z</time></trkpt><trkpt lat="59.3599232007" lon="34.6830644086"><ele>176.87</ele><time>2026-08-15T06:30:17Z</time></trkpt><trkpt lat="59.3599910941" lon="34.6830810048"><ele>177.36</ele><time>2026-08-15T06:30:48Z</time></trkpt><trkpt lat="59.3599737436" lon="34.6830804180"><ele>178.83</ele><time>2026-08-15T06:31:18Z</time></trkpt><trkpt lat="59.3599687144" lon="34.6830901410"><ele>178.58</ele><time>2026-08-15T06:31:30Z</time></trkpt><trkpt lat="59.3599030841" lon="34.6831721161"><ele>176.93</ele><time>2026-08-15T06:31:56Z</time></trkpt><trkpt lat="59.3599130586" lon="34.6831867844"><ele>177.96</ele><time>2026-08-15T06:32:21Z</time></trkpt><trkpt lat="59.3599241227" lon="34.6832155343"><ele>177.66</ele><time>2026-08-15T06:32:45Z</time></trkpt><trkpt lat="59.3599312473" lon="34.6832882892"><ele>177.84</ele><time>2026-08-15T06:33:04Z</time></trkpt><trkpt lat="59.3599949498" lon="34.6833167877"><ele>178.70</ele><time>2026-08-15T06:33:24Z</time></trkpt><trkpt lat="59.3600325845" lon="34.6834411751"><ele>178.42</ele><time>2026-08-15T06:33:42Z</time></trkpt><trkpt lat="59.3600407150" lon="34.6836875193"><ele>177.89</ele><time>2026-08-15T06:34:04Z</time></trkpt><trkpt lat="59.3599955365" lon="34.6838149242"><ele>177.85</ele><time>2026-08-15T06:34:22Z</time></trkpt><trkpt lat="59.3598645274" lon="34.6839072928"><ele>176.80</ele><time>2026-08-15T06:34:40Z</time></trkpt><trkpt lat="59.3598242104" lon="34.6840440854"><ele>176.16</ele><time>2026-08-15T06:34:57Z</time></trkpt><trkpt lat="59.3598337658" lon="34.6842674632"><ele>174.87</ele><time>2026-08-15T06:35:15Z</time></trkpt><trkpt lat="59.3598100450" lon="34.6842955425"><ele>174.44</ele><time>2026-08-15T06:35:23Z</time></trkpt><trkpt lat="59.3597370386" lon="34.6843639389"><ele>174.37</ele><time>2026-08-15T06:35:39Z</time></trkpt><trkpt lat="59.3597223703" lon="34.6844245400"><ele>174.19</ele><time>2026-08-15T06:35:46Z</time></trkpt><trkpt lat="59.3597222865" lon="34.6846112050"><ele>174.14</ele><time>2026-08-15T06:36:01Z</time></trkpt><trkpt lat="59.3597289082" lon="34.6847250313"><ele>174.31</ele><time>2026-08-15T06:36:19Z</time></trkpt><trkpt lat="59.3597188499" lon="34.6847661864"><ele>175.36</ele><time>2026-08-15T06:36:43Z</time></trkpt><trkpt lat="59.3596568238" lon="34.6847987920"><ele>177.17</ele><time>2026-08-15T06:37:10Z</time></trkpt><trkpt lat="59.3597365357" lon="34.6848134603"><ele>178.23</ele><time>2026-08-15T06:37:44Z</time></trkpt><trkpt lat="59.3597430736" lon="34.6848695353"><ele>176.77</ele><time>2026-08-15T06:38:18Z</time></trkpt><trkpt lat="59.3597111385" lon="34.6848163102"><ele>178.08</ele><time>2026-08-15T06:38:43Z</time></trkpt><trkpt lat="59.3596552312" lon="34.6848708764"><ele>178.19</ele><time>2026-08-15T06:39:01Z</time></trkpt><trkpt lat="59.3596139085" lon="34.6850416996"><ele>178.22</ele><time>2026-08-15T06:39:20Z</time></trkpt><trkpt lat="59.3595581688" lon="34.6852455474"><ele>177.26</ele><time>2026-08-15T06:39:41Z</time></trkpt><trkpt lat="59.3595666345" lon="34.6854531672"><ele>175.90</ele><time>2026-08-15T06:39:56Z</time></trkpt><trkpt lat="59.3595650420" lon="34.6855211444"><ele>175.53</ele><time>2026-08-15T06:40:03Z</time></trkpt><trkpt lat="59.3595387228" lon="34.6856089868"><ele>176.02</ele><time>2026-08-15T06:40:28Z</time></trkpt><trkpt lat="59.3595579173" lon="34.6858146787"><ele>175.29</ele><time>2026-08-15T06:40:51Z</time></trkpt><trkpt lat="59.3595233001" lon="34.6859080531"><ele>174.82</ele><time>2026-08-15T06:41:00Z</time></trkpt><trkpt lat="59.3594330270" lon="34.6860244777"><ele>174.58</ele><time>2026-08-15T06:41:18Z</time></trkpt><trkpt lat="59.3593941350" lon="34.6861673053"><ele>175.18</ele><time>2026-08-15T06:41:36Z</time></trkpt><trkpt lat="59.3593927938" lon="34.6863087919"><ele>175.25</ele><time>2026-08-15T06:41:54Z</time></trkpt><trkpt lat="59.3593744375" lon="34.6864207741"><ele>177.29</ele><time>2026-08-15T06:42:19Z</time></trkpt><trkpt lat="59.3593947217" lon="34.6865545493"><ele>178.32</ele><time>2026-08-15T06:42:41Z</time></trkpt><trkpt lat="59.3594156764" lon="34.6865918487"><ele>177.99</ele><time>2026-08-15T06:42:47Z</time></trkpt><trkpt lat="59.3594043609" lon="34.6867390350"><ele>176.69</ele><time>2026-08-15T06:43:07Z</time></trkpt><trkpt lat="59.3593824003" lon="34.6868863050"><ele>176.48</ele><time>2026-08-15T06:43:29Z</time></trkpt><trkpt lat="59.3593808915" lon="34.6868422162"><ele>178.02</ele><time>2026-08-15T06:43:55Z</time></trkpt><trkpt lat="59.3593942188" lon="34.6868295595"><ele>179.73</ele><time>2026-08-15T06:44:24Z</time></trkpt><trkpt lat="59.3593953084" lon="34.6867765021"><ele>182.32</ele><time>2026-08-15T06:44:52Z</time></trkpt><trkpt lat="59.3594046962" lon="34.6867956966"><ele>185.01</ele><time>2026-08-15T06:45:22Z</time></trkpt><trkpt lat="59.3594044447" lon="34.6867686231"><ele>184.87</ele><time>2026-08-15T06:45:51Z</time></trkpt><trkpt lat="59.3593762815" lon="34.6867886558"><ele>185.36</ele><time>2026-08-15T06:46:23Z</time></trkpt><trkpt lat="59.3593924586" lon="34.6867764182"><ele>185.60</ele><time>2026-08-15T06:46:53Z</time></trkpt><trkpt lat="59.3594086356" lon="34.6868336666"><ele>185.38</ele><time>2026-08-15T06:47:17Z</time></trkpt><trkpt lat="59.3593254872" lon="34.6869557910"><ele>184.33</ele><time>2026-08-15T06:47:35Z</time></trkpt><trkpt lat="59.3592850026" lon="34.6871040668"><ele>183.13</ele><time>2026-08-15T06:47:55Z</time></trkpt><trkpt lat="59.3593010120" lon="34.6872178093"><ele>181.48</ele><time>2026-08-15T06:48:15Z</time></trkpt><trkpt lat="59.3592976592" lon="34.6872370876"><ele>181.18</ele><time>2026-08-15T06:48:18Z</time></trkpt><trkpt lat="59.3592827395" lon="34.6873839386"><ele>179.30</ele><time>2026-08-15T06:48:35Z</time></trkpt><trkpt lat="59.3592926301" lon="34.6874618903"><ele>178.54</ele><time>2026-08-15T06:48:54Z</time></trkpt><trkpt lat="59.3592608627" lon="34.6875690110"><ele>178.42</ele><time>2026-08-15T06:49:17Z</time></trkpt><trkpt lat="59.3592078891" lon="34.6877178736"><ele>178.51</ele><time>2026-08-15T06:49:34Z</time></trkpt><trkpt lat="59.3591170292" lon="34.6878068056"><ele>177.92</ele><time>2026-08-15T06:49:59Z</time></trkpt><trkpt lat="59.3590711802" lon="34.6878783870"><ele>177.93</ele><time>2026-08-15T06:50:18Z</time></trkpt><trkpt lat="59.3590472918" lon="34.6879154351"><ele>178.07</ele><time>2026-08-15T06:50:26Z</time></trkpt><trkpt lat="59.3589810748" lon="34.6880532335"><ele>178.48</ele><time>2026-08-15T06:50:48Z</time></trkpt><trkpt lat="59.3589629699" lon="34.6881801356"><ele>178.91</ele><time>2026-08-15T06:51:10Z</time></trkpt><trkpt lat="59.3589785602" lon="34.6882481128"><ele>179.16</ele><time>2026-08-15T06:51:35Z</time></trkpt><trkpt lat="59.3589978386" lon="34.6882071253"><ele>178.95</ele><time>2026-08-15T06:52:00Z</time></trkpt><trkpt lat="59.3589842599" lon="34.6882760245"><ele>178.61</ele><time>2026-08-15T06:52:27Z</time></trkpt><trkpt lat="59.3590177875" lon="34.6884857398"><ele>178.82</ele><time>2026-08-15T06:52:50Z</time></trkpt><trkpt lat="59.3590259179" lon="34.6885303315"><ele>178.66</ele><time>2026-08-15T06:52:57Z</time></trkpt><trkpt lat="59.3590492196" lon="34.6886878274"><ele>177.80</ele><time>2026-08-15T06:53:19Z</time></trkpt><trkpt lat="59.3590635527" lon="34.6888246201"><ele>177.54</ele><time>2026-08-15T06:53:42Z</time></trkpt><trkpt lat="59.3591175321" lon="34.6889373567"><ele>176.53</ele><time>2026-08-15T06:53:59Z</time></trkpt><trkpt lat="59.3591362238" lon="34.6889449004"><ele>176.28</ele><time>2026-08-15T06:54:21Z</time></trkpt><trkpt lat="59.3590955716" lon="34.6888371091"><ele>175.54</ele><time>2026-08-15T06:54:49Z</time></trkpt><trkpt lat="59.3591102399" lon="34.6888034977"><ele>174.77</ele><time>2026-08-15T06:55:19Z</time></trkpt><trkpt lat="59.3591260817" lon="34.6888376959"><ele>174.89</ele><time>2026-08-15T06:55:46Z</time></trkpt><trkpt lat="59.3591056298" lon="34.6889058407"><ele>176.05</ele><time>2026-08-15T06:56:13Z</time></trkpt><trkpt lat="59.3591734394" lon="34.6890618280"><ele>176.33</ele><time>2026-08-15T06:56:37Z</time></trkpt><trkpt lat="59.3592144269" lon="34.6892614849"><ele>176.64</ele><time>2026-08-15T06:57:01Z</time></trkpt><trkpt lat="59.3591847550" lon="34.6891565435"><ele>175.75</ele><time>2026-08-15T06:57:26Z</time></trkpt><trkpt lat="59.3591803126" lon="34.6892121155"><ele>176.59</ele><time>2026-08-15T06:57:53Z</time></trkpt><trkpt lat="59.3591085635" lon="34.6891386062"><ele>177.35</ele><time>2026-08-15T06:58:08Z</time></trkpt><trkpt lat="59.3590581045" lon="34.6891379356"><ele>176.97</ele><time>2026-08-15T06:58:22Z</time></trkpt><trkpt lat="59.3589282688" lon="34.6891848743"><ele>176.60</ele><time>2026-08-15T06:58:46Z</time></trkpt><trkpt lat="59.3588981777" lon="34.6892431285"><ele>176.59</ele><time>2026-08-15T06:59:03Z</time></trkpt><trkpt lat="59.3588757981" lon="34.6894486528"><ele>176.25</ele><time>2026-08-15T06:59:23Z</time></trkpt><trkpt lat="59.3589228205" lon="34.6896017902"><ele>176.15</ele><time>2026-08-15T06:59:41Z</time></trkpt><trkpt lat="59.3589281011" lon="34.6896685101"><ele>176.27</ele><time>2026-08-15T06:59:48Z</time></trkpt><trkpt lat="59.3589234911" lon="34.6898229886"><ele>175.51</ele><time>2026-08-15T07:00:02Z</time></trkpt><trkpt lat="59.3588100839" lon="34.6899572667"><ele>175.47</ele><time>2026-08-15T07:00:22Z</time></trkpt><trkpt lat="59.3588010315" lon="34.6901263297"><ele>175.72</ele><time>2026-08-15T07:00:41Z</time></trkpt><trkpt lat="59.3588018697" lon="34.6901600249"><ele>175.61</ele><time>2026-08-15T07:00:46Z</time></trkpt><trkpt lat="59.3587338924" lon="34.6902861726"><ele>176.94</ele><time>2026-08-15T07:01:11Z</time></trkpt><trkpt lat="59.3586863670" lon="34.6902423352"><ele>178.05</ele><time>2026-08-15T07:01:38Z</time></trkpt><trkpt lat="59.3587449566" lon="34.6902904473"><ele>179.21</ele><time>2026-08-15T07:02:06Z</time></trkpt><trkpt lat="59.3587685097" lon="34.6903019305"><ele>181.35</ele><time>2026-08-15T07:02:36Z</time></trkpt><trkpt lat="59.3587959185" lon="34.6904116496"><ele>180.75</ele><time>2026-08-15T07:03:02Z</time></trkpt><trkpt lat="59.3588354811" lon="34.6905191056"><ele>179.85</ele><time>2026-08-15T07:03:16Z</time></trkpt><trkpt lat="59.3588258419" lon="34.6905557346"><ele>179.40</ele><time>2026-08-15T07:03:22Z</time></trkpt><trkpt lat="59.3587656599" lon="34.6907408908"><ele>177.99</ele><time>2026-08-15T07:03:40Z</time></trkpt><trkpt lat="59.3587385863" lon="34.6908636019"><ele>177.06</ele><time>2026-08-15T07:04:00Z</time></trkpt><trkpt lat="59.3587470520" lon="34.6910157334"><ele>176.61</ele><time>2026-08-15T07:04:27Z</time></trkpt><trkpt lat="59.3587390054" lon="34.6911271289"><ele>177.07</ele><time>2026-08-15T07:04:49Z</time></trkpt><trkpt lat="59.3586831819" lon="34.6912415419"><ele>177.91</ele><time>2026-08-15T07:05:09Z</time></trkpt><trkpt lat="59.3585783243" lon="34.6912987065"><ele>177.10</ele><time>2026-08-15T07:05:34Z</time></trkpt><trkpt lat="59.3585582916" lon="34.6913268697"><ele>177.06</ele><time>2026-08-15T07:05:40Z</time></trkpt><trkpt lat="59.3585177232" lon="34.6915546898"><ele>175.95</ele><time>2026-08-15T07:06:04Z</time></trkpt><trkpt lat="59.3585287035" lon="34.6917379182"><ele>174.46</ele><time>2026-08-15T07:06:23Z</time></trkpt><trkpt lat="59.3585502449" lon="34.6918072365"><ele>174.15</ele><time>2026-08-15T07:06:32Z</time></trkpt><trkpt lat="59.3585547712" lon="34.6919116750"><ele>175.31</ele><time>2026-08-15T07:07:04Z</time></trkpt><trkpt lat="59.3585383426" lon="34.6918897144"><ele>176.69</ele><time>2026-08-15T07:07:32Z</time></trkpt><trkpt lat="59.3584788311" lon="34.6919258405"><ele>177.53</ele><time>2026-08-15T07:08:04Z</time></trkpt><trkpt lat="59.3585282005" lon="34.6919034608"><ele>177.06</ele><time>2026-08-15T07:08:34Z</time></trkpt><trkpt lat="59.3585675955" lon="34.6919721086"><ele>176.03</ele><time>2026-08-15T07:09:07Z</time></trkpt><trkpt lat="59.3585845269" lon="34.6920653991"><ele>175.94</ele><time>2026-08-15T07:09:24Z</time></trkpt><trkpt lat="59.3585562799" lon="34.6920897067"><ele>175.91</ele><time>2026-08-15T07:09:34Z</time></trkpt><trkpt lat="59.3583475705" lon="34.6920804866"><ele>175.67</ele><time>2026-08-15T07:09:56Z</time></trkpt><trkpt lat="59.3582641706" lon="34.6921710949"><ele>175.95</ele><time>2026-08-15T07:10:15Z</time></trkpt><trkpt lat="59.3583369255" lon="34.6923668124"><ele>174.79</ele><time>2026-08-15T07:10:35Z</time></trkpt><trkpt lat="59.3583730515" lon="34.6925662179"><ele>172.49</ele><time>2026-08-15T07:10:50Z</time></trkpt><trkpt lat="59.3583793379" lon="34.6927750949"><ele>171.12</ele><time>2026-08-15T07:11:10Z</time></trkpt><trkpt lat="59.3584137037" lon="34.6929416433"><ele>169.72</ele><time>2026-08-15T07:11:28Z</time></trkpt><trkpt lat="59.3584178947" lon="34.6929866541"><ele>169.31</ele><time>2026-08-15T07:11:35Z</time></trkpt><trkpt lat="59.3584468123" lon="34.6931097005"><ele>170.66</ele><time>2026-08-15T07:11:55Z</time></trkpt><trkpt lat="59.3584202416" lon="34.6932433918"><ele>171.27</ele><time>2026-08-15T07:12:16Z</time></trkpt><trkpt lat="59.3584184814" lon="34.6932944376"><ele>171.39</ele><time>2026-08-15T07:12:22Z</time></trkpt><trkpt lat="59.3583310582" lon="34.6934975311"><ele>172.79</ele><time>2026-08-15T07:12:49Z</time></trkpt><trkpt lat="59.3582635000" lon="34.6934458986"><ele>173.50</ele><time>2026-08-15T07:13:19Z</time></trkpt><trkpt lat="59.3583049905" lon="34.6935900673"><ele>175.89</ele><time>2026-08-15T07:13:47Z</time></trkpt><trkpt lat="59.3583688606" lon="34.6935352497"><ele>175.85</ele><time>2026-08-15T07:14:18Z</time></trkpt><trkpt lat="59.3583370093" lon="34.6935954317"><ele>176.50</ele><time>2026-08-15T07:14:43Z</time></trkpt><trkpt lat="59.3582983688" lon="34.6936852019"><ele>176.67</ele><time>2026-08-15T07:15:06Z</time></trkpt><trkpt lat="59.3582622427" lon="34.6939104237"><ele>176.35</ele><time>2026-08-15T07:15:29Z</time></trkpt><trkpt lat="59.3582026474" lon="34.6939458791"><ele>176.43</ele><time>2026-08-15T07:15:49Z</time></trkpt><trkpt lat="59.3581152242" lon="34.6940638963"><ele>175.14</ele><time>2026-08-15T07:16:07Z</time></trkpt><trkpt lat="59.3581314851" lon="34.6941875294"><ele>174.66</ele><time>2026-08-15T07:16:30Z</time></trkpt><trkpt lat="59.3581670243" lon="34.6941176243"><ele>175.32</ele><time>2026-08-15T07:16:48Z</time></trkpt><trkpt lat="59.3581373524" lon="34.6939169616"><ele>178.48</ele><time>2026-08-15T07:17:20Z</time></trkpt><trkpt lat="59.3581832852" lon="34.6939881239"><ele>177.64</ele><time>2026-08-15T07:17:49Z</time></trkpt><trkpt lat="59.3582120351" lon="34.6939915605"><ele>180.35</ele><time>2026-08-15T07:18:22Z</time></trkpt><trkpt lat="59.3581704609" lon="34.6940240823"><ele>181.70</ele><time>2026-08-15T07:18:54Z</time></trkpt><trkpt lat="59.3582010549" lon="34.6941155288"><ele>182.68</ele><time>2026-08-15T07:19:25Z</time></trkpt><trkpt lat="59.3582217582" lon="34.6941429377"><ele>183.86</ele><time>2026-08-15T07:19:59Z</time></trkpt><trkpt lat="59.3582106940" lon="34.6941422671"><ele>184.30</ele><time>2026-08-15T07:20:31Z</time></trkpt><trkpt lat="59.3581908289" lon="34.6940774750"><ele>184.64</ele><time>2026-08-15T07:21:04Z</time></trkpt><trkpt lat="59.3581414595" lon="34.6941514872"><ele>183.13</ele><time>2026-08-15T07:21:25Z</time></trkpt><trkpt lat="59.3581251986" lon="34.6942265891"><ele>182.63</ele><time>2026-08-15T07:21:34Z</time></trkpt><trkpt lat="59.3580319081" lon="34.6942998469"><ele>182.47</ele><time>2026-08-15T07:21:55Z</time></trkpt><trkpt lat="59.3580106180" lon="34.6942664031"><ele>181.28</ele><time>2026-08-15T07:22:20Z</time></trkpt><trkpt lat="59.3579947762" lon="34.6944111586"><ele>180.53</ele><time>2026-08-15T07:22:41Z</time></trkpt><trkpt lat="59.3580231071" lon="34.6945615299"><ele>179.59</ele><time>2026-08-15T07:22:57Z</time></trkpt><trkpt lat="59.3580808584" lon="34.6946273278"><ele>179.21</ele><time>2026-08-15T07:23:09Z</time></trkpt><trkpt lat="59.3581323233" lon="34.6948150825"><ele>177.68</ele><time>2026-08-15T07:23:30Z</time></trkpt><trkpt lat="59.3581184093" lon="34.6949625202"><ele>175.54</ele><time>2026-08-15T07:23:53Z</time></trkpt><trkpt lat="59.3581101112" lon="34.6949786134"><ele>175.51</ele><time>2026-08-15T07:23:55Z</time></trkpt><trkpt lat="59.3581011426" lon="34.6951139811"><ele>174.18</ele><time>2026-08-15T07:24:18Z</time></trkpt><trkpt lat="59.3581319042" lon="34.6952066850"><ele>172.17</ele><time>2026-08-15T07:24:47Z</time></trkpt><trkpt lat="59.3581417948" lon="34.6952327527"><ele>171.33</ele><time>2026-08-15T07:25:14Z</time></trkpt><trkpt lat="59.3581753224" lon="34.6952130552"><ele>171.08</ele><time>2026-08-15T07:25:40Z</time></trkpt><trkpt lat="59.3580728117" lon="34.6952841338"><ele>170.94</ele><time>2026-08-15T07:26:07Z</time></trkpt><trkpt lat="59.3580804393" lon="34.6952763386"><ele>171.56</ele><time>2026-08-15T07:26:37Z</time></trkpt><trkpt lat="59.3581546191" lon="34.6952629276"><ele>171.23</ele><time>2026-08-15T07:26:49Z</time></trkpt><trkpt lat="59.3583509233" lon="34.6953190863"><ele>171.82</ele><time>2026-08-15T07:27:19Z</time></trkpt><trkpt lat="59.3582565431" lon="34.6952371951"><ele>170.58</ele><time>2026-08-15T07:27:46Z</time></trkpt><trkpt lat="59.3582672719" lon="34.6952321660"><ele>170.93</ele><time>2026-08-15T07:28:13Z</time></trkpt><trkpt lat="59.3582213391" lon="34.6951868199"><ele>172.26</ele><time>2026-08-15T07:28:41Z</time></trkpt><trkpt lat="59.3580995500" lon="34.6952774283"><ele>172.99</ele><time>2026-08-15T07:29:10Z</time></trkpt><trkpt lat="59.3579509389" lon="34.6954039950"><ele>172.59</ele><time>2026-08-15T07:29:40Z</time></trkpt><trkpt lat="59.3579957820" lon="34.6953435615"><ele>173.01</ele><time>2026-08-15T07:30:10Z</time></trkpt><trkpt lat="59.3580995500" lon="34.6954403725"><ele>173.09</ele><time>2026-08-15T07:30:28Z</time></trkpt><trkpt lat="59.3581003882" lon="34.6955155581"><ele>172.10</ele><time>2026-08-15T07:30:47Z</time></trkpt><trkpt lat="59.3580371048" lon="34.6955341659"><ele>171.90</ele><time>2026-08-15T07:31:09Z</time></trkpt><trkpt lat="59.3579709716" lon="34.6954848804"><ele>171.88</ele><time>2026-08-15T07:31:28Z</time></trkpt><trkpt lat="59.3578793574" lon="34.6955201682"><ele>171.13</ele><time>2026-08-15T07:31:51Z</time></trkpt><trkpt lat="59.3578763399" lon="34.6956385206"><ele>170.28</ele><time>2026-08-15T07:32:13Z</time></trkpt><trkpt lat="59.3578558881" lon="34.6958161332"><ele>168.85</ele><time>2026-08-15T07:32:32Z</time></trkpt><trkpt lat="59.3578817882" lon="34.6959579550"><ele>168.26</ele><time>2026-08-15T07:32:44Z</time></trkpt><trkpt lat="59.3578904215" lon="34.6961084101"><ele>168.63</ele><time>2026-08-15T07:33:05Z</time></trkpt><trkpt lat="59.3579281401" lon="34.6961149480"><ele>169.54</ele><time>2026-08-15T07:33:29Z</time></trkpt><trkpt lat="59.3579989672" lon="34.6962054726"><ele>169.24</ele><time>2026-08-15T07:33:47Z</time></trkpt><trkpt lat="59.3579725642" lon="34.6963094920"><ele>168.32</ele><time>2026-08-15T07:33:58Z</time></trkpt><trkpt lat="59.3579040840" lon="34.6963599510"><ele>168.22</ele><time>2026-08-15T07:34:17Z</time></trkpt><trkpt lat="59.3578115478" lon="34.6963529941"><ele>168.48</ele><time>2026-08-15T07:34:35Z</time></trkpt><trkpt lat="59.3578465004" lon="34.6962925605"><ele>168.86</ele><time>2026-08-15T07:34:54Z</time></trkpt><trkpt lat="59.3578307424" lon="34.6963067260"><ele>170.26</ele><time>2026-08-15T07:35:19Z</time></trkpt><trkpt lat="59.3578528706" lon="34.6963269264"><ele>171.93</ele><time>2026-08-15T07:35:46Z</time></trkpt><trkpt lat="59.3578399625" lon="34.6963778883"><ele>172.65</ele><time>2026-08-15T07:36:14Z</time></trkpt><trkpt lat="59.3578089494" lon="34.6963682491"><ele>172.53</ele><time>2026-08-15T07:36:25Z</time></trkpt><trkpt lat="59.3578060996" lon="34.6963392477"><ele>172.40</ele><time>2026-08-15T07:36:53Z</time></trkpt><trkpt lat="59.3578288984" lon="34.6962834243"><ele>172.92</ele><time>2026-08-15T07:37:18Z</time></trkpt><trkpt lat="59.3577547185" lon="34.6963340510"><ele>174.02</ele><time>2026-08-15T07:37:44Z</time></trkpt><trkpt lat="59.3577273097" lon="34.6965564229"><ele>172.25</ele><time>2026-08-15T07:38:06Z</time></trkpt><trkpt lat="59.3577303272" lon="34.6967647970"><ele>171.49</ele><time>2026-08-15T07:38:25Z</time></trkpt><trkpt lat="59.3577279802" lon="34.6968174353"><ele>171.02</ele><time>2026-08-15T07:38:32Z</time></trkpt><trkpt lat="59.3577502761" lon="34.6970672999"><ele>170.01</ele><time>2026-08-15T07:38:52Z</time></trkpt><trkpt lat="59.3576806225" lon="34.6972656995"><ele>167.78</ele><time>2026-08-15T07:39:13Z</time></trkpt><trkpt lat="59.3576421496" lon="34.6974266320"><ele>166.19</ele><time>2026-08-15T07:39:30Z</time></trkpt><trkpt lat="59.3576817960" lon="34.6975826193"><ele>166.37</ele><time>2026-08-15T07:39:53Z</time></trkpt><trkpt lat="59.3576984759" lon="34.6977277938"><ele>165.81</ele><time>2026-08-15T07:40:11Z</time></trkpt><trkpt lat="59.3576806225" lon="34.6979390178"><ele>166.88</ele><time>2026-08-15T07:40:32Z</time></trkpt><trkpt lat="59.3576803710" lon="34.6980178077"><ele>166.88</ele><time>2026-08-15T07:40:52Z</time></trkpt><trkpt lat="59.3576297443" lon="34.6980253514"><ele>167.74</ele><time>2026-08-15T07:41:17Z</time></trkpt><trkpt lat="59.3576540519" lon="34.6980162989"><ele>167.63</ele><time>2026-08-15T07:41:29Z</time></trkpt><trkpt lat="59.3576135673" lon="34.6979914885"><ele>163.81</ele><time>2026-08-15T07:41:58Z</time></trkpt><trkpt lat="59.3576742522" lon="34.6979977749"><ele>167.38</ele><time>2026-08-15T07:42:30Z</time></trkpt><trkpt lat="59.3576288223" lon="34.6981245931"><ele>167.77</ele><time>2026-08-15T07:42:49Z</time></trkpt><trkpt lat="59.3575977255" lon="34.6983439475"><ele>166.39</ele><time>2026-08-15T07:43:10Z</time></trkpt><trkpt lat="59.3576009106" lon="34.6985064726"><ele>167.21</ele><time>2026-08-15T07:43:30Z</time></trkpt><trkpt lat="59.3575274851" lon="34.6987071354"><ele>166.99</ele><time>2026-08-15T07:43:51Z</time></trkpt><trkpt lat="59.3574144132" lon="34.6987689938"><ele>166.22</ele><time>2026-08-15T07:44:11Z</time></trkpt><trkpt lat="59.3573940452" lon="34.6989346202"><ele>164.42</ele><time>2026-08-15T07:44:30Z</time></trkpt><trkpt lat="59.3573769461" lon="34.6989779547"><ele>163.87</ele><time>2026-08-15T07:44:35Z</time></trkpt><trkpt lat="59.3573486153" lon="34.6991102211"><ele>162.22</ele><time>2026-08-15T07:44:42Z</time></trkpt><trkpt lat="59.3573290017" lon="34.6992397215"><ele>163.26</ele><time>2026-08-15T07:45:04Z</time></trkpt><trkpt lat="59.3573556561" lon="34.6993002389"><ele>165.08</ele><time>2026-08-15T07:45:39Z</time></trkpt><trkpt lat="59.3573111482" lon="34.6991951298"><ele>164.46</ele><time>2026-08-15T07:46:06Z</time></trkpt><trkpt lat="59.3572882656" lon="34.6992948744"><ele>166.55</ele><time>2026-08-15T07:46:35Z</time></trkpt><trkpt lat="59.3572809733" lon="34.6993882488"><ele>166.48</ele><time>2026-08-15T07:46:55Z</time></trkpt><trkpt lat="59.3572848290" lon="34.6995859779"><ele>165.85</ele><time>2026-08-15T07:47:12Z</time></trkpt><trkpt lat="59.3572956417" lon="34.6996414661"><ele>165.66</ele><time>2026-08-15T07:47:18Z</time></trkpt><trkpt lat="59.3572842423" lon="34.6998780873"><ele>163.69</ele><time>2026-08-15T07:47:39Z</time></trkpt><trkpt lat="59.3572883494" lon="34.7001109365"><ele>162.41</ele><time>2026-08-15T07:48:01Z</time></trkpt><trkpt lat="59.3572607730" lon="34.7002204042"><ele>161.43</ele><time>2026-08-15T07:48:19Z</time></trkpt><trkpt lat="59.3572159298" lon="34.7003373317"><ele>162.38</ele><time>2026-08-15T07:48:40Z</time></trkpt><trkpt lat="59.3571681529" lon="34.7004084941"><ele>162.98</ele><time>2026-08-15T07:48:48Z</time></trkpt><trkpt lat="59.3571498804" lon="34.7004027106"><ele>163.39</ele><time>2026-08-15T07:49:04Z</time></trkpt><trkpt lat="59.3571585976" lon="34.7004232462"><ele>162.99</ele><time>2026-08-15T07:49:20Z</time></trkpt><trkpt lat="59.3571777921" lon="34.7004637308"><ele>162.88</ele><time>2026-08-15T07:49:39Z</time></trkpt><trkpt lat="59.3571721762" lon="34.7003815044"><ele>162.06</ele><time>2026-08-15T07:50:00Z</time></trkpt><trkpt lat="59.3572316039" lon="34.7003965080"><ele>161.30</ele><time>2026-08-15T07:50:24Z</time></trkpt><trkpt lat="59.3572649639" lon="34.7005488072"><ele>160.97</ele><time>2026-08-15T07:50:41Z</time></trkpt><trkpt lat="59.3572749384" lon="34.7005873639"><ele>160.93</ele><time>2026-08-15T07:50:43Z</time></trkpt><trkpt lat="59.3572889362" lon="34.7006909642"><ele>160.72</ele><time>2026-08-15T07:50:47Z</time></trkpt><trkpt lat="59.3572907802" lon="34.7007418424"><ele>160.47</ele><time>2026-08-15T07:50:49Z</time></trkpt><trkpt lat="59.3572687358" lon="34.7008433472"><ele>160.07</ele><time>2026-08-15T07:51:06Z</time></trkpt><trkpt lat="59.3572749384" lon="34.7007253300"><ele>160.33</ele><time>2026-08-15T07:51:33Z</time></trkpt><trkpt lat="59.3572771177" lon="34.7006874438"><ele>159.98</ele><time>2026-08-15T07:51:35Z</time></trkpt><trkpt lat="59.3572169356" lon="34.7004695144"><ele>158.73</ele><time>2026-08-15T07:51:43Z</time></trkpt><trkpt lat="59.3572383095" lon="34.7003763914"><ele>160.29</ele><time>2026-08-15T07:52:12Z</time></trkpt><trkpt lat="59.3572249822" lon="34.7004107572"><ele>162.84</ele><time>2026-08-15T07:52:44Z</time></trkpt><trkpt lat="59.3572106492" lon="34.7004291974"><ele>163.25</ele><time>2026-08-15T07:53:16Z</time></trkpt><trkpt lat="59.3572000880" lon="34.7004675027"><ele>163.26</ele><time>2026-08-15T07:53:46Z</time></trkpt><trkpt lat="59.3572058715" lon="34.7004452068"><ele>164.67</ele><time>2026-08-15T07:54:16Z</time></trkpt><trkpt lat="59.3571885210" lon="34.7004145291"><ele>166.02</ele><time>2026-08-15T07:55:21Z</time></trkpt><trkpt lat="59.3571942206" lon="34.7004085779"><ele>165.39</ele><time>2026-08-15T07:55:45Z</time></trkpt><trkpt lat="59.3571789656" lon="34.7003815044"><ele>164.83</ele><time>2026-08-15T07:56:12Z</time></trkpt><trkpt lat="59.3571494613" lon="34.7003053967"><ele>163.66</ele><time>2026-08-15T07:56:38Z</time></trkpt><trkpt lat="59.3571590167" lon="34.7003234178"><ele>163.63</ele><time>2026-08-15T07:56:56Z</time></trkpt><trkpt lat="59.3571891077" lon="34.7003758885"><ele>165.17</ele><time>2026-08-15T07:57:15Z</time></trkpt><trkpt lat="59.3571708351" lon="34.7002774011"><ele>165.59</ele><time>2026-08-15T07:57:35Z</time></trkpt><trkpt lat="59.3570793048" lon="34.7001020517"><ele>163.49</ele><time>2026-08-15T07:57:50Z</time></trkpt><trkpt lat="59.3568489701" lon="34.6997332480"><ele>160.29</ele><time>2026-08-15T07:58:11Z</time></trkpt><trkpt lat="59.3567064777" lon="34.6995801944"><ele>158.68</ele><time>2026-08-15T07:58:25Z</time></trkpt><trkpt lat="59.3566048890" lon="34.6994525380"><ele>159.15</ele><time>2026-08-15T07:58:44Z</time></trkpt><trkpt lat="59.3565212376" lon="34.6993583255"><ele>160.02</ele><time>2026-08-15T07:59:00Z</time></trkpt><trkpt lat="59.3563891388" lon="34.6992207784"><ele>160.43</ele><time>2026-08-15T07:59:15Z</time></trkpt><trkpt lat="59.3562850356" lon="34.6990585886"><ele>159.32</ele><time>2026-08-15T07:59:34Z</time></trkpt><trkpt lat="59.3560342491" lon="34.6987766214"><ele>157.74</ele><time>2026-08-15T07:59:57Z</time></trkpt><trkpt lat="59.3558034115" lon="34.6986011881"><ele>157.25</ele><time>2026-08-15T08:00:19Z</time></trkpt><trkpt lat="59.3555827159" lon="34.6986007690"><ele>157.75</ele><time>2026-08-15T08:00:40Z</time></trkpt><trkpt lat="59.3553900160" lon="34.6985052992"><ele>157.05</ele><time>2026-08-15T08:01:00Z</time></trkpt><trkpt lat="59.3552037701" lon="34.6983879525"><ele>157.31</ele><time>2026-08-15T08:01:19Z</time></trkpt><trkpt lat="59.3550445139" lon="34.6982839331"><ele>157.80</ele><time>2026-08-15T08:01:37Z</time></trkpt><trkpt lat="59.3548144307" lon="34.6981571987"><ele>158.71</ele><time>2026-08-15T08:01:58Z</time></trkpt><trkpt lat="59.3547757063" lon="34.6982115135"><ele>158.49</ele><time>2026-08-15T08:02:11Z</time></trkpt><trkpt lat="59.3546770513" lon="34.6980370861"><ele>158.34</ele><time>2026-08-15T08:02:28Z</time></trkpt><trkpt lat="59.3546110019" lon="34.6977303084"><ele>155.60</ele><time>2026-08-15T08:02:45Z</time></trkpt><trkpt lat="59.3546567671" lon="34.6975671127"><ele>153.44</ele><time>2026-08-15T08:03:00Z</time></trkpt><trkpt lat="59.3546904624" lon="34.6975133847"><ele>153.54</ele><time>2026-08-15T08:03:21Z</time></trkpt><trkpt lat="59.3545580283" lon="34.6977744810"><ele>152.48</ele><time>2026-08-15T08:03:36Z</time></trkpt><trkpt lat="59.3543881271" lon="34.6978134569"><ele>153.55</ele><time>2026-08-15T08:03:51Z</time></trkpt><trkpt lat="59.3542490713" lon="34.6980258543"><ele>154.81</ele><time>2026-08-15T08:04:07Z</time></trkpt><trkpt lat="59.3541628215" lon="34.6982604638"><ele>156.34</ele><time>2026-08-15T08:04:21Z</time></trkpt><trkpt lat="59.3540477380" lon="34.6984074824"><ele>156.64</ele><time>2026-08-15T08:04:34Z</time></trkpt><trkpt lat="59.3540256098" lon="34.6984861046"><ele>156.48</ele><time>2026-08-15T08:04:39Z</time></trkpt><trkpt lat="59.3539852090" lon="34.6987321973"><ele>155.83</ele><time>2026-08-15T08:04:55Z</time></trkpt><trkpt lat="59.3539645057" lon="34.6987420879"><ele>155.55</ele><time>2026-08-15T08:04:57Z</time></trkpt><trkpt lat="59.3538419623" lon="34.6988685708"><ele>154.52</ele><time>2026-08-15T08:05:09Z</time></trkpt><trkpt lat="59.3537383620" lon="34.6989500429"><ele>155.00</ele><time>2026-08-15T08:05:23Z</time></trkpt><trkpt lat="59.3537027389" lon="34.6989906952"><ele>154.97</ele><time>2026-08-15T08:05:27Z</time></trkpt><trkpt lat="59.3536560517" lon="34.6993078664"><ele>153.87</ele><time>2026-08-15T08:05:43Z</time></trkpt><trkpt lat="59.3536215182" lon="34.6995169111"><ele>153.18</ele><time>2026-08-15T08:05:54Z</time></trkpt><trkpt lat="59.3535784353" lon="34.6998531930"><ele>153.81</ele><time>2026-08-15T08:06:11Z</time></trkpt><trkpt lat="59.3535418902" lon="34.7000620700"><ele>156.33</ele><time>2026-08-15T08:06:23Z</time></trkpt><trkpt lat="59.3535053451" lon="34.7003940772"><ele>155.70</ele><time>2026-08-15T08:06:39Z</time></trkpt><trkpt lat="59.3534967117" lon="34.7004727833"><ele>155.45</ele><time>2026-08-15T08:06:42Z</time></trkpt><trkpt lat="59.3534794450" lon="34.7006478813"><ele>154.01</ele><time>2026-08-15T08:06:50Z</time></trkpt><trkpt lat="59.3534493539" lon="34.7011200339"><ele>150.16</ele><time>2026-08-15T08:07:12Z</time></trkpt><trkpt lat="59.3534456659" lon="34.7011570819"><ele>149.81</ele><time>2026-08-15T08:07:14Z</time></trkpt><trkpt lat="59.3534453306" lon="34.7012001649"><ele>149.44</ele><time>2026-08-15T08:07:16Z</time></trkpt><trkpt lat="59.3534403853" lon="34.7013063636"><ele>148.81</ele><time>2026-08-15T08:07:21Z</time></trkpt><trkpt lat="59.3534235377" lon="34.7014514543"><ele>148.35</ele><time>2026-08-15T08:07:28Z</time></trkpt><trkpt lat="59.3533817120" lon="34.7018397879"><ele>146.86</ele><time>2026-08-15T08:07:46Z</time></trkpt><trkpt lat="59.3533509504" lon="34.7021437995"><ele>146.41</ele><time>2026-08-15T08:07:59Z</time></trkpt><trkpt lat="59.3533498608" lon="34.7025058139"><ele>144.92</ele><time>2026-08-15T08:08:16Z</time></trkpt><trkpt lat="59.3533124775" lon="34.7029402480"><ele>147.01</ele><time>2026-08-15T08:08:34Z</time></trkpt><trkpt lat="59.3533097953" lon="34.7029619571"><ele>147.23</ele><time>2026-08-15T08:08:35Z</time></trkpt><trkpt lat="59.3533087894" lon="34.7030560859"><ele>147.66</ele><time>2026-08-15T08:08:39Z</time></trkpt><trkpt lat="59.3533074483" lon="34.7034728341"><ele>146.06</ele><time>2026-08-15T08:08:58Z</time></trkpt><trkpt lat="59.3532897625" lon="34.7037268896"><ele>143.41</ele><time>2026-08-15T08:09:12Z</time></trkpt><trkpt lat="59.3532887567" lon="34.7040508501"><ele>140.67</ele><time>2026-08-15T08:09:27Z</time></trkpt><trkpt lat="59.3532387167" lon="34.7043661773"><ele>140.26</ele><time>2026-08-15T08:09:43Z</time></trkpt><trkpt lat="59.3531189393" lon="34.7046338115"><ele>142.24</ele><time>2026-08-15T08:09:59Z</time></trkpt><trkpt lat="59.3530364614" lon="34.7048170399"><ele>144.26</ele><time>2026-08-15T08:10:12Z</time></trkpt><trkpt lat="59.3529004231" lon="34.7050282639"><ele>145.87</ele><time>2026-08-15T08:10:27Z</time></trkpt><trkpt lat="59.3528547417" lon="34.7051316965"><ele>146.31</ele><time>2026-08-15T08:10:34Z</time></trkpt><trkpt lat="59.3527059630" lon="34.7054311819"><ele>148.77</ele><time>2026-08-15T08:10:51Z</time></trkpt><trkpt lat="59.3525846768" lon="34.7057175916"><ele>149.30</ele><time>2026-08-15T08:11:07Z</time></trkpt><trkpt lat="59.3524843454" lon="34.7060638480"><ele>148.53</ele><time>2026-08-15T08:11:27Z</time></trkpt><trkpt lat="59.3523949943" lon="34.7064077575"><ele>148.97</ele><time>2026-08-15T08:11:44Z</time></trkpt><trkpt lat="59.3522711936" lon="34.7066824324"><ele>150.83</ele><time>2026-08-15T08:12:00Z</time></trkpt><trkpt lat="59.3521799985" lon="34.7065915726"><ele>151.12</ele><time>2026-08-15T08:12:15Z</time></trkpt><trkpt lat="59.3521637376" lon="34.7065640800"><ele>151.12</ele><time>2026-08-15T08:12:17Z</time></trkpt><trkpt lat="59.3520476483" lon="34.7063780855"><ele>151.08</ele><time>2026-08-15T08:12:32Z</time></trkpt><trkpt lat="59.3519123644" lon="34.7058810387"><ele>150.45</ele><time>2026-08-15T08:12:54Z</time></trkpt><trkpt lat="59.3519078381" lon="34.7054606024"><ele>148.81</ele><time>2026-08-15T08:13:13Z</time></trkpt><trkpt lat="59.3518795911" lon="34.7054076288"><ele>149.12</ele><time>2026-08-15T08:13:26Z</time></trkpt><trkpt lat="59.3518978637" lon="34.7053934634"><ele>149.25</ele><time>2026-08-15T08:13:30Z</time></trkpt><trkpt lat="59.3519196566" lon="34.7049691714"><ele>148.56</ele><time>2026-08-15T08:13:48Z</time></trkpt><trkpt lat="59.3519277032" lon="34.7045952547"><ele>148.25</ele><time>2026-08-15T08:14:04Z</time></trkpt><trkpt lat="59.3519404437" lon="34.7042120341"><ele>146.27</ele><time>2026-08-15T08:14:21Z</time></trkpt><trkpt lat="59.3519602250" lon="34.7038822062"><ele>144.96</ele><time>2026-08-15T08:14:36Z</time></trkpt><trkpt lat="59.3519754801" lon="34.7034921125"><ele>145.58</ele><time>2026-08-15T08:14:54Z</time></trkpt><trkpt lat="59.3519832753" lon="34.7030737717"><ele>147.16</ele><time>2026-08-15T08:15:10Z</time></trkpt><trkpt lat="59.3519250210" lon="34.7026305366"><ele>147.52</ele><time>2026-08-15T08:15:29Z</time></trkpt><trkpt lat="59.3519167230" lon="34.7026196402"><ele>148.69</ele><time>2026-08-15T08:15:31Z</time></trkpt><trkpt lat="59.3518346641" lon="34.7025686782"><ele>152.60</ele><time>2026-08-15T08:15:40Z</time></trkpt><trkpt lat="59.3517775834" lon="34.7025364079"><ele>154.20</ele><time>2026-08-15T08:15:45Z</time></trkpt><trkpt lat="59.3514913414" lon="34.7024490684"><ele>157.19</ele><time>2026-08-15T08:16:07Z</time></trkpt><trkpt lat="59.3513576500" lon="34.7024203185"><ele>157.71</ele><time>2026-08-15T08:16:18Z</time></trkpt><trkpt lat="59.3511923589" lon="34.7023396008"><ele>158.78</ele><time>2026-08-15T08:16:32Z</time></trkpt><trkpt lat="59.3510219548" lon="34.7023234237"><ele>160.11</ele><time>2026-08-15T08:16:45Z</time></trkpt><trkpt lat="59.3509794585" lon="34.7023903951"><ele>160.32</ele><time>2026-08-15T08:16:58Z</time></trkpt><trkpt lat="59.3509909417" lon="34.7023412772"><ele>159.96</ele><time>2026-08-15T08:17:01Z</time></trkpt><trkpt lat="59.3509954680" lon="34.7022531833"><ele>159.75</ele><time>2026-08-15T08:17:05Z</time></trkpt><trkpt lat="59.3510123994" lon="34.7018696275"><ele>159.03</ele><time>2026-08-15T08:17:21Z</time></trkpt><trkpt lat="59.3510074541" lon="34.7014522925"><ele>159.13</ele><time>2026-08-15T08:17:38Z</time></trkpt><trkpt lat="59.3509428296" lon="34.7010925412"><ele>160.49</ele><time>2026-08-15T08:17:55Z</time></trkpt><trkpt lat="59.3508935440" lon="34.7007689159"><ele>160.15</ele><time>2026-08-15T08:18:12Z</time></trkpt><trkpt lat="59.3508777022" lon="34.7006379068"><ele>160.07</ele><time>2026-08-15T08:18:18Z</time></trkpt><trkpt lat="59.3508600164" lon="34.7005501483"><ele>160.50</ele><time>2026-08-15T08:18:23Z</time></trkpt><trkpt lat="59.3508492038" lon="34.7005151119"><ele>160.78</ele><time>2026-08-15T08:18:25Z</time></trkpt></trkseg></trk></gpx>